FR5580 / EI-DHG 7700 Squawk Report (2nd of July, 2022)

Aircraft B738 Reg No. EI-DHG Age 17 years old
Model 737 Jet engines 2 First flight 07-03-05
Registered 18-03-05 Rollout 24-02-05 Delivered 18-03-05
Construction No. 33576 Line No. 1670 Series 8AS
ADSHEX 4CA263 Airline name Ryanair Owner N/A
Airfield based Dublin~Co Dublin~EI First tracked N/A

Flight history for EI-DHG

Route Flight No Date Playback
Arrecife Airport (ACE) - Santiago (SCQ) FR2001 2022-08-11 18:06:00
Santiago (SCQ) - Arrecife Airport (ACE) FR2002 2022-08-11 15:28:00
Malaga (AGP) - Santiago (SCQ) FR2573 2022-08-11 12:58:00
Barcelona–El Prat (BCN) - Malaga (AGP) FR6386 2022-08-11 10:24:00
Malaga (AGP) - Barcelona–El Prat (BCN) FR6387 2022-08-11 06:51:00
Birmingham (BHX) - Malaga (AGP) FR2266 2022-08-11 05:29:00
Malaga (AGP) - Birmingham (BHX) FR2267 2022-08-10 19:25:00
Ibiza (IBZ) - Malaga (AGP) FR8147 2022-08-10 15:59:00
Malaga (AGP) - Ibiza (IBZ) FR8146 2022-08-10 13:37:00
Merignac (BOD) - Malaga (AGP) FR5089 2022-08-10 11:50:00
Malaga (AGP) - Merignac (BOD) FR5088 2022-08-10 08:16:00
Son Sant Joan (PMI) - Malaga (AGP) FR5676 2022-08-10 06:38:00
Malaga (AGP) - Son Sant Joan (PMI) FR5677 2022-08-09 19:32:00
Menara (RAK) - Malaga (AGP) FR3908 2022-08-09 17:14:00
Berlin Brandenburg Willy Brandt (BER) - Son Sant Joan (PMI) FR218 2022-08-09 13:53:00
Menara (RAK) - Pisa (PSA) FR8877 2022-08-09 09:46:00
???? N/A 2022-08-08 22:03:00
Menara (RAK) - Tille (BVA) FR5212 2022-08-08 18:18:00
???? N/A 2022-08-08 12:59:00
Menara (RAK) - Capodichino (NAP) FR5442 2022-08-08 08:27:00
Time Lat Lon Altitude Heading Speed Vertical Rate
2022-07-02 09:57:20 GMT 38.285362 -0.552764 0 8 0 0
2022-07-02 09:57:08 GMT 38.285362 -0.552765 0 8 0 0
2022-07-02 09:56:56 GMT 38.285213 -0.552793 0 11 6 0
2022-07-02 09:56:44 GMT 38.284859 -0.552881 0 5 7 0
2022-07-02 09:56:29 GMT 38.284515 -0.552633 0 278 8 0
2022-07-02 09:56:25 GMT 38.284492 -0.552443 0 278 8 0
2022-07-02 09:56:09 GMT 38.284378 -0.551742 0 306 8 0
2022-07-02 09:56:00 GMT 38.284115 -0.551508 0 14 9 0
2022-07-02 09:55:53 GMT 38.283817 -0.551705 0 53 12 0
2022-07-02 09:55:42 GMT 38.283405 -0.552457 0 56 17 0
2022-07-02 09:55:31 GMT 38.283070 -0.553317 0 73 16 0
2022-07-02 09:55:20 GMT 38.282799 -0.554284 0 70 15 0
2022-07-02 09:55:10 GMT 38.282558 -0.555102 0 70 18 0
2022-07-02 09:55:00 GMT 38.282246 -0.556422 0 78 31 0
2022-07-02 09:54:48 GMT 38.282326 -0.559094 -25 98 52 0
2022-07-02 09:54:33 GMT 38.283115 -0.564900 -25 100 100 -192
2022-07-02 09:54:22 GMT 38.284103 -0.571757 0 100 125 -384
2022-07-02 09:54:14 GMT 38.285019 -0.578185 100 100 128 -640
2022-07-02 09:54:10 GMT 38.285397 -0.580723 150 100 128 -704
2022-07-02 09:54:03 GMT 38.286049 -0.585500 225 100 125 -576
2022-07-02 09:53:59 GMT 38.286423 -0.588366 250 100 125 -640
2022-07-02 09:53:49 GMT 38.287495 -0.595769 375 100 129 -640
2022-07-02 09:53:37 GMT 38.288773 -0.605300 500 100 130 -640
2022-07-02 09:53:35 GMT 38.288982 -0.606696 525 100 131 -704
2022-07-02 09:53:34 GMT 38.289093 -0.607462 550 100 131 -640
2022-07-02 09:53:33 GMT 38.289215 -0.608308 550 100 131 -704
2022-07-02 09:53:32 GMT 38.289539 -0.610517 575 100 131 -640
2022-07-02 09:53:30 GMT 38.289539 -0.610517 600 100 131 -640
2022-07-02 09:53:29 GMT 38.289642 -0.611377 600 100 130 -640
2022-07-02 09:53:27 GMT 38.289871 -0.612780 625 100 130 -576
2022-07-02 09:53:26 GMT 38.290009 -0.613540 625 99 129 -576
2022-07-02 09:53:23 GMT 38.290379 -0.616429 675 99 129 -576
2022-07-02 09:53:22 GMT 38.290379 -0.616429 675 100 131 -640
2022-07-02 09:53:20 GMT 38.290604 -0.618039 700 100 132 -640
2022-07-02 09:53:19 GMT 38.290707 -0.618877 700 99 133 -640
2022-07-02 09:53:16 GMT 38.291031 -0.621325 750 100 134 -704
2022-07-02 09:53:15 GMT 38.291290 -0.623182 775 100 134 -576
2022-07-02 09:53:12 GMT 38.291428 -0.624059 775 100 134 -576
2022-07-02 09:53:11 GMT 38.291824 -0.626639 825 100 135 -576
2022-07-02 09:53:09 GMT 38.291824 -0.626639 825 99 134 -640
2022-07-02 09:53:07 GMT 38.292007 -0.628072 850 99 135 -832
2022-07-02 09:53:06 GMT 38.292114 -0.628850 850 99 136 -768
2022-07-02 09:53:03 GMT 38.292389 -0.631013 875 99 139 -640
2022-07-02 09:53:01 GMT 38.292572 -0.632532 900 99 139 -640
2022-07-02 09:52:59 GMT 38.292847 -0.634938 925 99 141 -704
2022-07-02 09:52:57 GMT 38.293079 -0.636431 950 100 147 -768
2022-07-02 09:52:56 GMT 38.293396 -0.638668 975 100 148 -704
2022-07-02 09:52:53 GMT 38.293545 -0.639894 1,000 100 150 -704
2022-07-02 09:52:51 GMT 38.293945 -0.642408 1,050 101 152 -704
2022-07-02 09:52:50 GMT 38.293945 -0.642408 1,050 101 152 -704
2022-07-02 09:52:49 GMT 38.294083 -0.643343 1,050 101 154 -768
2022-07-02 09:52:47 GMT 38.294384 -0.645089 1,075 101 155 -832
2022-07-02 09:52:46 GMT 38.294632 -0.646674 1,100 101 156 -832
2022-07-02 09:52:44 GMT 38.294769 -0.647667 1,125 101 156 -832
2022-07-02 09:52:43 GMT 38.294895 -0.648492 1,125 101 157 -960
2022-07-02 09:52:41 GMT 38.295181 -0.650297 1,150 100 158 -768
2022-07-02 09:52:40 GMT 38.295452 -0.652134 1,175 99 158 -896
2022-07-02 09:52:38 GMT 38.295593 -0.653149 1,200 98 159 -832
2022-07-02 09:52:36 GMT 38.295822 -0.654972 1,225 98 160 -832
2022-07-02 09:52:35 GMT 38.295918 -0.655896 1,250 98 160 -768
2022-07-02 09:52:33 GMT 38.296150 -0.657806 1,275 99 162 -832
2022-07-02 09:52:32 GMT 38.296280 -0.659004 1,275 99 163 -768
2022-07-02 09:52:30 GMT 38.296509 -0.660699 1,300 99 163 -704
2022-07-02 09:52:29 GMT 38.296616 -0.661628 1,325 99 163 -896
2022-07-02 09:52:28 GMT 38.296921 -0.663563 1,350 100 163 -704
2022-07-02 09:52:25 GMT 38.297150 -0.665433 1,375 100 162 -768
2022-07-02 09:52:23 GMT 38.297409 -0.667061 1,400 99 162 -704
2022-07-02 09:52:22 GMT 38.297546 -0.668076 1,425 99 161 -768
2022-07-02 09:52:20 GMT 38.297791 -0.669991 1,450 100 161 -832
2022-07-02 09:52:19 GMT 38.297882 -0.670809 1,450 100 161 -768
2022-07-02 09:52:18 GMT 38.298248 -0.673088 1,475 100 162 -768
2022-07-02 09:52:16 GMT 38.298386 -0.674166 1,500 100 162 -768
2022-07-02 09:52:15 GMT 38.298664 -0.675779 1,525 100 163 -896
2022-07-02 09:52:13 GMT 38.298805 -0.676734 1,525 100 164 -832
2022-07-02 09:52:12 GMT 38.299225 -0.679481 1,575 100 165 -960
2022-07-02 09:52:10 GMT 38.299225 -0.679481 1,575 100 165 -960
2022-07-02 09:52:09 GMT 38.299503 -0.681570 1,625 100 166 -832
2022-07-02 09:52:07 GMT 38.299599 -0.682466 1,625 99 166 -832
2022-07-02 09:52:05 GMT 38.299877 -0.684377 1,650 99 167 -896
2022-07-02 09:52:04 GMT 38.300125 -0.686470 1,700 98 167 -1024
2022-07-02 09:52:02 GMT 38.300262 -0.687405 1,700 98 167 -832
2022-07-02 09:52:00 GMT 38.300480 -0.689273 1,725 98 167 -960
2022-07-02 09:51:59 GMT 38.300621 -0.690228 1,750 98 168 -896
2022-07-02 09:51:57 GMT 38.300854 -0.692198 1,775 99 168 -832
2022-07-02 09:51:56 GMT 38.300995 -0.693191 1,775 99 169 -896
2022-07-02 09:51:54 GMT 38.301224 -0.695119 1,825 100 170 -768
2022-07-02 09:51:53 GMT 38.301407 -0.696171 1,825 100 170 -896
2022-07-02 09:51:52 GMT 38.301785 -0.698826 1,850 100 171 -768
2022-07-02 09:51:50 GMT 38.301785 -0.698826 1,875 100 172 -768
2022-07-02 09:51:45 GMT 38.302437 -0.703543 1,950 100 175 -896
2022-07-02 09:51:40 GMT 38.303238 -0.709261 2,025 100 176 -960
2022-07-02 09:51:35 GMT 38.303925 -0.714052 2,100 100 177 -896
2022-07-02 09:51:30 GMT 38.304672 -0.719306 2,175 100 177 -832
2022-07-02 09:51:24 GMT 38.305481 -0.724981 2,250 100 179 -896
2022-07-02 09:51:20 GMT 38.306213 -0.729773 2,325 99 178 -960
2022-07-02 09:51:14 GMT 38.307045 -0.735965 2,425 100 180 -1024
2022-07-02 09:51:11 GMT 38.307556 -0.739308 2,475 101 180 -1024
2022-07-02 09:51:03 GMT 38.308628 -0.747130 2,600 99 180 -896
2022-07-02 09:51:00 GMT 38.309143 -0.750927 2,650 99 179 -1024
2022-07-02 09:50:55 GMT 38.309792 -0.755609 2,725 100 179 -960
2022-07-02 09:50:51 GMT 38.310444 -0.760266 2,800 99 180 -960
2022-07-02 09:50:49 GMT 38.310581 -0.761460 2,825 99 180 -1024
2022-07-02 09:50:46 GMT 38.311203 -0.765770 2,900 99 180 -960
2022-07-02 09:50:41 GMT 38.312073 -0.772566 3,000 99 180 -960
2022-07-02 09:50:29 GMT 38.313469 -0.783074 3,150 99 180 -960
2022-07-02 09:50:25 GMT 38.314030 -0.787075 3,250 100 180 -832
2022-07-02 09:50:19 GMT 38.314960 -0.793404 3,300 100 181 -768
2022-07-02 09:50:14 GMT 38.315659 -0.798300 3,350 99 181 -704
2022-07-02 09:50:09 GMT 38.316448 -0.804032 3,400 100 181 -768
2022-07-02 09:50:03 GMT 38.317287 -0.809883 3,475 100 182 -832
2022-07-02 09:49:59 GMT 38.317890 -0.814541 3,550 99 183 -1152
2022-07-02 09:49:53 GMT 38.318710 -0.820527 3,650 100 183 -1216
2022-07-02 09:49:50 GMT 38.319122 -0.823332 3,700 100 183 -1408
2022-07-02 09:49:48 GMT 38.319397 -0.825436 3,750 100 181 -1408
2022-07-02 09:49:42 GMT 38.320267 -0.831498 3,925 98 177 -640
2022-07-02 09:49:38 GMT 38.320919 -0.835976 4,000 100 177 -1344
2022-07-02 09:49:31 GMT 38.321915 -0.843259 4,150 99 177 -1216
2022-07-02 09:49:28 GMT 38.322327 -0.846298 4,200 99 178 -1024
2022-07-02 09:49:21 GMT 38.323200 -0.853411 4,300 98 177 -640
2022-07-02 09:49:18 GMT 38.323620 -0.856993 4,350 97 179 -576
2022-07-02 09:49:08 GMT 38.324829 -0.867621 4,400 99 188 -192
2022-07-02 09:49:00 GMT 38.325947 -0.876160 4,425 99 197 -384
2022-07-02 09:48:58 GMT 38.326355 -0.878965 4,450 100 200 -768
2022-07-02 09:48:49 GMT 38.327854 -0.889176 4,600 102 207 -1344
2022-07-02 09:48:47 GMT 38.328178 -0.891146 4,650 102 209 -1408
2022-07-02 09:48:37 GMT 38.330658 -0.903275 4,975 104 210 -2112
2022-07-02 09:48:31 GMT 38.332169 -0.910930 5,200 104 205 -2048
2022-07-02 09:48:28 GMT 38.333084 -0.915488 5,325 105 202 -2048
2022-07-02 09:48:21 GMT 38.334641 -0.922150 5,525 108 199 -1856
2022-07-02 09:48:17 GMT 38.335876 -0.926592 5,625 113 194 -1472
2022-07-02 09:48:11 GMT 38.338348 -0.932903 5,750 121 192 -1024
2022-07-02 09:48:06 GMT 38.340515 -0.937420 5,825 122 191 -640
2022-07-02 09:48:01 GMT 38.342972 -0.942311 5,875 122 194 -832
2022-07-02 09:47:55 GMT 38.345684 -0.947750 5,950 122 193 -832
2022-07-02 09:47:51 GMT 38.347916 -0.952246 6,025 121 193 -768
2022-07-02 09:47:44 GMT 38.351223 -0.959035 6,100 121 193 -704
2022-07-02 09:47:40 GMT 38.352760 -0.962259 6,150 121 194 -832
2022-07-02 09:47:36 GMT 38.354691 -0.966212 6,200 121 195 -832
2022-07-02 09:47:33 GMT 38.356018 -0.969006 6,275 121 196 -832
2022-07-02 09:47:30 GMT 38.357601 -0.972230 6,300 121 196 -832
2022-07-02 09:47:25 GMT 38.360550 -0.978251 6,375 121 198 -832
2022-07-02 09:47:20 GMT 38.362518 -0.982224 6,425 121 201 -640
2022-07-02 09:47:16 GMT 38.364441 -0.986198 6,450 121 202 -512
2022-07-02 09:47:09 GMT 38.367981 -0.993546 6,550 121 205 -960
2022-07-02 09:47:06 GMT 38.369797 -0.997301 6,625 122 205 -1024
2022-07-02 09:47:00 GMT 38.372818 -1.002970 6,775 173 209 -128
2022-07-02 09:46:54 GMT 38.376640 -1.008115 6,775 140 201 -704
2022-07-02 09:46:49 GMT 38.379761 -1.010921 6,825 150 199 -832
2022-07-02 09:46:46 GMT 38.382843 -1.012846 6,900 160 197 -1024
2022-07-02 09:46:42 GMT 38.386276 -1.014146 7,075 174 200 -832
2022-07-02 09:46:39 GMT 38.388416 -1.014623 7,000 172 197 -896
2022-07-02 09:46:34 GMT 38.394749 -1.015459 7,075 174 200 -832
2022-07-02 09:46:29 GMT 38.401218 -1.016355 7,200 173 209 -128
2022-07-02 09:46:26 GMT 38.401218 -1.016355 7,175 173 204 -640
2022-07-02 09:46:23 GMT 38.403549 -1.016653 7,200 173 207 -320
2022-07-02 09:46:19 GMT 38.407272 -1.017191 7,200 173 210 -128
2022-07-02 09:46:15 GMT 38.411682 -1.017813 7,225 173 213 -320
2022-07-02 09:46:12 GMT 38.414291 -1.018206 7,250 173 215 -448
2022-07-02 09:46:09 GMT 38.417328 -1.018677 7,275 173 217 -640
2022-07-02 09:45:58 GMT 38.428574 -1.020236 7,450 174 219 -960
2022-07-02 09:45:53 GMT 38.434662 -1.020833 7,550 198 219 -768
2022-07-02 09:45:49 GMT 38.437729 -1.020833 7,575 185 219 -832
2022-07-02 09:45:45 GMT 38.441528 -1.020236 7,625 193 219 -768
2022-07-02 09:45:38 GMT 38.447819 -1.017639 7,725 207 221 -896
2022-07-02 09:45:32 GMT 38.453842 -1.012653 7,850 222 225 -1216
2022-07-02 09:45:28 GMT 38.456154 -1.009949 7,900 226 227 -1088
2022-07-02 09:45:25 GMT 38.458878 -1.006443 7,975 227 227 -1088
2022-07-02 09:45:18 GMT 38.463554 -1.000122 8,075 227 228 -1088
2022-07-02 09:45:14 GMT 38.466476 -0.996173 8,150 227 228 -1024
2022-07-02 09:45:11 GMT 38.469131 -0.992591 8,200 227 229 -960
2022-07-02 09:45:08 GMT 38.471466 -0.989486 8,250 227 229 -896
2022-07-02 09:45:05 GMT 38.473656 -0.986511 8,300 227 230 -896
2022-07-02 09:45:02 GMT 38.476635 -0.982544 8,375 227 231 -960
2022-07-02 09:44:58 GMT 38.481339 -0.976318 8,550 226 232 -1088
2022-07-02 09:44:54 GMT 38.481339 -0.976318 8,475 226 232 -1088
2022-07-02 09:44:51 GMT 38.483757 -0.973145 8,525 226 232 -1024
2022-07-02 09:44:48 GMT 38.486179 -0.969910 8,600 226 234 -1024
2022-07-02 09:44:44 GMT 38.488831 -0.966492 8,650 226 234 -1088
2022-07-02 09:44:41 GMT 38.491390 -0.963135 8,725 226 234 -1152
2022-07-02 09:44:35 GMT 38.496323 -0.956706 8,850 226 234 -1152
2022-07-02 09:44:30 GMT 38.499306 -0.952820 8,925 226 235 -1088
2022-07-02 09:44:27 GMT 38.501678 -0.949707 9,125 226 236 -1088
2022-07-02 09:44:24 GMT 38.504105 -0.946556 9,025 226 236 -1088
2022-07-02 09:44:21 GMT 38.506706 -0.943115 9,100 226 236 -1088
2022-07-02 09:44:17 GMT 38.509548 -0.939392 9,150 226 236 -1088
2022-07-02 09:44:14 GMT 38.511734 -0.936584 9,200 226 236 -1088
2022-07-02 09:44:11 GMT 38.514267 -0.933241 9,275 226 237 -1088
2022-07-02 09:44:07 GMT 38.516994 -0.929626 9,325 226 238 -1088
2022-07-02 09:44:04 GMT 38.519836 -0.925964 9,400 226 238 -1088
2022-07-02 09:43:57 GMT 38.524933 -0.919269 9,625 226 239 -1088
2022-07-02 09:43:54 GMT 38.527359 -0.916105 9,575 226 239 -1152
2022-07-02 09:43:47 GMT 38.532578 -0.909178 9,725 226 241 -1024
2022-07-02 09:43:44 GMT 38.535233 -0.905775 9,750 227 241 -1024
2022-07-02 09:43:37 GMT 38.540550 -0.898743 9,925 226 243 -1152
2022-07-02 09:43:33 GMT 38.543427 -0.894908 9,950 226 242 -1152
2022-07-02 09:43:29 GMT 38.547318 -0.889833 10,050 226 243 -1088
2022-07-02 09:43:26 GMT 38.548691 -0.888042 10,525 226 243 -1088
2022-07-02 09:43:23 GMT 38.551529 -0.884340 10,150 226 243 -1088
2022-07-02 09:43:18 GMT 38.555542 -0.879028 10,250 226 244 -1216
2022-07-02 09:43:14 GMT 38.558945 -0.874607 10,325 226 244 -1216
2022-07-02 09:43:06 GMT 38.564621 -0.867203 10,500 226 245 -1152
2022-07-02 09:43:03 GMT 38.567139 -0.863919 10,525 226 246 -1152
2022-07-02 09:42:56 GMT 38.572769 -0.856635 10,700 226 247 -1152
2022-07-02 09:42:53 GMT 38.575333 -0.853351 10,725 226 247 -1152
2022-07-02 09:42:46 GMT 38.580772 -0.846313 11,450 225 248 -1152
2022-07-02 09:42:43 GMT 38.583519 -0.842834 10,925 225 248 -1152
2022-07-02 09:42:39 GMT 38.587196 -0.838196 11,025 225 248 -1216
2022-07-02 09:42:36 GMT 38.589249 -0.835677 11,450 225 248 -1216
2022-07-02 09:42:32 GMT 38.592133 -0.831970 11,150 225 248 -1280
2022-07-02 09:42:28 GMT 38.595154 -0.828214 11,250 225 248 -1280
2022-07-02 09:42:25 GMT 38.597672 -0.825012 11,275 225 248 -1280
2022-07-02 09:42:22 GMT 38.600185 -0.821899 11,350 225 248 -1280
2022-07-02 09:42:19 GMT 38.603119 -0.818243 11,425 225 248 -1280
2022-07-02 09:42:15 GMT 38.606003 -0.814636 11,750 224 249 -1216
2022-07-02 09:42:12 GMT 38.608429 -0.811615 11,550 225 248 -1152
2022-07-02 09:42:08 GMT 38.611961 -0.807312 11,650 224 249 -1280
2022-07-02 09:42:05 GMT 38.614197 -0.804569 11,750 224 249 -1216
2022-07-02 09:42:02 GMT 38.617126 -0.800987 11,775 224 250 -1216
2022-07-02 09:41:58 GMT 38.620193 -0.797285 11,875 223 249 -1152
2022-07-02 09:41:53 GMT 38.625458 -0.791254 11,950 220 251 -1088
2022-07-02 09:41:46 GMT 38.631420 -0.785889 12,075 211 251 -1152
2022-07-02 09:41:42 GMT 38.635757 -0.783134 12,150 201 254 -1216
2022-07-02 09:41:38 GMT 38.641525 -0.780686 12,250 196 255 -1024
2022-07-02 09:41:35 GMT 38.643768 -0.779850 12,275 196 255 -960
2022-07-02 09:41:32 GMT 38.647156 -0.778716 12,325 196 256 -896
2022-07-02 09:41:27 GMT 38.651951 -0.777039 12,400 196 258 -768
2022-07-02 09:41:22 GMT 38.658829 -0.774536 12,450 197 261 -576
2022-07-02 09:41:17 GMT 38.664242 -0.772583 12,525 197 263 -896
2022-07-02 09:41:14 GMT 38.667709 -0.771312 12,550 197 265 -960
2022-07-02 09:41:10 GMT 38.672882 -0.769401 12,625 197 267 -1024
2022-07-02 09:41:04 GMT 38.679291 -0.766953 12,725 197 270 -1088
2022-07-02 09:40:59 GMT 38.685654 -0.764587 12,825 197 273 -1280
2022-07-02 09:40:54 GMT 38.691334 -0.762512 12,925 196 276 -1216
2022-07-02 09:40:51 GMT 38.695450 -0.761042 12,975 196 278 -896
2022-07-02 09:40:48 GMT 38.698734 -0.759888 13,025 196 279 -960
2022-07-02 09:40:42 GMT 38.707672 -0.756683 13,150 196 281 -1024
2022-07-02 09:40:38 GMT 38.713074 -0.754713 13,225 196 283 -1024
2022-07-02 09:40:31 GMT 38.720570 -0.752014 13,325 196 285 -1088
2022-07-02 09:40:27 GMT 38.725754 -0.750175 13,400 196 285 -1280
2022-07-02 09:40:21 GMT 38.733673 -0.747309 13,550 196 286 -1472
2022-07-02 09:40:17 GMT 38.738815 -0.745483 13,650 196 286 -1536
2022-07-02 09:40:11 GMT 38.746628 -0.742652 13,825 196 286 -1536
2022-07-02 09:40:06 GMT 38.752178 -0.740662 13,925 196 287 -1536
2022-07-02 09:40:01 GMT 38.759159 -0.738159 14,075 196 287 -1536
2022-07-02 09:39:56 GMT 38.765770 -0.735779 14,200 196 287 -1536
2022-07-02 09:39:51 GMT 38.772011 -0.733521 14,325 196 289 -1536
2022-07-02 09:39:43 GMT 38.782158 -0.729858 14,525 196 288 -1536
2022-07-02 09:39:35 GMT 38.793228 -0.725874 14,750 196 289 -1536
2022-07-02 09:39:30 GMT 38.798824 -0.723877 14,850 196 289 -1536
2022-07-02 09:39:24 GMT 38.806923 -0.720947 15,050 196 290 -1536
2022-07-02 09:39:21 GMT 38.811810 -0.719177 15,125 196 290 -1536
2022-07-02 09:39:14 GMT 38.819584 -0.716370 15,575 196 291 -1536
2022-07-02 09:39:08 GMT 38.833649 -0.711305 15,550 196 292 -1536
2022-07-02 09:39:03 GMT 38.834290 -0.711126 15,575 196 292 -1536
2022-07-02 09:39:00 GMT 38.837677 -0.709872 15,625 196 292 -1536
2022-07-02 09:38:53 GMT 38.846867 -0.706543 15,925 196 294 -1600
2022-07-02 09:38:50 GMT 38.851101 -0.705017 15,900 196 294 -1600
2022-07-02 09:38:46 GMT 38.856354 -0.703125 16,000 196 294 -1536
2022-07-02 09:38:40 GMT 38.864227 -0.700319 16,150 196 295 -1536
2022-07-02 09:38:34 GMT 38.871586 -0.697632 16,300 196 295 -1536
2022-07-02 09:38:30 GMT 38.877365 -0.695542 16,425 196 296 -1536
2022-07-02 09:38:25 GMT 38.883968 -0.693176 16,550 196 296 -1536
2022-07-02 09:38:19 GMT 38.891460 -0.690491 16,700 196 297 -1600
2022-07-02 09:38:15 GMT 38.897278 -0.688377 16,800 196 297 -1600
2022-07-02 09:38:12 GMT 38.900986 -0.687004 16,875 196 297 -1536
2022-07-02 09:38:08 GMT 38.905746 -0.685272 16,975 196 298 -1536
2022-07-02 09:38:05 GMT 38.910233 -0.683660 17,050 196 298 -1536
2022-07-02 09:37:58 GMT 38.919708 -0.680197 17,325 196 301 -1216
2022-07-02 09:37:55 GMT 38.923954 -0.678650 17,300 196 301 -1216
2022-07-02 09:37:49 GMT 38.931610 -0.675838 17,400 196 301 -1024
2022-07-02 09:37:45 GMT 38.937607 -0.673629 17,475 196 301 -1024
2022-07-02 09:37:39 GMT 38.945251 -0.670883 17,575 196 302 -1024
2022-07-02 09:37:35 GMT 38.951569 -0.668554 17,650 196 302 -1024
2022-07-02 09:37:31 GMT 38.955845 -0.667053 17,725 196 302 -1024
2022-07-02 09:37:28 GMT 38.959103 -0.665833 17,750 196 302 -1024
2022-07-02 09:37:24 GMT 38.965248 -0.663635 17,950 196 303 -1024
2022-07-02 09:37:19 GMT 38.972351 -0.661031 17,925 196 303 -1024
2022-07-02 09:37:14 GMT 38.979034 -0.658642 18,000 196 303 -1024
2022-07-02 09:37:11 GMT 38.983028 -0.657227 18,050 196 303 -1024
2022-07-02 09:37:08 GMT 38.986359 -0.656015 18,225 196 303 -1024
2022-07-02 09:37:04 GMT 38.992664 -0.653748 18,175 196 303 -1024
2022-07-02 09:36:58 GMT 39.000046 -0.651059 18,275 196 303 -1024
2022-07-02 09:36:53 GMT 39.006546 -0.648731 18,450 196 303 -1024
2022-07-02 09:36:49 GMT 39.013149 -0.646362 18,425 196 303 -1024
2022-07-02 09:36:43 GMT 39.020924 -0.643555 18,525 196 304 -1024
2022-07-02 09:36:38 GMT 39.027580 -0.641174 18,625 196 304 -1024
2022-07-02 09:36:32 GMT 39.035355 -0.638367 18,725 196 304 -1024
2022-07-02 09:36:28 GMT 39.041107 -0.636311 18,800 196 303 -1024
2022-07-02 09:36:21 GMT 39.054626 -0.631348 19,000 196 304 -1024
2022-07-02 09:36:18 GMT 39.054626 -0.631348 18,975 196 304 -1024
2022-07-02 09:36:06 GMT 39.077297 -0.622986 19,250 197 305 -1088
2022-07-02 09:35:58 GMT 39.082092 -0.621216 19,325 197 306 -1088
2022-07-02 09:35:47 GMT 39.096222 -0.616011 21,250 196 312 -1088
2022-07-02 09:35:36 GMT 39.119194 -0.607605 19,825 196 315 -1088
2022-07-02 09:35:27 GMT 39.124100 -0.605800 19,875 196 316 -1088
2022-07-02 09:35:17 GMT 39.138748 -0.600525 20,075 196 322 -1088
2022-07-02 09:35:06 GMT 39.162537 -0.592102 20,375 196 330 -1152
2022-07-02 09:34:57 GMT 39.167816 -0.590217 20,450 196 333 -1152
2022-07-02 09:34:46 GMT 39.184368 -0.584290 20,650 196 339 -1152
2022-07-02 09:34:36 GMT 39.208649 -0.575409 20,950 196 349 -1088
2022-07-02 09:34:26 GMT 39.214691 -0.573200 21,250 196 352 -960
2022-07-02 09:34:22 GMT 39.221558 -0.570692 21,100 196 352 -960
2022-07-02 09:34:17 GMT 39.236042 -0.565369 21,250 196 354 -1024
2022-07-02 09:34:05 GMT 39.256336 -0.557983 21,475 196 356 -1024
2022-07-02 09:33:56 GMT 39.262623 -0.555725 21,525 196 357 -1024
2022-07-02 09:33:48 GMT 39.275517 -0.551025 21,675 196 357 -960
2022-07-02 09:33:43 GMT 39.283432 -0.548157 21,750 196 358 -960
2022-07-02 09:33:34 GMT 39.301167 -0.541687 21,975 196 359 -960
2022-07-02 09:33:31 GMT 39.301167 -0.541687 21,925 196 358 -960
2022-07-02 09:33:25 GMT 39.312103 -0.537673 22,050 196 359 -960
2022-07-02 09:33:19 GMT 39.328632 -0.531555 22,200 196 363 -1088
2022-07-02 09:33:10 GMT 39.336128 -0.528809 22,300 197 365 -1024
2022-07-02 09:33:00 GMT 39.352707 -0.522687 22,475 197 367 -1024
2022-07-02 09:32:48 GMT 39.380260 -0.512512 22,750 196 368 -1024
2022-07-02 09:32:33 GMT 39.404606 -0.503601 23,000 196 368 -1024
2022-07-02 09:32:17 GMT 39.421738 -0.497314 23,175 196 370 -1024
2022-07-02 09:32:04 GMT 39.452774 -0.485906 23,500 196 373 -960
2022-07-02 09:31:53 GMT 39.461380 -0.482742 23,575 196 373 -960
2022-07-02 09:31:43 GMT 39.478252 -0.476562 23,750 196 374 -960
2022-07-02 09:31:35 GMT 39.493240 -0.471039 23,900 197 375 -1024
2022-07-02 09:31:32 GMT 39.497524 -0.469421 23,950 197 375 -1024
2022-07-02 09:31:24 GMT 39.510132 -0.464769 24,050 196 377 -960
2022-07-02 09:31:21 GMT 39.515354 -0.462769 24,125 196 378 -960
2022-07-02 09:31:14 GMT 39.527458 -0.458313 24,225 196 379 -960
2022-07-02 09:31:11 GMT 39.532196 -0.456589 24,375 196 380 -1024
2022-07-02 09:31:01 GMT 39.550270 -0.450012 24,450 196 380 -1024
2022-07-02 09:30:47 GMT 39.581039 -0.438660 24,750 196 381 -960
2022-07-02 09:30:38 GMT 39.587814 -0.436169 24,875 196 381 -1024
2022-07-02 09:30:29 GMT 39.603943 -0.430237 24,975 196 380 -1024
2022-07-02 09:30:17 GMT 39.632339 -0.419800 25,275 196 382 -960
2022-07-02 09:30:08 GMT 39.639046 -0.417358 25,325 196 382 -960
2022-07-02 09:30:02 GMT 39.650543 -0.413086 25,450 196 381 -1024
2022-07-02 09:29:57 GMT 39.657200 -0.410645 25,500 196 381 -1024
2022-07-02 09:29:47 GMT 39.683258 -0.401061 25,775 196 381 -960
2022-07-02 09:29:40 GMT 39.686852 -0.399780 25,800 196 381 -1024
2022-07-02 09:29:37 GMT 39.692627 -0.397583 25,850 197 382 -1024
2022-07-02 09:29:30 GMT 39.703033 -0.393717 25,950 197 382 -1024
2022-07-02 09:29:26 GMT 39.710735 -0.390869 26,025 197 384 -1024
2022-07-02 09:29:20 GMT 39.720703 -0.387149 26,125 197 383 -1024
2022-07-02 09:29:15 GMT 39.728760 -0.384163 26,225 197 383 -960
2022-07-02 09:29:11 GMT 39.737923 -0.380737 26,300 196 382 -1024
2022-07-02 09:29:05 GMT 39.746750 -0.377416 26,400 196 382 -960
2022-07-02 09:28:57 GMT 39.759987 -0.372559 26,525 196 381 -960
2022-07-02 09:28:54 GMT 39.765015 -0.370728 26,575 196 381 -1024
2022-07-02 09:28:50 GMT 39.772339 -0.367982 26,650 196 382 -960
2022-07-02 09:28:44 GMT 39.782822 -0.364101 26,750 197 382 -1024
2022-07-02 09:28:38 GMT 39.793224 -0.360291 26,850 197 383 -1024
2022-07-02 09:28:33 GMT 39.800953 -0.357422 26,925 196 385 -1024
2022-07-02 09:28:28 GMT 39.810837 -0.353712 27,025 197 386 -1024
2022-07-02 09:28:22 GMT 39.819260 -0.350547 27,100 197 387 -960
2022-07-02 09:28:19 GMT 39.824833 -0.348511 27,150 197 388 -960
2022-07-02 09:28:12 GMT 39.837204 -0.343860 27,275 197 388 -960
2022-07-02 09:28:09 GMT 39.842384 -0.341980 27,325 197 388 -960
2022-07-02 09:28:02 GMT 39.854965 -0.337292 27,525 197 390 -960
2022-07-02 09:27:59 GMT 39.860260 -0.335327 28,275 196 390 -896
2022-07-02 09:27:46 GMT 39.891312 -0.323798 27,750 197 390 -896
2022-07-02 09:27:39 GMT 39.895596 -0.322205 27,775 197 389 -896
2022-07-02 09:27:30 GMT 39.909897 -0.316812 27,900 197 387 -896
2022-07-02 09:27:27 GMT 39.914448 -0.315186 27,950 196 386 -832
2022-07-02 09:27:15 GMT 39.943405 -0.304382 28,150 196 378 -704
2022-07-02 09:27:08 GMT 39.948151 -0.302623 28,175 196 376 -704
2022-07-02 09:26:58 GMT 39.965096 -0.296444 28,325 196 367 -640
2022-07-02 09:26:55 GMT 39.969238 -0.294883 28,350 196 361 -640
2022-07-02 09:26:45 GMT 39.993259 -0.286019 28,550 197 349 -896
2022-07-02 09:26:37 GMT 39.998245 -0.284180 28,600 197 347 -1024
2022-07-02 09:26:30 GMT 40.008530 -0.280276 28,775 197 347 -1024
2022-07-02 09:26:25 GMT 40.015640 -0.277527 28,750 197 347 -1024
2022-07-02 09:26:15 GMT 40.039948 -0.268005 29,025 197 346 -960
2022-07-02 09:26:06 GMT 40.045532 -0.265808 29,100 197 347 -1024
2022-07-02 09:25:55 GMT 40.062389 -0.259240 29,300 197 351 -960
2022-07-02 09:25:44 GMT 40.086784 -0.249752 29,525 197 351 -960
2022-07-02 09:25:35 GMT 40.092510 -0.247567 29,575 197 351 -1024
2022-07-02 09:25:31 GMT 40.101402 -0.244071 29,675 197 351 -1024
2022-07-02 09:25:26 GMT 40.108063 -0.241516 29,750 197 350 -1024
2022-07-02 09:25:23 GMT 40.126911 -0.234146 30,250 197 350 -1024
2022-07-02 09:25:13 GMT 40.126911 -0.234146 29,975 197 349 -1024
2022-07-02 09:25:03 GMT 40.142990 -0.227783 30,150 197 349 -1024
2022-07-02 09:24:58 GMT 40.152512 -0.224060 30,300 197 352 -1024
2022-07-02 09:24:55 GMT 40.155899 -0.222717 30,275 197 352 -1024
2022-07-02 09:24:51 GMT 40.161312 -0.220600 30,525 197 359 -1024
2022-07-02 09:24:45 GMT 40.179520 -0.213501 30,525 197 359 -1024
2022-07-02 09:24:40 GMT 40.179520 -0.213501 30,525 197 357 -1024
2022-07-02 09:24:35 GMT 40.188129 -0.210114 30,600 197 360 -1024
2022-07-02 09:24:29 GMT 40.205074 -0.203497 30,800 197 360 -1088
2022-07-02 09:24:22 GMT 40.209774 -0.201687 30,850 197 360 -1088
2022-07-02 09:24:19 GMT 40.212799 -0.200500 30,875 197 359 -1024
2022-07-02 09:24:14 GMT 40.220669 -0.197379 31,000 197 358 64
2022-07-02 09:24:07 GMT 40.231838 -0.193010 31,000 197 358 128
2022-07-02 09:24:04 GMT 40.236450 -0.191200 31,000 198 357 64
2022-07-02 09:23:57 GMT 40.247177 -0.186890 31,000 197 357 -64
2022-07-02 09:23:53 GMT 40.253487 -0.184520 31,000 196 358 -192
2022-07-02 09:23:42 GMT 40.279404 -0.176819 31,300 193 361 -2048
2022-07-02 09:23:33 GMT 40.285793 -0.175032 31,425 193 362 -1920
2022-07-02 09:23:30 GMT 40.291008 -0.173596 31,525 193 362 -1856
2022-07-02 09:23:23 GMT 40.302933 -0.170227 31,800 193 363 -1920
2022-07-02 09:23:19 GMT 40.308472 -0.168640 31,875 193 364 -1920
2022-07-02 09:23:11 GMT 40.321964 -0.164795 32,125 193 365 -1920
2022-07-02 09:23:01 GMT 40.338539 -0.160113 32,450 193 367 -1856
2022-07-02 09:22:56 GMT 40.346420 -0.157898 32,600 193 367 -1856
2022-07-02 09:22:51 GMT 40.355667 -0.155273 32,775 193 368 -1984
2022-07-02 09:22:40 GMT 40.373451 -0.150251 33,125 193 370 -1792
2022-07-02 09:22:31 GMT 40.388348 -0.146006 33,375 193 372 -1792
2022-07-02 09:22:26 GMT 40.396545 -0.143677 33,700 193 375 -1664
2022-07-02 09:22:20 GMT 40.407063 -0.140700 33,700 193 375 -1664
2022-07-02 09:22:16 GMT 40.413483 -0.138916 33,800 193 376 -1728
2022-07-02 09:22:11 GMT 40.424847 -0.135644 34,025 193 377 -1856
2022-07-02 09:22:00 GMT 40.441696 -0.130775 34,325 193 380 -1856
2022-07-02 09:21:56 GMT 40.459339 -0.125719 34,625 193 382 -1856
2022-07-02 09:21:50 GMT 40.459339 -0.125719 34,625 193 382 -1792
2022-07-02 09:21:46 GMT 40.466217 -0.123779 34,750 193 384 -1792
2022-07-02 09:21:41 GMT 40.475170 -0.121162 34,900 193 385 -1728
2022-07-02 09:21:37 GMT 40.482059 -0.119164 35,025 193 386 -1792
2022-07-02 09:21:30 GMT 40.493092 -0.115981 35,200 193 387 -1792
2022-07-02 09:21:21 GMT 40.510593 -0.110924 35,500 193 388 -1792
2022-07-02 09:21:12 GMT 40.524582 -0.106934 35,725 193 389 -1792
2022-07-02 09:21:08 GMT 40.532101 -0.104745 35,875 193 391 -1856
2022-07-02 09:21:05 GMT 40.537315 -0.103309 35,950 193 392 -1856
2022-07-02 09:20:58 GMT 40.550259 -0.099688 36,175 193 393 -1728
2022-07-02 09:20:55 GMT 40.555656 -0.098190 37,625 192 396 -1600
2022-07-02 09:20:49 GMT 40.566055 -0.095337 36,425 192 397 -1600
2022-07-02 09:20:44 GMT 40.574570 -0.093018 36,550 193 398 -1728
2022-07-02 09:20:38 GMT 40.586151 -0.089763 36,750 193 399 -1792
2022-07-02 09:20:34 GMT 40.593246 -0.087769 37,625 193 407 -1856
2022-07-02 09:20:30 GMT 40.603001 -0.084957 37,025 193 402 -1792
2022-07-02 09:20:23 GMT 40.613983 -0.081848 37,200 193 403 -1728
2022-07-02 09:20:18 GMT 40.621902 -0.079529 37,325 193 404 -1728
2022-07-02 09:20:15 GMT 40.630234 -0.077154 37,450 193 405 -1728
2022-07-02 09:20:12 GMT 40.632889 -0.076405 37,500 193 405 -1728
2022-07-02 09:20:08 GMT 40.640350 -0.074219 37,625 193 407 -1792
2022-07-02 09:20:02 GMT 40.651276 -0.071099 37,800 193 408 -1984
2022-07-02 09:19:59 GMT 40.656967 -0.069458 37,900 193 408 -2112
2022-07-02 09:19:53 GMT 40.667633 -0.066284 37,950 193 408 -2176
2022-07-02 09:19:50 GMT 40.676041 -0.063920 38,275 193 409 -2304
2022-07-02 09:19:47 GMT 40.679993 -0.062744 38,375 193 410 -2368
2022-07-02 09:19:42 GMT 40.689148 -0.060181 38,550 193 409 -2496
2022-07-02 09:19:39 GMT 40.695827 -0.058240 38,700 193 410 -1984
2022-07-02 09:19:32 GMT 40.708328 -0.054688 38,875 193 412 -1216
2022-07-02 09:19:26 GMT 40.719196 -0.051561 38,950 193 415 -320
2022-07-02 09:19:21 GMT 40.727737 -0.049133 38,975 193 416 -256
2022-07-02 09:19:16 GMT 40.736847 -0.046509 39,000 193 419 0
2022-07-02 09:19:13 GMT 40.744659 -0.044320 39,000 193 419 0
2022-07-02 09:19:09 GMT 40.750851 -0.042510 39,000 193 419 0
2022-07-02 09:19:06 GMT 40.756577 -0.040833 39,000 193 419 0
2022-07-02 09:19:01 GMT 40.765377 -0.038327 39,000 193 419 0
2022-07-02 09:18:57 GMT 40.773697 -0.035889 39,000 193 419 0
2022-07-02 09:18:51 GMT 40.783859 -0.032959 39,000 193 419 0
2022-07-02 09:18:48 GMT 40.791771 -0.030712 39,000 193 420 -64
2022-07-02 09:18:41 GMT 40.803360 -0.027344 39,000 193 420 0
2022-07-02 09:18:37 GMT 40.811234 -0.025085 39,000 193 420 0
2022-07-02 09:18:31 GMT 40.824142 -0.021362 39,000 193 420 0
2022-07-02 09:18:25 GMT 40.834877 -0.018227 39,000 193 420 0
2022-07-02 09:18:16 GMT 40.850288 -0.013858 39,000 193 420 0
2022-07-02 09:18:06 GMT 40.869827 -0.008240 39,000 193 420 0
2022-07-02 09:18:01 GMT 40.881042 -0.005005 39,000 193 420 0
2022-07-02 09:17:57 GMT 40.888687 -0.002808 39,000 193 420 -64
2022-07-02 09:17:46 GMT 40.908005 0.002808 39,000 193 421 0
2022-07-02 09:17:40 GMT 40.919884 0.006242 39,000 193 421 64
2022-07-02 09:17:35 GMT 40.929798 0.009114 39,000 193 421 0
2022-07-02 09:17:30 GMT 40.941330 0.012390 39,000 193 421 -64
2022-07-02 09:17:25 GMT 40.948326 0.014420 39,000 193 421 -64
2022-07-02 09:17:19 GMT 40.959915 0.017761 39,000 193 421 64
2022-07-02 09:17:16 GMT 40.966434 0.019663 39,000 193 421 64
2022-07-02 09:17:12 GMT 40.979282 0.023346 39,000 193 421 0
2022-07-02 09:17:09 GMT 40.979282 0.023346 39,000 193 421 0
2022-07-02 09:17:05 GMT 40.986824 0.025531 39,000 193 421 0
2022-07-02 09:16:58 GMT 40.998825 0.029053 39,000 193 421 0
2022-07-02 09:16:55 GMT 41.005508 0.031006 39,000 193 421 0
2022-07-02 09:16:52 GMT 41.011356 0.032709 39,000 193 420 0
2022-07-02 09:16:48 GMT 41.018784 0.034851 39,000 193 420 0
2022-07-02 09:16:44 GMT 41.025696 0.036865 39,000 193 420 0
2022-07-02 09:16:37 GMT 41.038406 0.040575 39,000 193 420 0
2022-07-02 09:16:33 GMT 41.047806 0.043274 39,000 193 420 0
2022-07-02 09:16:28 GMT 41.057465 0.046082 39,000 193 420 0
2022-07-02 09:16:22 GMT 41.067036 0.048877 39,000 193 420 0
2022-07-02 09:16:18 GMT 41.077423 0.051941 39,000 193 420 0
2022-07-02 09:16:13 GMT 41.085747 0.054370 39,000 193 420 0
2022-07-02 09:16:07 GMT 41.097107 0.057678 39,000 193 420 0
2022-07-02 09:16:03 GMT 41.104603 0.059863 39,000 193 420 -64
2022-07-02 09:15:57 GMT 41.115875 0.063110 39,000 193 420 64
2022-07-02 09:15:53 GMT 41.123428 0.065308 39,000 193 420 64
2022-07-02 09:15:46 GMT 41.136475 0.069031 39,000 193 420 0
2022-07-02 09:15:43 GMT 41.142590 0.070849 39,000 193 420 0
2022-07-02 09:15:33 GMT 41.161880 0.076355 39,000 193 419 0
2022-07-02 09:15:26 GMT 41.176945 0.080774 39,000 193 419 64
2022-07-02 09:15:23 GMT 41.180622 0.081836 39,000 193 419 64
2022-07-02 09:15:13 GMT 41.199474 0.087266 39,000 193 420 -64
2022-07-02 09:15:02 GMT 41.220978 0.093506 39,000 193 419 0
2022-07-02 09:14:55 GMT 41.232761 0.096942 39,000 193 419 0
2022-07-02 09:14:50 GMT 41.243561 0.100063 39,000 193 419 0
2022-07-02 09:14:46 GMT 41.252872 0.102747 39,000 193 419 0
2022-07-02 09:14:40 GMT 41.260620 0.104980 39,000 193 419 0
2022-07-02 09:14:34 GMT 41.272331 0.108428 39,000 193 420 0
2022-07-02 09:14:30 GMT 41.280056 0.110675 39,000 193 420 0
2022-07-02 09:14:24 GMT 41.291885 0.114136 39,000 193 420 0
2022-07-02 09:14:20 GMT 41.299576 0.116394 39,000 193 420 0
2022-07-02 09:14:10 GMT 41.318253 0.121826 39,000 193 420 0
2022-07-02 09:14:00 GMT 41.337387 0.127441 39,000 193 420 -64
2022-07-02 09:13:50 GMT 41.356888 0.133179 39,000 193 420 0
2022-07-02 09:13:43 GMT 41.370209 0.137146 39,000 193 420 0
2022-07-02 09:13:40 GMT 41.375999 0.138827 39,000 193 420 0
2022-07-02 09:13:33 GMT 41.388199 0.142385 39,000 193 420 0
2022-07-02 09:13:30 GMT 41.395458 0.144547 39,000 193 420 0
2022-07-02 09:13:23 GMT 41.407890 0.148188 39,000 193 420 64
2022-07-02 09:13:20 GMT 41.414223 0.150040 39,000 193 420 64
2022-07-02 09:13:13 GMT 41.427441 0.153936 39,000 193 420 0
2022-07-02 09:13:10 GMT 41.434067 0.155869 39,000 193 420 0
2022-07-02 09:13:03 GMT 41.447342 0.159801 39,000 193 421 0
2022-07-02 09:12:59 GMT 41.453186 0.161473 39,000 193 421 0
2022-07-02 09:12:49 GMT 41.471897 0.166967 39,000 193 421 -64
2022-07-02 09:12:40 GMT 41.490646 0.172473 39,000 193 421 64
2022-07-02 09:12:31 GMT 41.507046 0.177314 39,000 193 421 0
2022-07-02 09:12:28 GMT 41.512119 0.178783 39,000 193 421 0
2022-07-02 09:12:22 GMT 41.525806 0.182807 39,000 193 421 0
2022-07-02 09:12:19 GMT 41.530518 0.184208 39,000 193 421 0
2022-07-02 09:12:08 GMT 41.549561 0.189826 39,000 193 421 0
2022-07-02 09:11:58 GMT 41.569565 0.195710 39,000 193 421 0
2022-07-02 09:11:51 GMT 41.584671 0.200126 39,000 193 421 0
2022-07-02 09:11:48 GMT 41.589523 0.201562 39,000 193 421 0
2022-07-02 09:11:38 GMT 41.608292 0.207117 39,000 193 422 0
2022-07-02 09:11:27 GMT 41.628036 0.212956 39,000 193 423 0
2022-07-02 09:11:17 GMT 41.647587 0.218705 39,000 193 422 0
2022-07-02 09:11:08 GMT 41.666443 0.224262 39,000 193 422 0
2022-07-02 09:10:57 GMT 41.685528 0.229883 39,000 193 422 64
2022-07-02 09:10:46 GMT 41.706150 0.235951 39,000 193 422 0
2022-07-02 09:10:39 GMT 41.721512 0.240486 39,000 193 424 0
2022-07-02 09:10:36 GMT 41.725376 0.241635 39,000 193 424 0
2022-07-02 09:10:27 GMT 41.744064 0.247192 39,000 193 424 0
2022-07-02 09:10:19 GMT 41.757030 0.251025 39,000 193 424 0
2022-07-02 09:10:16 GMT 41.764893 0.253372 39,000 193 424 0
2022-07-02 09:10:11 GMT 41.773865 0.255994 39,000 193 424 64
2022-07-02 09:10:08 GMT 41.781517 0.258306 39,000 193 424 64
2022-07-02 09:10:05 GMT 41.785263 0.259427 39,000 193 424 0
2022-07-02 09:10:01 GMT 41.793064 0.261692 39,000 193 425 0
2022-07-02 09:09:56 GMT 41.803398 0.264822 39,000 193 425 0
2022-07-02 09:09:51 GMT 41.812683 0.267542 39,000 193 425 0
2022-07-02 09:09:47 GMT 41.820202 0.269804 39,000 193 425 0
2022-07-02 09:09:44 GMT 41.826141 0.271537 39,000 193 425 0
2022-07-02 09:09:41 GMT 41.832916 0.273535 39,000 193 425 0
2022-07-02 09:09:36 GMT 41.841110 0.275969 39,000 193 425 0
2022-07-02 09:09:32 GMT 41.850861 0.278903 39,000 193 425 0
2022-07-02 09:09:29 GMT 41.852978 0.279513 39,000 193 425 0
2022-07-02 09:09:25 GMT 41.862194 0.282259 39,000 193 425 0
2022-07-02 09:09:20 GMT 41.871918 0.285145 39,000 193 425 0
2022-07-02 09:09:15 GMT 41.891987 0.291138 39,000 193 425 0
2022-07-02 09:09:09 GMT 41.891987 0.291138 39,000 193 425 0
2022-07-02 09:09:06 GMT 41.899620 0.293437 39,000 193 425 0
2022-07-02 09:08:58 GMT 41.916008 0.298292 39,000 193 425 0
2022-07-02 09:08:54 GMT 41.920898 0.299752 39,000 193 425 0
2022-07-02 09:08:49 GMT 41.930763 0.302699 39,000 193 425 0
2022-07-02 09:08:45 GMT 41.939850 0.305432 39,000 193 425 0
2022-07-02 09:08:39 GMT 41.949989 0.308448 39,000 193 425 0
2022-07-02 09:08:34 GMT 41.959534 0.311258 39,000 193 425 0
2022-07-02 09:08:28 GMT 41.970333 0.314452 39,000 193 425 0
2022-07-02 09:08:24 GMT 41.979645 0.317198 39,000 193 425 0
2022-07-02 09:08:19 GMT 41.989288 0.320102 39,000 193 425 0
2022-07-02 09:08:11 GMT 42.005173 0.324846 39,000 193 425 0
2022-07-02 09:08:09 GMT 42.008881 0.325907 39,000 193 425 0
2022-07-02 09:08:03 GMT 42.019684 0.329153 39,000 193 425 0
2022-07-02 09:07:58 GMT 42.029221 0.332017 39,000 193 425 0
2022-07-02 09:07:53 GMT 42.039326 0.335019 39,000 193 425 0
2022-07-02 09:07:48 GMT 42.048157 0.337642 39,000 193 425 0
2022-07-02 09:07:43 GMT 42.058086 0.340576 39,000 193 425 0
2022-07-02 09:07:36 GMT 42.069763 0.344072 39,000 193 425 0
2022-07-02 09:07:34 GMT 42.076145 0.346005 39,000 193 424 0
2022-07-02 09:07:32 GMT 42.078148 0.346580 39,000 193 424 0
2022-07-02 09:07:28 GMT 42.086609 0.349128 39,000 193 424 0
2022-07-02 09:07:23 GMT 42.097229 0.352249 39,000 193 424 0
2022-07-02 09:07:18 GMT 42.106476 0.355058 39,000 193 424 0
2022-07-02 09:07:12 GMT 42.116821 0.358117 39,000 193 424 0
2022-07-02 09:07:07 GMT 42.126518 0.361016 39,000 193 424 0
2022-07-02 09:07:04 GMT 42.132156 0.362736 39,000 193 424 0
2022-07-02 09:07:01 GMT 42.137783 0.364401 39,000 193 424 0
2022-07-02 09:06:57 GMT 42.145603 0.366765 39,000 193 424 0
2022-07-02 09:06:55 GMT 42.151154 0.368417 39,000 193 424 0
2022-07-02 09:06:51 GMT 42.156033 0.369894 39,000 193 424 0
2022-07-02 09:06:46 GMT 42.165901 0.372896 39,000 193 424 0
2022-07-02 09:06:43 GMT 42.172440 0.374846 39,000 193 423 0
2022-07-02 09:06:41 GMT 42.177490 0.376346 39,000 193 423 0
2022-07-02 09:06:37 GMT 42.184021 0.378342 39,000 193 423 0
2022-07-02 09:06:29 GMT 42.198395 0.382711 39,000 193 423 0
2022-07-02 09:06:26 GMT 42.204212 0.384458 39,000 193 423 0
2022-07-02 09:06:22 GMT 42.217621 0.388517 39,000 193 423 0
2022-07-02 09:06:16 GMT 42.224991 0.390764 39,000 193 423 0
2022-07-02 09:06:10 GMT 42.236332 0.394166 39,000 193 422 0
2022-07-02 09:06:06 GMT 42.243301 0.396257 39,000 193 422 0
2022-07-02 09:06:03 GMT 42.248344 0.397807 39,000 193 422 0
2022-07-02 09:06:00 GMT 42.254150 0.399565 39,000 193 422 0
2022-07-02 09:05:55 GMT 42.262848 0.402125 39,000 193 422 0
2022-07-02 09:05:49 GMT 42.276043 0.406111 39,000 193 421 0
2022-07-02 09:05:45 GMT 42.281956 0.407963 39,000 193 421 0
2022-07-02 09:05:43 GMT 42.287167 0.409496 39,000 193 421 0
2022-07-02 09:05:40 GMT 42.294571 0.411738 39,000 193 421 0
2022-07-02 09:05:33 GMT 42.307373 0.415628 39,000 193 420 0
2022-07-02 09:05:29 GMT 42.312744 0.417293 39,000 193 420 0
2022-07-02 09:05:26 GMT 42.319801 0.419397 39,000 193 420 0
2022-07-02 09:05:19 GMT 42.333023 0.423411 39,000 193 420 64
2022-07-02 09:05:13 GMT 42.342545 0.426282 39,000 193 420 0
2022-07-02 09:05:08 GMT 42.353394 0.429528 39,000 193 419 0
2022-07-02 09:05:05 GMT 42.358578 0.431086 39,000 193 419 0
2022-07-02 09:04:59 GMT 42.371613 0.434982 39,000 193 419 0
2022-07-02 09:04:54 GMT 42.379204 0.437281 39,000 193 419 0
2022-07-02 09:04:51 GMT 42.387222 0.439703 39,000 193 419 0
2022-07-02 09:04:48 GMT 42.401871 0.444135 39,000 193 418 0
2022-07-02 09:04:42 GMT 42.401871 0.444135 39,000 193 418 0
2022-07-02 09:04:39 GMT 42.413929 0.447821 39,000 193 418 64
2022-07-02 09:04:36 GMT 42.413929 0.447821 39,000 193 418 64
2022-07-02 09:04:33 GMT 42.419128 0.449378 39,000 193 418 64
2022-07-02 09:04:28 GMT 42.435719 0.454400 39,000 193 418 0
2022-07-02 09:04:24 GMT 42.435719 0.454400 39,000 193 418 0
2022-07-02 09:04:21 GMT 42.442566 0.456494 39,000 193 418 0
2022-07-02 09:04:17 GMT 42.454605 0.460177 39,000 193 418 -64
2022-07-02 09:04:14 GMT 42.454605 0.460177 39,000 193 418 -64
2022-07-02 09:04:10 GMT 42.465088 0.463361 39,000 193 418 0
2022-07-02 09:04:07 GMT 42.468906 0.464492 39,000 193 418 0
2022-07-02 09:04:03 GMT 42.475800 0.466600 39,000 193 417 0
2022-07-02 09:03:59 GMT 42.485851 0.469666 39,000 193 417 -64
2022-07-02 09:03:56 GMT 42.489532 0.470815 39,000 193 417 -64
2022-07-02 09:03:54 GMT 42.493607 0.472038 39,000 193 417 -64
2022-07-02 09:03:47 GMT 42.508385 0.476500 39,000 193 416 0
2022-07-02 09:03:42 GMT 42.514065 0.478225 39,000 193 416 0
2022-07-02 09:03:36 GMT 42.527390 0.482275 39,000 193 416 64
2022-07-02 09:03:33 GMT 42.531662 0.483526 39,000 193 416 64
2022-07-02 09:03:29 GMT 42.539017 0.485826 39,000 193 416 0
2022-07-02 09:03:25 GMT 42.547348 0.488330 39,000 193 416 0
2022-07-02 09:03:22 GMT 42.552979 0.490015 39,000 193 416 0
2022-07-02 09:03:16 GMT 42.565643 0.493874 39,000 193 416 0
2022-07-02 09:03:11 GMT 42.572983 0.496133 39,000 193 416 0
2022-07-02 09:03:06 GMT 42.582916 0.499111 39,000 193 416 0
2022-07-02 09:03:03 GMT 42.589710 0.501155 39,000 193 416 0
2022-07-02 09:02:59 GMT 42.596329 0.503186 39,000 193 416 0
2022-07-02 09:02:53 GMT 42.608704 0.506904 39,000 193 415 0
2022-07-02 09:02:47 GMT 42.619125 0.510053 39,000 193 415 0
2022-07-02 09:02:42 GMT 42.627594 0.512675 39,000 193 415 0
2022-07-02 09:02:35 GMT 42.642151 0.517106 39,000 193 414 0
2022-07-02 09:02:31 GMT 42.647064 0.518593 39,000 193 414 0
2022-07-02 09:02:28 GMT 42.654877 0.520977 39,000 193 413 0
2022-07-02 09:02:21 GMT 42.666275 0.524410 39,000 193 412 0
2022-07-02 09:02:15 GMT 42.677307 0.527781 39,000 193 411 64
2022-07-02 09:02:11 GMT 42.686508 0.530590 39,000 193 412 64
2022-07-02 09:02:07 GMT 42.692547 0.532390 39,000 194 411 0
2022-07-02 09:02:04 GMT 42.698597 0.534306 39,000 193 411 0
2022-07-02 09:02:01 GMT 42.705368 0.536395 39,000 193 410 0
2022-07-02 09:01:58 GMT 42.711212 0.538011 39,000 191 410 0
2022-07-02 09:01:54 GMT 42.717033 0.539416 39,000 189 410 0
2022-07-02 09:01:51 GMT 42.722477 0.540566 39,000 188 410 0
2022-07-02 09:01:47 GMT 42.731140 0.542075 39,000 187 410 0
2022-07-02 09:01:44 GMT 42.734909 0.542610 39,000 184 410 0
2022-07-02 09:01:41 GMT 42.741283 0.543376 39,000 184 410 0
2022-07-02 09:01:35 GMT 42.753113 0.544011 39,000 181 411 0
2022-07-02 09:01:31 GMT 42.760231 0.544079 39,000 177 411 0
2022-07-02 09:01:24 GMT 42.773163 0.543199 39,000 173 413 0
2022-07-02 09:01:21 GMT 42.779709 0.542388 39,000 173 413 0
2022-07-02 09:01:17 GMT 42.788490 0.540821 39,000 172 412 0
2022-07-02 09:01:13 GMT 42.795090 0.539641 39,000 172 412 0
2022-07-02 09:01:10 GMT 42.801315 0.538455 39,000 172 412 0
2022-07-02 09:01:08 GMT 42.805161 0.537768 39,000 172 412 0
2022-07-02 09:01:04 GMT 42.812698 0.536368 39,000 172 412 64
2022-07-02 09:01:00 GMT 42.819305 0.535136 39,000 172 412 64
2022-07-02 09:00:55 GMT 42.828430 0.533425 39,000 172 412 64
2022-07-02 09:00:52 GMT 42.835320 0.532118 39,000 172 412 64
2022-07-02 09:00:49 GMT 42.839127 0.531432 39,000 172 412 64
2022-07-02 09:00:43 GMT 42.850681 0.529306 38,975 172 413 0
2022-07-02 09:00:40 GMT 42.858273 0.527867 38,975 172 413 0
2022-07-02 09:00:36 GMT 42.866138 0.526494 39,000 172 414 -64
2022-07-02 09:00:33 GMT 42.870529 0.525683 39,000 172 414 -128
2022-07-02 09:00:29 GMT 42.877441 0.524469 39,000 172 414 -64
2022-07-02 09:00:27 GMT 42.882896 0.523485 39,000 172 414 64
2022-07-02 09:00:24 GMT 42.888565 0.522425 39,000 172 415 64
2022-07-02 09:00:19 GMT 42.897469 0.520870 39,000 172 415 0
2022-07-02 09:00:13 GMT 42.910175 0.518646 39,000 172 416 -64
2022-07-02 09:00:10 GMT 42.915390 0.517699 39,000 172 417 -64
2022-07-02 09:00:03 GMT 42.927887 0.515399 39,000 172 418 0
2022-07-02 08:59:59 GMT 42.935455 0.514003 39,000 172 419 0
2022-07-02 08:59:55 GMT 42.944904 0.512238 39,000 172 421 -128
2022-07-02 08:59:49 GMT 42.955147 0.510341 39,000 172 423 -64
2022-07-02 08:59:44 GMT 42.965195 0.508501 39,000 172 426 64
2022-07-02 08:59:39 GMT 42.975258 0.506614 39,000 172 428 448
2022-07-02 08:59:34 GMT 42.984787 0.504860 38,850 172 430 1536
2022-07-02 08:59:30 GMT 42.996857 0.502625 38,775 172 431 1344
2022-07-02 08:59:23 GMT 43.004791 0.501155 38,675 172 432 1280
2022-07-02 08:59:18 GMT 43.015617 0.499159 38,550 172 433 1280
2022-07-02 08:59:14 GMT 43.026279 0.497197 38,450 172 434 1216
2022-07-02 08:59:10 GMT 43.030514 0.496412 38,400 172 434 1152
2022-07-02 08:59:07 GMT 43.038254 0.494960 38,350 172 435 1024
2022-07-02 08:59:01 GMT 43.049698 0.492852 37,950 172 432 576
2022-07-02 08:58:58 GMT 43.056396 0.491638 38,200 172 435 768
2022-07-02 08:58:53 GMT 43.065754 0.489938 38,150 172 435 768
2022-07-02 08:58:48 GMT 43.086731 0.486081 38,050 172 433 704
2022-07-02 08:58:42 GMT 43.086731 0.486081 38,025 172 433 704
2022-07-02 08:58:38 GMT 43.096619 0.484249 37,975 172 433 576
2022-07-02 08:58:36 GMT 43.099731 0.483654 37,975 172 432 576
2022-07-02 08:58:32 GMT 43.106255 0.482483 37,925 172 432 576
2022-07-02 08:58:28 GMT 43.116257 0.480652 37,875 172 431 576
2022-07-02 08:58:23 GMT 43.126457 0.478755 37,825 172 431 640
2022-07-02 08:58:17 GMT 43.136856 0.476883 37,750 172 430 896
2022-07-02 08:58:12 GMT 43.147110 0.474967 37,675 172 430 1024
2022-07-02 08:58:07 GMT 43.156311 0.473306 37,525 172 430 832
2022-07-02 08:58:01 GMT 43.168945 0.470943 37,525 172 430 832
2022-07-02 08:57:56 GMT 43.177322 0.469410 37,450 172 430 896
2022-07-02 08:57:53 GMT 43.183624 0.468227 37,400 172 430 1088
2022-07-02 08:57:50 GMT 43.189259 0.467181 37,200 172 432 1088
2022-07-02 08:57:46 GMT 43.198288 0.465546 37,250 172 430 1536
2022-07-02 08:57:43 GMT 43.202896 0.464696 37,100 172 432 1216
2022-07-02 08:57:40 GMT 43.210579 0.463257 37,100 172 432 1088
2022-07-02 08:57:36 GMT 43.219517 0.461622 37,025 172 432 832
2022-07-02 08:57:33 GMT 43.223473 0.460903 37,000 172 432 448
2022-07-02 08:57:30 GMT 43.230469 0.459637 36,975 172 433 320
2022-07-02 08:57:25 GMT 43.240185 0.457829 36,925 172 433 256
2022-07-02 08:57:20 GMT 43.251022 0.455805 36,925 172 433 384
2022-07-02 08:57:16 GMT 43.258854 0.454363 36,900 172 433 384
2022-07-02 08:57:11 GMT 43.267960 0.452675 36,875 172 432 384
2022-07-02 08:57:06 GMT 43.278217 0.450766 36,850 172 432 320
2022-07-02 08:57:01 GMT 43.288742 0.448843 36,825 172 431 320
2022-07-02 08:56:56 GMT 43.296661 0.447374 36,775 172 430 320
2022-07-02 08:56:54 GMT 43.302891 0.446254 36,775 172 428 192
2022-07-02 08:56:49 GMT 43.311039 0.444750 36,750 172 427 128
2022-07-02 08:56:46 GMT 43.322662 0.442583 36,750 172 426 128
2022-07-02 08:56:43 GMT 43.322662 0.442583 36,725 172 424 768
2022-07-02 08:56:40 GMT 43.328888 0.441433 36,700 172 423 832
2022-07-02 08:56:37 GMT 43.334564 0.440411 36,675 172 423 896
2022-07-02 08:56:34 GMT 43.342461 0.438930 36,600 172 424 1408
2022-07-02 08:56:29 GMT 43.350540 0.437409 36,250 172 426 1280
2022-07-02 08:56:26 GMT 43.357452 0.436118 36,375 172 425 1344
2022-07-02 08:56:23 GMT 43.361343 0.435429 36,375 172 425 1280
2022-07-02 08:56:17 GMT 43.373428 0.433130 36,275 172 425 1216
2022-07-02 08:56:13 GMT 43.380402 0.431802 36,175 172 426 1280
2022-07-02 08:56:10 GMT 43.387344 0.430511 36,075 172 426 1280
2022-07-02 08:56:08 GMT 43.390133 0.429971 35,925 172 427 1280
2022-07-02 08:56:05 GMT 43.396507 0.428728 35,975 172 427 1216
2022-07-02 08:56:02 GMT 43.403072 0.427486 35,875 172 427 1152
2022-07-02 08:55:59 GMT 43.408905 0.426359 35,875 172 427 1152
2022-07-02 08:55:53 GMT 43.420109 0.424216 35,750 172 426 1152
2022-07-02 08:55:49 GMT 43.429230 0.422463 35,650 172 426 896
2022-07-02 08:55:45 GMT 43.435730 0.421249 35,625 172 426 704
2022-07-02 08:55:42 GMT 43.441315 0.420163 35,600 172 425 768
2022-07-02 08:55:39 GMT 43.447903 0.418854 35,550 172 425 960
2022-07-02 08:55:36 GMT 43.452930 0.417938 35,500 172 424 960
2022-07-02 08:55:34 GMT 43.456699 0.417153 35,475 172 423 960
2022-07-02 08:55:31 GMT 43.463078 0.415976 35,425 172 423 832
2022-07-02 08:55:26 GMT 43.471642 0.414342 35,350 172 421 896
2022-07-02 08:55:23 GMT 43.476883 0.413393 35,325 172 421 896
2022-07-02 08:55:20 GMT 43.483704 0.412051 35,275 172 421 832
2022-07-02 08:55:18 GMT 43.489517 0.410965 35,225 172 420 704
2022-07-02 08:55:14 GMT 43.495239 0.409943 35,200 172 419 704
2022-07-02 08:55:10 GMT 43.504555 0.408194 35,150 172 417 640
2022-07-02 08:55:07 GMT 43.509201 0.407325 35,075 172 417 640
2022-07-02 08:55:02 GMT 43.518448 0.405600 35,050 172 415 448
2022-07-02 08:54:57 GMT 43.529041 0.403682 35,025 172 414 192
2022-07-02 08:54:52 GMT 43.537331 0.402113 35,000 172 412 -64
2022-07-02 08:54:46 GMT 43.548363 0.400085 35,000 172 412 0
2022-07-02 08:54:42 GMT 43.558640 0.398127 35,000 172 411 0
2022-07-02 08:54:39 GMT 43.563492 0.397208 35,000 172 411 0
2022-07-02 08:54:37 GMT 43.567028 0.396554 35,000 172 411 0
2022-07-02 08:54:34 GMT 43.573151 0.395380 35,000 172 411 0
2022-07-02 08:54:32 GMT 43.578049 0.394486 35,000 172 411 0
2022-07-02 08:54:29 GMT 43.580933 0.393911 35,000 172 411 -64
2022-07-02 08:54:27 GMT 43.591888 0.391846 35,000 172 411 0
2022-07-02 08:54:24 GMT 43.591888 0.391846 35,000 172 411 0
2022-07-02 08:54:22 GMT 43.594028 0.391453 35,000 172 411 0
2022-07-02 08:54:19 GMT 43.599701 0.390398 35,000 172 411 64
2022-07-02 08:54:16 GMT 43.606506 0.389099 35,000 172 411 0
2022-07-02 08:54:13 GMT 43.610962 0.388226 35,000 172 411 0
2022-07-02 08:54:11 GMT 43.615860 0.387332 35,000 172 411 0
2022-07-02 08:54:08 GMT 43.621124 0.386287 35,000 172 411 0
2022-07-02 08:54:03 GMT 43.630234 0.384585 35,000 172 411 0
2022-07-02 08:54:01 GMT 43.636158 0.383475 35,000 172 411 0
2022-07-02 08:53:58 GMT 43.639755 0.382797 35,000 172 411 0
2022-07-02 08:53:56 GMT 43.645424 0.381775 35,000 172 410 -64
2022-07-02 08:53:52 GMT 43.651241 0.380663 35,000 172 409 0
2022-07-02 08:53:48 GMT 43.659897 0.379092 35,025 172 409 -64
2022-07-02 08:53:44 GMT 43.666138 0.377917 35,025 172 408 0
2022-07-02 08:53:41 GMT 43.674751 0.376282 35,025 172 408 0
2022-07-02 08:53:39 GMT 43.674751 0.376282 35,000 172 407 64
2022-07-02 08:53:36 GMT 43.689560 0.373535 35,000 172 406 64
2022-07-02 08:53:32 GMT 43.689560 0.373535 35,000 172 405 0
2022-07-02 08:53:28 GMT 43.696198 0.372322 35,025 172 405 -64
2022-07-02 08:53:25 GMT 43.702057 0.371172 35,025 172 403 0
2022-07-02 08:53:22 GMT 43.706863 0.370278 35,025 172 401 0
2022-07-02 08:53:18 GMT 43.714462 0.368872 35,025 172 401 0
2022-07-02 08:53:15 GMT 43.721558 0.367531 35,025 172 400 0
2022-07-02 08:53:11 GMT 43.727417 0.366445 35,025 172 398 0
2022-07-02 08:53:06 GMT 43.736946 0.364641 36,975 172 396 -64
2022-07-02 08:53:02 GMT 43.744160 0.363334 35,025 172 395 -64
2022-07-02 08:52:58 GMT 43.751724 0.361846 35,025 172 393 -64
2022-07-02 08:52:53 GMT 43.759048 0.360505 35,025 172 392 -64
2022-07-02 08:52:50 GMT 43.765575 0.359279 35,025 172 391 0
2022-07-02 08:52:47 GMT 43.770905 0.358269 35,025 172 390 0
2022-07-02 08:52:45 GMT 43.773628 0.357775 35,000 172 390 256
2022-07-02 08:52:41 GMT 43.783730 0.355879 34,975 172 390 512
2022-07-02 08:52:37 GMT 43.788483 0.354948 34,925 172 390 1472
2022-07-02 08:52:34 GMT 43.795975 0.353524 34,825 172 391 1600
2022-07-02 08:52:31 GMT 43.798920 0.352968 34,775 172 391 1792
2022-07-02 08:52:25 GMT 43.809471 0.350974 34,575 172 392 2304
2022-07-02 08:52:22 GMT 43.816502 0.349601 34,425 172 396 2368
2022-07-02 08:52:16 GMT 43.827347 0.347538 34,175 172 398 2304
2022-07-02 08:52:11 GMT 43.843548 0.344500 34,000 172 399 2304
2022-07-02 08:52:07 GMT 43.843548 0.344500 33,625 172 403 2496
2022-07-02 08:52:03 GMT 43.851418 0.342996 33,675 172 403 2496
2022-07-02 08:52:00 GMT 43.856400 0.342080 33,450 172 404 2496
2022-07-02 08:51:55 GMT 43.865845 0.340257 33,350 172 407 2432
2022-07-02 08:51:51 GMT 43.873306 0.338852 33,125 172 408 2048
2022-07-02 08:51:46 GMT 43.881397 0.337372 33,000 172 409 832
2022-07-02 08:51:40 GMT 43.893734 0.335018 33,000 172 409 64
2022-07-02 08:51:34 GMT 43.903427 0.333231 33,000 172 409 0
2022-07-02 08:51:30 GMT 43.911346 0.331762 33,000 172 409 0
2022-07-02 08:51:28 GMT 43.914913 0.331094 33,000 172 409 0
2022-07-02 08:51:24 GMT 43.922596 0.329655 33,000 172 409 0
2022-07-02 08:51:19 GMT 43.932861 0.327674 33,000 172 409 0
2022-07-02 08:51:15 GMT 43.941193 0.326141 33,000 172 409 0
2022-07-02 08:51:10 GMT 43.950249 0.324358 33,000 172 409 0
2022-07-02 08:51:08 GMT 43.952248 0.323966 33,000 172 409 0
2022-07-02 08:51:04 GMT 43.960953 0.322331 33,000 172 409 0
2022-07-02 08:51:02 GMT 43.964172 0.321733 33,000 172 408 0
2022-07-02 08:50:59 GMT 43.970871 0.320435 33,000 172 408 0
2022-07-02 08:50:54 GMT 43.985733 0.317582 33,000 172 408 0
2022-07-02 08:50:51 GMT 43.985733 0.317582 33,000 172 408 0
2022-07-02 08:50:48 GMT 43.990421 0.316707 33,000 172 408 0
2022-07-02 08:50:42 GMT 44.002525 0.314353 33,000 172 408 0
2022-07-02 08:50:38 GMT 44.009079 0.313110 33,000 172 408 0
2022-07-02 08:50:35 GMT 44.016724 0.311641 33,000 172 408 0
2022-07-02 08:50:31 GMT 44.024597 0.310108 33,000 172 408 0
2022-07-02 08:50:27 GMT 44.030083 0.309056 33,000 172 408 0
2022-07-02 08:50:22 GMT 44.038467 0.307489 33,000 172 408 0
2022-07-02 08:50:20 GMT 44.042980 0.306636 33,000 172 408 0
2022-07-02 08:50:17 GMT 44.047588 0.305721 33,000 172 408 0
2022-07-02 08:50:13 GMT 44.055641 0.304217 33,000 172 408 0
2022-07-02 08:50:10 GMT 44.062546 0.302891 33,000 172 408 0
2022-07-02 08:50:07 GMT 44.067791 0.301928 33,000 172 408 0
2022-07-02 08:50:04 GMT 44.074310 0.300655 33,000 172 408 0
2022-07-02 08:49:58 GMT 44.084702 0.298739 33,000 172 408 0
2022-07-02 08:49:56 GMT 44.088364 0.298036 33,000 172 408 0
2022-07-02 08:49:53 GMT 44.094093 0.296958 33,000 172 408 0
2022-07-02 08:49:48 GMT 44.103588 0.295127 33,000 172 407 0
2022-07-02 08:49:43 GMT 44.112530 0.293427 33,000 172 401 0
2022-07-02 08:49:40 GMT 44.119602 0.292053 33,025 172 403 -64
2022-07-02 08:49:36 GMT 44.124027 0.291203 33,025 172 401 0
2022-07-02 08:49:32 GMT 44.133244 0.289437 33,025 172 399 0
2022-07-02 08:49:27 GMT 44.142059 0.287752 33,025 172 398 -64
2022-07-02 08:49:23 GMT 44.151260 0.286037 32,975 172 398 768
2022-07-02 08:49:18 GMT 44.158009 0.284729 33,000 172 398 128
2022-07-02 08:49:15 GMT 44.163967 0.283617 33,000 172 398 384
2022-07-02 08:49:12 GMT 44.175282 0.281394 32,950 172 398 832
2022-07-02 08:49:09 GMT 44.175282 0.281394 32,900 172 399 832
2022-07-02 08:49:05 GMT 44.182125 0.280086 32,850 172 399 832
2022-07-02 08:49:02 GMT 44.187943 0.278974 32,725 172 399 832
2022-07-02 08:48:59 GMT 44.194088 0.277732 32,775 172 399 832
2022-07-02 08:48:56 GMT 44.198547 0.276882 32,725 172 399 832
2022-07-02 08:48:53 GMT 44.204178 0.275835 32,675 172 399 832
2022-07-02 08:48:50 GMT 44.209404 0.274792 32,675 172 399 832
2022-07-02 08:48:46 GMT 44.216991 0.273318 27,750 171 379 1984
2022-07-02 08:48:42 GMT 44.223541 0.272042 32,500 172 399 832
2022-07-02 08:48:38 GMT 44.232075 0.270438 32,375 172 399 832
2022-07-02 08:48:35 GMT 44.235985 0.269634 32,375 172 400 832
2022-07-02 08:48:31 GMT 44.243637 0.268184 32,375 172 400 832
2022-07-02 08:48:28 GMT 44.251373 0.266680 32,325 172 400 896
2022-07-02 08:48:23 GMT 44.258797 0.265280 32,275 172 400 896
2022-07-02 08:48:20 GMT 44.263542 0.264342 32,225 172 400 960
2022-07-02 08:48:16 GMT 44.273132 0.262533 32,150 172 401 960
2022-07-02 08:48:13 GMT 44.276810 0.261796 32,125 172 401 960
2022-07-02 08:48:09 GMT 44.283554 0.260468 32,050 172 402 960
2022-07-02 08:48:06 GMT 44.289242 0.259385 32,000 172 402 960
2022-07-02 08:48:03 GMT 44.296455 0.258045 31,950 172 402 960
2022-07-02 08:48:00 GMT 44.300133 0.257308 31,900 172 401 1024
2022-07-02 08:47:55 GMT 44.310196 0.255367 31,800 172 401 1024
2022-07-02 08:47:49 GMT 44.320404 0.253405 31,725 172 399 1344
2022-07-02 08:47:45 GMT 44.328918 0.251770 31,550 172 399 1472
2022-07-02 08:47:42 GMT 44.335648 0.250528 31,500 172 398 1472
2022-07-02 08:47:39 GMT 44.340401 0.249604 31,450 172 398 1472
2022-07-02 08:47:34 GMT 44.349564 0.247846 31,350 172 397 1280
2022-07-02 08:47:30 GMT 44.356384 0.246538 31,250 172 396 1280
2022-07-02 08:47:25 GMT 44.365585 0.244838 31,150 172 395 1280
2022-07-02 08:47:21 GMT 44.372910 0.243465 31,000 171 379 1984
2022-07-02 08:47:18 GMT 44.377716 0.242484 31,000 172 394 1344
2022-07-02 08:47:14 GMT 44.391083 0.239999 30,600 172 389 1344
2022-07-02 08:47:11 GMT 44.395248 0.239149 30,825 172 391 1408
2022-07-02 08:47:08 GMT 44.395248 0.239149 30,800 172 391 1408
2022-07-02 08:47:05 GMT 44.401852 0.237881 30,700 172 391 1408
2022-07-02 08:46:58 GMT 44.414154 0.235552 30,550 172 389 1280
2022-07-02 08:46:52 GMT 44.423962 0.233660 30,375 172 385 1408
2022-07-02 08:46:48 GMT 44.432110 0.232053 30,325 172 386 1344
2022-07-02 08:46:43 GMT 44.442070 0.230177 30,225 172 384 1472
2022-07-02 08:46:39 GMT 44.447613 0.229105 30,125 172 384 1600
2022-07-02 08:46:35 GMT 44.456268 0.227363 29,900 172 383 1664
2022-07-02 08:46:31 GMT 44.462631 0.226135 29,875 172 382 1792
2022-07-02 08:46:28 GMT 44.466141 0.225488 29,825 172 382 1920
2022-07-02 08:46:24 GMT 44.473892 0.223977 29,675 172 382 1920
2022-07-02 08:46:20 GMT 44.480576 0.222669 29,550 172 382 1920
2022-07-02 08:46:16 GMT 44.492157 0.220381 29,375 172 382 1920
2022-07-02 08:46:13 GMT 44.492157 0.220381 29,325 172 382 1920
2022-07-02 08:46:08 GMT 44.502449 0.218387 29,150 172 381 1920
2022-07-02 08:46:03 GMT 44.511433 0.216645 28,725 172 381 1984
2022-07-02 08:46:00 GMT 44.516006 0.215737 28,725 172 381 1984
2022-07-02 08:45:56 GMT 44.522919 0.214430 28,725 172 381 1984
2022-07-02 08:45:52 GMT 44.529327 0.213187 28,275 172 381 2048
2022-07-02 08:45:47 GMT 44.547180 0.209721 28,275 172 380 2048
2022-07-02 08:45:43 GMT 44.547180 0.209721 28,275 172 380 2048
2022-07-02 08:45:40 GMT 44.551208 0.208936 28,200 172 380 2048
2022-07-02 08:45:35 GMT 44.559128 0.207432 28,050 172 380 2048
2022-07-02 08:45:32 GMT 44.565079 0.206255 27,875 171 380 1984
2022-07-02 08:45:27 GMT 44.572838 0.204788 27,725 171 379 1984
2022-07-02 08:45:23 GMT 44.586758 0.202041 27,525 171 379 1984
2022-07-02 08:45:20 GMT 44.593140 0.200762 27,400 172 378 1856
2022-07-02 08:45:16 GMT 44.593140 0.200762 27,400 172 378 1856
2022-07-02 08:45:12 GMT 44.600967 0.199258 27,100 172 377 1216
2022-07-02 08:45:08 GMT 44.612545 0.197017 27,100 172 377 1216
2022-07-02 08:45:04 GMT 44.612545 0.197017 27,100 172 377 1152
2022-07-02 08:45:01 GMT 44.617619 0.196012 27,100 172 376 832
2022-07-02 08:44:58 GMT 44.623905 0.194806 27,000 172 375 384
2022-07-02 08:44:52 GMT 44.634155 0.192849 27,000 172 375 0
2022-07-02 08:44:48 GMT 44.640896 0.191524 27,000 172 375 0
2022-07-02 08:44:45 GMT 44.646240 0.190495 27,000 172 375 0
2022-07-02 08:44:43 GMT 44.649719 0.189841 27,000 172 375 0
2022-07-02 08:44:41 GMT 44.654861 0.188844 27,000 172 375 0
2022-07-02 08:44:36 GMT 44.661804 0.187487 27,000 172 375 0
2022-07-02 08:44:32 GMT 44.668625 0.186179 27,000 172 375 0
2022-07-02 08:44:28 GMT 44.677048 0.184544 27,000 172 375 0
2022-07-02 08:44:25 GMT 44.679348 0.184088 27,000 172 375 0
2022-07-02 08:44:22 GMT 44.686096 0.182748 27,000 172 375 0
2022-07-02 08:44:17 GMT 44.694340 0.181140 27,000 172 375 0
2022-07-02 08:44:12 GMT 44.703369 0.179378 27,000 171 375 -64
2022-07-02 08:44:09 GMT 44.715145 0.177054 27,000 171 375 0
2022-07-02 08:44:05 GMT 44.715145 0.177054 27,000 171 375 64
2022-07-02 08:44:00 GMT 44.722458 0.175585 26,975 172 374 640
2022-07-02 08:43:57 GMT 44.728638 0.174408 26,925 172 373 960
2022-07-02 08:43:54 GMT 44.733215 0.173492 26,900 172 373 1024
2022-07-02 08:43:51 GMT 44.738235 0.172499 26,800 172 373 960
2022-07-02 08:43:47 GMT 44.745964 0.170958 26,800 172 373 960
2022-07-02 08:43:44 GMT 44.750244 0.170092 26,725 172 373 960
2022-07-02 08:43:41 GMT 44.756470 0.168915 26,625 172 373 960
2022-07-02 08:43:38 GMT 44.760910 0.167999 26,625 172 373 960
2022-07-02 08:43:34 GMT 44.767548 0.166691 26,575 172 373 1024
2022-07-02 08:43:31 GMT 44.773384 0.165532 26,500 171 372 1024
2022-07-02 08:43:27 GMT 44.780777 0.164141 26,450 171 372 960
2022-07-02 08:43:21 GMT 44.798447 0.160675 25,950 172 360 2688
2022-07-02 08:43:16 GMT 44.798447 0.160675 26,275 171 372 960
2022-07-02 08:43:11 GMT 44.807228 0.158967 26,150 171 372 960
2022-07-02 08:43:06 GMT 44.815372 0.157359 26,100 172 366 1792
2022-07-02 08:43:01 GMT 44.824497 0.155550 26,050 171 371 896
2022-07-02 08:42:56 GMT 44.833008 0.153874 25,975 171 371 960
2022-07-02 08:42:51 GMT 44.841385 0.152174 25,875 172 370 1088
2022-07-02 08:42:46 GMT 44.850197 0.150459 25,750 172 369 1728
2022-07-02 08:42:40 GMT 44.859558 0.148642 25,650 172 369 1792
2022-07-02 08:42:35 GMT 44.867294 0.147138 25,450 172 368 1792
2022-07-02 08:42:30 GMT 44.877193 0.145167 25,300 172 367 1792
2022-07-02 08:42:28 GMT 44.879379 0.144719 25,250 172 367 1792
2022-07-02 08:42:25 GMT 44.884232 0.143803 25,075 172 367 1792
2022-07-02 08:42:22 GMT 44.892197 0.142234 25,075 172 366 1792
2022-07-02 08:42:17 GMT 44.898193 0.141057 24,775 172 365 1920
2022-07-02 08:42:14 GMT 44.904831 0.139749 24,775 172 364 1920
2022-07-02 08:42:11 GMT 44.910339 0.138669 24,600 172 363 2176
2022-07-02 08:42:05 GMT 44.918442 0.137061 24,425 172 362 2240
2022-07-02 08:42:01 GMT 44.924927 0.135825 24,250 172 361 2240
2022-07-02 08:41:57 GMT 44.937241 0.133471 23,925 172 360 2368
2022-07-02 08:41:54 GMT 44.937241 0.133471 23,925 172 360 2624
2022-07-02 08:41:50 GMT 44.943207 0.132305 23,750 172 360 2880
2022-07-02 08:41:45 GMT 44.951958 0.130563 23,300 172 361 2816
2022-07-02 08:41:40 GMT 44.960678 0.128893 23,300 172 359 2112
2022-07-02 08:41:37 GMT 44.966064 0.127884 23,225 172 361 2688
2022-07-02 08:41:34 GMT 44.970337 0.127062 23,125 172 361 2688
2022-07-02 08:41:30 GMT 44.977238 0.125673 22,950 172 361 2688
2022-07-02 08:41:24 GMT 44.985428 0.124065 22,600 172 360 2048
2022-07-02 08:41:21 GMT 44.991806 0.122811 22,450 172 360 2048
2022-07-02 08:41:16 GMT 44.999393 0.121319 22,325 171 358 2112
2022-07-02 08:41:13 GMT 45.004234 0.120381 22,325 171 357 2176
2022-07-02 08:41:09 GMT 45.011078 0.119041 22,100 171 357 2176
2022-07-02 08:41:07 GMT 45.014992 0.118237 22,075 171 356 2176
2022-07-02 08:41:05 GMT 45.017578 0.117711 22,025 171 355 2176
2022-07-02 08:41:02 GMT 45.023071 0.116664 21,900 171 354 2176
2022-07-02 08:41:01 GMT 45.024673 0.116337 21,850 171 354 2176
2022-07-02 08:41:00 GMT 45.026302 0.115959 21,825 171 353 2176
2022-07-02 08:40:54 GMT 45.035294 0.114179 21,600 171 352 2240
2022-07-02 08:40:51 GMT 45.039661 0.113347 21,500 171 350 2304
2022-07-02 08:40:48 GMT 45.043716 0.112479 21,425 171 350 2304
2022-07-02 08:40:44 GMT 45.051998 0.110868 21,000 171 348 2432
2022-07-02 08:40:38 GMT 45.060837 0.109079 21,000 171 347 2432
2022-07-02 08:40:34 GMT 45.067657 0.107705 20,825 171 347 2368
2022-07-02 08:40:29 GMT 45.075554 0.106179 20,625 171 343 2432
2022-07-02 08:40:24 GMT 45.083862 0.104501 19,975 171 343 2432
2022-07-02 08:40:18 GMT 45.091782 0.102931 19,975 172 343 2496
2022-07-02 08:40:14 GMT 45.098133 0.101691 19,975 172 342 2688
2022-07-02 08:40:11 GMT 45.103546 0.100643 19,875 172 341 2816
2022-07-02 08:40:10 GMT 45.108215 0.099727 19,750 172 341 2816
2022-07-02 08:40:06 GMT 45.111168 0.099145 19,650 172 341 2688
2022-07-02 08:40:04 GMT 45.119221 0.097537 19,500 172 341 2560
2022-07-02 08:40:01 GMT 45.119221 0.097537 19,450 172 340 2304
2022-07-02 08:40:00 GMT 45.121502 0.097068 19,400 172 340 1728
2022-07-02 08:39:58 GMT 45.124603 0.096457 19,325 172 340 1728
2022-07-02 08:39:56 GMT 45.126709 0.096065 19,300 172 340 1728
2022-07-02 08:39:52 GMT 45.133713 0.094692 19,200 172 338 1152
2022-07-02 08:39:51 GMT 45.135139 0.094389 19,175 172 338 1024
2022-07-02 08:39:49 GMT 45.139114 0.093645 19,150 172 337 1024
2022-07-02 08:39:46 GMT 45.142311 0.093049 19,100 172 336 832
2022-07-02 08:39:45 GMT 45.145523 0.092403 19,075 172 336 832
2022-07-02 08:39:42 GMT 45.148636 0.091814 19,025 172 336 832
2022-07-02 08:39:38 GMT 45.155903 0.090369 19,000 172 336 128
2022-07-02 08:39:36 GMT 45.157299 0.090101 19,000 172 337 0
2022-07-02 08:39:32 GMT 45.163540 0.088895 19,000 172 337 0
2022-07-02 08:39:27 GMT 45.178482 0.085948 19,000 172 337 0
2022-07-02 08:39:23 GMT 45.187466 0.084206 19,000 171 337 0
2022-07-02 08:39:17 GMT 45.187466 0.084206 19,000 172 338 0
2022-07-02 08:39:12 GMT 45.194263 0.082866 19,000 172 338 0
2022-07-02 08:39:09 GMT 45.199894 0.081795 19,000 172 338 0
2022-07-02 08:39:06 GMT 45.203430 0.081090 19,000 172 338 0
2022-07-02 08:39:03 GMT 45.210205 0.079716 19,000 171 342 0
2022-07-02 08:38:56 GMT 45.225826 0.076569 19,000 171 342 0
2022-07-02 08:38:52 GMT 45.225826 0.076569 19,000 171 342 0
2022-07-02 08:38:49 GMT 45.230991 0.075565 19,000 171 342 0
2022-07-02 08:38:44 GMT 45.238998 0.073957 19,000 171 346 0
2022-07-02 08:38:40 GMT 45.244125 0.072915 19,000 171 346 0
2022-07-02 08:38:36 GMT 45.251678 0.071346 19,000 171 348 0
2022-07-02 08:38:32 GMT 45.257622 0.070138 19,000 172 354 -64
2022-07-02 08:38:24 GMT 45.270885 0.067526 18,975 171 357 -64
2022-07-02 08:38:21 GMT 45.275253 0.066637 18,975 172 361 0
2022-07-02 08:38:15 GMT 45.284409 0.064872 18,975 172 365 -64
2022-07-02 08:38:11 GMT 45.291882 0.063372 19,000 172 367 -128
2022-07-02 08:38:08 GMT 45.296398 0.062501 19,000 172 369 -128
2022-07-02 08:38:04 GMT 45.304779 0.060894 19,000 172 369 -64
2022-07-02 08:37:59 GMT 45.314320 0.059085 19,000 172 369 0
2022-07-02 08:37:55 GMT 45.319016 0.058136 19,025 172 368 0
2022-07-02 08:37:52 GMT 45.330849 0.055869 19,025 172 367 -64
2022-07-02 08:37:48 GMT 45.330849 0.055869 19,025 172 366 -64
2022-07-02 08:37:45 GMT 45.336620 0.054798 19,025 172 365 -64
2022-07-02 08:37:41 GMT 45.342625 0.053659 19,025 172 363 -64
2022-07-02 08:37:37 GMT 45.348541 0.052512 19,025 172 361 -64
2022-07-02 08:37:34 GMT 45.354263 0.051400 19,025 172 359 -64
2022-07-02 08:37:31 GMT 45.359024 0.050485 19,025 172 357 -64
2022-07-02 08:37:28 GMT 45.363808 0.049505 19,025 172 352 -64
2022-07-02 08:37:24 GMT 45.376648 0.047019 19,025 171 351 -64
2022-07-02 08:37:20 GMT 45.376648 0.047019 19,025 171 347 -64
2022-07-02 08:37:17 GMT 45.381134 0.046103 19,025 171 342 0
2022-07-02 08:37:11 GMT 45.391800 0.043880 19,025 171 333 128
2022-07-02 08:37:07 GMT 45.396881 0.042768 19,000 170 325 576
2022-07-02 08:37:04 GMT 45.402145 0.041526 18,975 170 325 576
2022-07-02 08:37:01 GMT 45.406448 0.040529 18,925 170 320 896
2022-07-02 08:36:57 GMT 45.411713 0.039237 18,875 169 315 896
2022-07-02 08:36:53 GMT 45.417160 0.037733 18,800 168 310 896
2022-07-02 08:36:50 GMT 45.427303 0.034768 18,725 167 306 896
2022-07-02 08:36:46 GMT 45.427303 0.034768 18,725 167 302 896
2022-07-02 08:36:41 GMT 45.435104 0.032109 18,625 164 296 896
2022-07-02 08:36:36 GMT 45.440990 0.029810 18,550 166 287 768
2022-07-02 08:36:32 GMT 45.446018 0.028069 18,500 169 284 768
2022-07-02 08:36:28 GMT 45.452347 0.026729 18,400 182 273 960
2022-07-02 08:36:25 GMT 45.455017 0.026681 18,400 182 273 960
2022-07-02 08:36:20 GMT 45.460915 0.027600 18,325 209 256 896
2022-07-02 08:36:17 GMT 45.464497 0.028940 18,250 207 258 896
2022-07-02 08:36:14 GMT 45.467743 0.030801 18,250 207 258 896
2022-07-02 08:36:10 GMT 45.472134 0.034366 18,200 214 254 640
2022-07-02 08:36:03 GMT 45.479160 0.041467 18,100 217 254 576
2022-07-02 08:35:59 GMT 45.482941 0.045384 18,075 217 254 576
2022-07-02 08:35:56 GMT 45.484909 0.047477 18,050 217 254 576
2022-07-02 08:35:53 GMT 45.488571 0.051335 18,025 217 254 512
2022-07-02 08:35:51 GMT 45.489944 0.052708 18,025 217 254 128
2022-07-02 08:35:47 GMT 45.494011 0.057008 18,000 217 255 0
2022-07-02 08:35:41 GMT 45.499271 0.062568 18,000 217 256 0
2022-07-02 08:35:37 GMT 45.503742 0.067191 18,000 217 256 0
2022-07-02 08:35:31 GMT 45.508896 0.072588 18,000 217 256 0
2022-07-02 08:35:27 GMT 45.513748 0.077624 18,000 217 258 0
2022-07-02 08:35:25 GMT 45.514587 0.078512 18,000 217 259 64
2022-07-02 08:35:21 GMT 45.518875 0.082986 18,000 217 259 64
2022-07-02 08:35:15 GMT 45.524460 0.088806 17,975 217 262 64
2022-07-02 08:35:09 GMT 45.530548 0.095149 17,975 217 264 0
2022-07-02 08:35:01 GMT 45.538696 0.103651 18,000 217 267 -64
2022-07-02 08:34:57 GMT 45.541821 0.106916 18,050 217 268 -448
2022-07-02 08:34:54 GMT 45.545963 0.111203 18,050 217 268 -448
2022-07-02 08:34:50 GMT 45.549637 0.115021 18,150 217 269 -1344
2022-07-02 08:34:47 GMT 45.552155 0.117622 18,150 217 269 -1344
2022-07-02 08:34:39 GMT 45.563553 0.129558 18,325 217 272 -640
2022-07-02 08:34:36 GMT 45.563553 0.129558 18,350 217 274 -320
2022-07-02 08:34:29 GMT 45.571747 0.138066 18,375 217 280 -256
2022-07-02 08:34:25 GMT 45.575043 0.141415 18,400 216 282 -256
2022-07-02 08:34:18 GMT 45.582554 0.149139 18,425 216 289 -256
2022-07-02 08:34:08 GMT 45.593582 0.160307 18,475 216 297 -192
2022-07-02 08:34:05 GMT 45.606033 0.172767 18,525 216 302 -320
2022-07-02 08:33:58 GMT 45.606033 0.172767 18,525 216 312 -256
2022-07-02 08:33:54 GMT 45.608871 0.175580 18,525 216 309 -256
2022-07-02 08:33:50 GMT 45.614136 0.180872 18,550 215 317 -256
2022-07-02 08:33:46 GMT 45.618347 0.185093 18,550 215 317 -256
2022-07-02 08:33:43 GMT 45.621845 0.188553 18,575 215 319 -320
2022-07-02 08:33:39 GMT 45.626770 0.193467 18,575 216 323 -256
2022-07-02 08:33:35 GMT 45.632877 0.199608 18,625 216 328 -256
2022-07-02 08:33:29 GMT 45.639210 0.205925 18,625 215 333 -256
2022-07-02 08:33:26 GMT 45.642933 0.209633 18,625 216 338 -256
2022-07-02 08:33:23 GMT 45.646591 0.213296 18,650 216 338 -256
2022-07-02 08:33:18 GMT 45.654572 0.221237 18,700 216 356 -320
2022-07-02 08:33:14 GMT 45.658436 0.225151 18,675 216 348 -256
2022-07-02 08:33:08 GMT 45.666580 0.233253 18,700 216 355 -384
2022-07-02 08:33:04 GMT 45.672134 0.238819 18,725 216 360 -192
2022-07-02 08:32:59 GMT 45.679184 0.245920 18,750 216 367 -192
2022-07-02 08:32:56 GMT 45.683899 0.250626 18,750 216 368 -192
2022-07-02 08:32:53 GMT 45.687195 0.253958 18,775 216 373 -512
2022-07-02 08:32:49 GMT 45.693649 0.260523 18,825 216 376 -576
2022-07-02 08:32:46 GMT 45.697586 0.264476 18,850 216 382 -320
2022-07-02 08:32:42 GMT 45.702473 0.269440 18,875 216 382 -320
2022-07-02 08:32:39 GMT 45.707642 0.274727 18,900 216 387 -704
2022-07-02 08:32:36 GMT 45.713737 0.280975 18,950 216 392 -1408
2022-07-02 08:32:32 GMT 45.717648 0.284958 19,025 216 392 -1408
2022-07-02 08:32:28 GMT 45.722855 0.290267 19,125 216 395 -1792
2022-07-02 08:32:25 GMT 45.727478 0.295023 21,725 216 397 -2176
2022-07-02 08:32:21 GMT 45.733612 0.301320 19,375 216 398 -2240
2022-07-02 08:32:18 GMT 45.737713 0.305626 19,475 216 399 -2496
2022-07-02 08:32:15 GMT 45.742447 0.310431 19,600 216 399 -2560
2022-07-02 08:32:10 GMT 45.749817 0.318054 19,825 216 401 -2688
2022-07-02 08:32:06 GMT 45.757313 0.325745 20,025 216 402 -2624
2022-07-02 08:31:58 GMT 45.768856 0.337692 20,350 216 405 -2432
2022-07-02 08:31:55 GMT 45.772934 0.341916 20,475 216 405 -2432
2022-07-02 08:31:48 GMT 45.783566 0.353004 20,775 217 408 -2688
2022-07-02 08:31:45 GMT 45.788177 0.357811 20,900 217 408 -2752
2022-07-02 08:31:38 GMT 45.799118 0.369181 21,225 216 410 -2816
2022-07-02 08:31:35 GMT 45.803009 0.373200 21,350 216 411 -2944
2022-07-02 08:31:27 GMT 45.815269 0.385963 21,725 217 411 -2880
2022-07-02 08:31:23 GMT 45.822113 0.393036 21,950 216 412 -3072
2022-07-02 08:31:18 GMT 45.830166 0.401413 22,225 216 411 -3072
2022-07-02 08:31:15 GMT 45.834682 0.406082 22,375 216 412 -3072
2022-07-02 08:31:12 GMT 45.838451 0.409927 22,500 216 412 -2944
2022-07-02 08:31:06 GMT 45.849564 0.421299 22,875 216 414 -3008
2022-07-02 08:30:58 GMT 45.861740 0.433357 23,225 214 414 -2752
2022-07-02 08:30:54 GMT 45.868198 0.439590 23,400 214 416 -2816
2022-07-02 08:30:48 GMT 45.878677 0.449435 23,725 214 416 -2752
2022-07-02 08:30:45 GMT 45.881882 0.452449 24,025 214 417 -2688
2022-07-02 08:30:41 GMT 45.890076 0.460153 24,025 214 417 -2688
2022-07-02 08:30:35 GMT 45.897400 0.467120 24,350 214 420 -2624
2022-07-02 08:30:31 GMT 45.903900 0.473417 24,400 214 420 -2624
2022-07-02 08:30:27 GMT 45.911167 0.480377 24,600 214 422 -2432
2022-07-02 08:30:24 GMT 45.917130 0.486145 25,075 214 427 -2432
2022-07-02 08:30:15 GMT 45.931503 0.500012 25,075 214 429 -2368
2022-07-02 08:30:12 GMT 45.934799 0.503160 25,150 214 430 -2176
2022-07-02 08:30:04 GMT 45.948734 0.516632 25,600 214 435 -2624
2022-07-02 08:30:01 GMT 45.954391 0.522052 25,600 214 435 -2624
2022-07-02 08:29:57 GMT 45.960979 0.528374 25,825 214 435 -3648
2022-07-02 08:29:54 GMT 45.965515 0.532703 25,975 214 435 -3648
2022-07-02 08:29:50 GMT 45.979458 0.546089 26,050 214 434 -3584
2022-07-02 08:29:46 GMT 45.979458 0.546089 26,475 214 434 -3584
2022-07-02 08:29:42 GMT 45.985001 0.551376 27,050 214 434 -3584
2022-07-02 08:29:37 GMT 45.994774 0.560715 27,025 214 434 -3584
2022-07-02 08:29:32 GMT 46.002548 0.568208 27,300 215 433 -3520
2022-07-02 08:29:26 GMT 46.012093 0.577469 27,625 215 433 -3456
2022-07-02 08:29:23 GMT 46.016968 0.582208 27,850 215 433 -3328
2022-07-02 08:29:20 GMT 46.022800 0.587906 28,275 215 420 -3648
2022-07-02 08:29:14 GMT 46.033264 0.598219 28,350 215 433 -3520
2022-07-02 08:29:10 GMT 46.038483 0.603377 28,750 215 432 -3392
2022-07-02 08:29:06 GMT 46.045303 0.610143 28,850 215 432 -3456
2022-07-02 08:29:03 GMT 46.050430 0.615234 29,050 215 431 -3584
2022-07-02 08:28:56 GMT 46.060738 0.625465 29,325 215 431 -3584
2022-07-02 08:28:53 GMT 46.066635 0.631379 29,700 215 427 -3648
2022-07-02 08:28:45 GMT 46.081409 0.646065 30,200 215 427 -3648
2022-07-02 08:28:42 GMT 46.083984 0.648595 30,200 215 427 -3648
2022-07-02 08:28:41 GMT 46.086273 0.650873 30,275 215 426 -3648
2022-07-02 08:28:37 GMT 46.092773 0.657304 30,525 215 424 -3712
2022-07-02 08:28:32 GMT 46.100510 0.664941 30,925 215 423 -3648
2022-07-02 08:28:28 GMT 46.107758 0.672089 33,150 215 422 -3648
2022-07-02 08:28:25 GMT 46.111572 0.675865 31,350 215 420 -3648
2022-07-02 08:28:22 GMT 46.116928 0.681152 31,425 215 419 -3648
2022-07-02 08:28:18 GMT 46.123306 0.687382 31,675 215 417 -3648
2022-07-02 08:28:15 GMT 46.128342 0.692407 32,425 215 414 -3520
2022-07-02 08:28:12 GMT 46.132942 0.696945 32,050 215 415 -3520
2022-07-02 08:28:05 GMT 46.145000 0.708893 32,500 215 412 -3392
2022-07-02 08:28:01 GMT 46.149994 0.713843 32,675 215 412 -3328
2022-07-02 08:27:55 GMT 46.159710 0.723656 32,925 215 408 -3136
2022-07-02 08:27:52 GMT 46.165558 0.729519 33,450 215 408 -3136
2022-07-02 08:27:44 GMT 46.176048 0.740135 33,925 216 407 -3072
2022-07-02 08:27:41 GMT 46.181496 0.745560 33,925 216 405 -2816
2022-07-02 08:27:37 GMT 46.187130 0.751259 33,925 216 405 -2816
2022-07-02 08:27:33 GMT 46.193298 0.757454 34,300 216 405 -2816
2022-07-02 08:27:29 GMT 46.199524 0.763818 34,450 216 405 -2816
2022-07-02 08:27:26 GMT 46.204285 0.768641 34,450 216 405 -2688
2022-07-02 08:27:22 GMT 46.212082 0.776665 34,675 216 405 -2560
2022-07-02 08:27:19 GMT 46.214176 0.778793 34,750 216 405 -2560
2022-07-02 08:27:17 GMT 46.216599 0.781369 34,975 216 405 -2560
2022-07-02 08:27:13 GMT 46.223301 0.788200 34,975 216 405 -2624
2022-07-02 08:27:11 GMT 46.227257 0.792320 35,125 216 405 -2624
2022-07-02 08:27:06 GMT 46.234955 0.800260 35,525 216 406 -2432
2022-07-02 08:27:03 GMT 46.239826 0.805298 35,525 216 406 -2432
2022-07-02 08:27:00 GMT 46.244759 0.810448 35,575 216 406 -2432
2022-07-02 08:26:57 GMT 46.247787 0.813538 35,825 216 406 -2432
2022-07-02 08:26:53 GMT 46.255234 0.821297 35,850 216 406 -1536
2022-07-02 08:26:50 GMT 46.258392 0.824578 35,925 216 406 -1536
2022-07-02 08:26:47 GMT 46.263107 0.829468 36,000 216 408 -1088
2022-07-02 08:26:44 GMT 46.267803 0.834412 36,075 216 411 -960
2022-07-02 08:26:41 GMT 46.273865 0.840722 36,200 216 411 -960
2022-07-02 08:26:35 GMT 46.281631 0.848831 36,200 216 411 -960
2022-07-02 08:26:32 GMT 46.286362 0.853718 36,250 216 410 -1088
2022-07-02 08:26:29 GMT 46.291306 0.858876 36,675 216 410 -1088
2022-07-02 08:26:26 GMT 46.295792 0.863566 36,675 216 410 -1088
2022-07-02 08:26:22 GMT 46.301514 0.869528 36,400 216 410 -960
2022-07-02 08:26:19 GMT 46.305954 0.874217 36,450 216 410 -960
2022-07-02 08:26:14 GMT 46.314514 0.883194 36,525 216 411 -1024
2022-07-02 08:26:12 GMT 46.318359 0.887213 36,575 216 411 -1024
2022-07-02 08:26:11 GMT 46.319000 0.887883 36,575 216 411 -1024
2022-07-02 08:26:08 GMT 46.323853 0.892982 36,625 216 410 -1024
2022-07-02 08:26:07 GMT 46.325409 0.894582 36,650 216 410 -1024
2022-07-02 08:26:06 GMT 46.326878 0.896141 36,675 216 410 -1024
2022-07-02 08:26:02 GMT 46.333069 0.902596 36,775 217 410 -1088
2022-07-02 08:25:59 GMT 46.337212 0.906990 36,950 217 409 -1088
2022-07-02 08:25:56 GMT 46.341030 0.910973 36,950 216 409 -1088
2022-07-02 08:25:50 GMT 46.350815 0.921110 37,000 212 409 -576
2022-07-02 08:25:46 GMT 46.357590 0.927340 37,000 212 409 -576
2022-07-02 08:25:42 GMT 46.364502 0.933034 37,000 207 409 0
2022-07-02 08:25:39 GMT 46.369354 0.936651 37,000 205 410 0
2022-07-02 08:25:34 GMT 46.378319 0.942490 37,000 204 409 0
2022-07-02 08:25:31 GMT 46.381943 0.944556 37,000 199 411 0
2022-07-02 08:25:28 GMT 46.388561 0.947914 37,000 198 411 0
2022-07-02 08:25:25 GMT 46.394485 0.950451 37,000 195 411 0
2022-07-02 08:25:19 GMT 46.405411 0.954094 37,000 189 413 0
2022-07-02 08:25:12 GMT 46.419250 0.956547 37,000 183 415 0
2022-07-02 08:25:08 GMT 46.425064 0.957016 37,000 182 416 0
2022-07-02 08:25:04 GMT 46.433807 0.957390 37,000 182 416 0
2022-07-02 08:25:01 GMT 46.439163 0.957596 37,000 182 416 0
2022-07-02 08:24:56 GMT 46.448685 0.958021 37,000 182 416 0
2022-07-02 08:24:51 GMT 46.458202 0.958420 37,000 182 416 0
2022-07-02 08:24:48 GMT 46.466309 0.958758 37,000 182 416 0
2022-07-02 08:24:45 GMT 46.470028 0.958969 37,000 182 416 0
2022-07-02 08:24:41 GMT 46.477386 0.959227 37,000 182 416 0
2022-07-02 08:24:38 GMT 46.483063 0.959495 37,000 182 416 0
2022-07-02 08:24:35 GMT 46.495468 0.960031 37,000 182 416 0
2022-07-02 08:24:32 GMT 46.495468 0.960031 37,000 182 416 0
2022-07-02 08:24:29 GMT 46.501465 0.960232 37,000 182 415 0
2022-07-02 08:24:24 GMT 46.509430 0.960634 37,000 182 415 0
2022-07-02 08:24:21 GMT 46.516434 0.960835 37,000 179 416 0
2022-07-02 08:24:17 GMT 46.523575 0.960902 37,000 179 416 0
2022-07-02 08:24:14 GMT 46.530170 0.960686 37,000 176 417 0
2022-07-02 08:24:10 GMT 46.537354 0.960165 37,000 174 417 0
2022-07-02 08:24:07 GMT 46.541885 0.959696 37,000 174 417 0
2022-07-02 08:24:04 GMT 46.548798 0.958691 37,000 172 419 0
2022-07-02 08:24:00 GMT 46.556473 0.957184 37,000 171 420 0
2022-07-02 08:23:57 GMT 46.561249 0.956079 37,000 170 420 0
2022-07-02 08:23:53 GMT 46.569275 0.954163 37,000 170 420 0
2022-07-02 08:23:50 GMT 46.575256 0.952729 37,000 170 420 0
2022-07-02 08:23:44 GMT 46.594227 0.948189 37,000 170 420 0
2022-07-02 08:23:41 GMT 46.594227 0.948189 37,000 170 420 0
2022-07-02 08:23:38 GMT 46.599976 0.946834 37,000 170 420 0
2022-07-02 08:23:34 GMT 46.607449 0.945030 37,000 170 420 0
2022-07-02 08:23:30 GMT 46.613159 0.943618 37,000 170 420 0
2022-07-02 08:23:24 GMT 46.624786 0.940805 37,000 170 420 0
2022-07-02 08:23:21 GMT 46.636452 0.937958 37,000 170 420 0
2022-07-02 08:23:15 GMT 46.642132 0.936584 37,000 170 420 0
2022-07-02 08:23:12 GMT 46.647720 0.935245 37,000 170 420 0
2022-07-02 08:23:10 GMT 46.651886 0.934240 37,000 170 420 0
2022-07-02 08:23:04 GMT 46.665916 0.930817 37,000 170 420 0
2022-07-02 08:23:01 GMT 46.670013 0.929819 37,000 170 420 0
2022-07-02 08:22:58 GMT 46.675507 0.928479 37,000 170 420 0
2022-07-02 08:22:53 GMT 46.692684 0.924294 37,000 170 420 0
2022-07-02 08:22:49 GMT 46.692684 0.924294 37,000 170 420 0
2022-07-02 08:22:45 GMT 46.699482 0.922646 37,000 170 420 0
2022-07-02 08:22:42 GMT 46.704941 0.921311 37,000 170 420 0
2022-07-02 08:22:39 GMT 46.710655 0.919899 37,000 170 420 0
2022-07-02 08:22:36 GMT 46.716335 0.918526 37,000 170 420 0
2022-07-02 08:22:33 GMT 46.724575 0.916466 37,000 170 420 0
2022-07-02 08:22:29 GMT 46.729752 0.915215 37,000 170 420 0
2022-07-02 08:22:24 GMT 46.741333 0.912346 37,000 170 420 0
2022-07-02 08:22:21 GMT 46.745987 0.911179 37,000 170 420 0
2022-07-02 08:22:19 GMT 46.749016 0.910423 37,000 170 420 0
2022-07-02 08:22:13 GMT 46.762299 0.907176 37,000 170 421 0
2022-07-02 08:22:09 GMT 46.770382 0.905136 37,000 170 421 0
2022-07-02 08:22:01 GMT 46.787418 0.900879 37,000 170 420 0
2022-07-02 08:21:59 GMT 46.787418 0.900879 37,000 170 420 0
2022-07-02 08:21:52 GMT 46.802132 0.897240 37,000 170 420 0
2022-07-02 08:21:49 GMT 46.807858 0.895798 37,000 170 420 0
2022-07-02 08:21:44 GMT 46.817211 0.893394 37,000 170 420 0
2022-07-02 08:21:41 GMT 46.826710 0.890991 37,000 170 420 0
2022-07-02 08:21:39 GMT 46.826710 0.890991 37,000 170 420 -64
2022-07-02 08:21:32 GMT 46.840668 0.887481 37,000 170 420 -64
2022-07-02 08:21:29 GMT 46.845657 0.886275 37,000 170 419 0
2022-07-02 08:21:22 GMT 46.861065 0.882339 37,000 170 419 0
2022-07-02 08:21:19 GMT 46.864883 0.881385 37,000 170 419 0
2022-07-02 08:21:11 GMT 46.880081 0.877533 37,000 170 419 0
2022-07-02 08:21:08 GMT 46.884575 0.876371 37,000 170 419 0
2022-07-02 08:21:01 GMT 46.898911 0.872709 37,000 170 419 0
2022-07-02 08:20:58 GMT 46.903614 0.871512 37,000 170 419 0
2022-07-02 08:20:54 GMT 46.912643 0.869258 37,000 169 418 64
2022-07-02 08:20:51 GMT 46.919403 0.867508 37,000 169 418 0
2022-07-02 08:20:48 GMT 46.922981 0.866582 37,000 169 418 0
2022-07-02 08:20:42 GMT 46.936897 0.862990 37,000 169 418 0
2022-07-02 08:20:39 GMT 46.942291 0.861603 37,000 169 418 0
2022-07-02 08:20:34 GMT 46.949886 0.859610 37,000 169 418 0
2022-07-02 08:20:31 GMT 46.955242 0.858272 37,000 169 418 0
2022-07-02 08:20:28 GMT 46.961151 0.856722 37,000 169 418 0
2022-07-02 08:20:24 GMT 46.969391 0.854530 37,000 169 417 0
2022-07-02 08:20:21 GMT 46.974335 0.853226 37,000 169 417 0
2022-07-02 08:20:18 GMT 46.980705 0.851581 37,000 169 417 0
2022-07-02 08:20:12 GMT 46.999557 0.846581 37,000 169 417 0
2022-07-02 08:20:08 GMT 46.999557 0.846581 37,000 169 417 0
2022-07-02 08:20:04 GMT 47.007610 0.844468 37,000 169 417 0
2022-07-02 08:20:01 GMT 47.014362 0.842637 37,000 169 417 0
2022-07-02 08:19:58 GMT 47.018326 0.841553 37,000 169 417 0
2022-07-02 08:19:55 GMT 47.024418 0.839961 37,000 169 416 0
2022-07-02 08:19:51 GMT 47.032242 0.837845 37,000 169 416 0
2022-07-02 08:19:47 GMT 47.038521 0.836158 37,000 169 416 0
2022-07-02 08:19:44 GMT 47.047028 0.833862 37,000 169 416 0
2022-07-02 08:19:41 GMT 47.050812 0.832848 37,000 169 416 0
2022-07-02 08:19:38 GMT 47.057098 0.831158 37,000 169 416 0
2022-07-02 08:19:34 GMT 47.064823 0.829116 37,000 169 415 0
2022-07-02 08:19:30 GMT 47.071793 0.827271 37,000 169 415 0
2022-07-02 08:19:27 GMT 47.077023 0.825876 37,000 169 415 0
2022-07-02 08:19:22 GMT 47.089050 0.822601 37,000 169 415 0
2022-07-02 08:19:17 GMT 47.101959 0.819168 37,000 169 415 0
2022-07-02 08:19:14 GMT 47.101959 0.819168 37,000 169 415 0
2022-07-02 08:19:11 GMT 47.106995 0.817795 37,000 169 415 0
2022-07-02 08:19:08 GMT 47.114456 0.815804 37,000 169 414 0
2022-07-02 08:19:03 GMT 47.124924 0.812988 37,000 169 414 0
2022-07-02 08:18:59 GMT 47.131023 0.811369 37,000 169 413 0
2022-07-02 08:18:57 GMT 47.133911 0.810585 37,000 169 413 0
2022-07-02 08:18:53 GMT 47.140686 0.808800 37,000 169 413 0
2022-07-02 08:18:50 GMT 47.147083 0.807073 37,000 169 414 0
2022-07-02 08:18:47 GMT 47.152496 0.805641 37,000 169 414 0
2022-07-02 08:18:44 GMT 47.157486 0.804268 37,000 169 413 0
2022-07-02 08:18:40 GMT 47.166447 0.801861 37,000 169 413 0
2022-07-02 08:18:35 GMT 47.176315 0.799185 37,000 169 413 64
2022-07-02 08:18:31 GMT 47.183533 0.797283 37,000 169 413 0
2022-07-02 08:18:28 GMT 47.195824 0.793973 37,000 169 413 0
2022-07-02 08:18:20 GMT 47.202572 0.792213 37,000 169 412 0
2022-07-02 08:18:17 GMT 47.209305 0.790398 37,000 169 412 0
2022-07-02 08:18:13 GMT 47.217041 0.788338 37,000 169 412 0
2022-07-02 08:18:09 GMT 47.224640 0.786297 37,000 169 412 0
2022-07-02 08:18:06 GMT 47.231949 0.784396 37,000 169 412 0
2022-07-02 08:18:03 GMT 47.235626 0.783410 37,000 169 412 0
2022-07-02 08:18:00 GMT 47.241676 0.781790 37,000 169 412 0
2022-07-02 08:17:56 GMT 47.251007 0.779274 37,000 169 412 0
2022-07-02 08:17:53 GMT 47.254898 0.778198 37,000 169 412 0
2022-07-02 08:17:50 GMT 47.259041 0.777071 37,000 169 412 0
2022-07-02 08:17:47 GMT 47.265518 0.775360 37,000 169 412 0
2022-07-02 08:17:44 GMT 47.272167 0.773550 37,000 169 412 0
2022-07-02 08:17:42 GMT 47.274399 0.772957 37,000 169 412 0
2022-07-02 08:17:38 GMT 47.281944 0.770944 37,000 169 412 64
2022-07-02 08:17:35 GMT 47.287857 0.769318 37,000 169 412 0
2022-07-02 08:17:33 GMT 47.291859 0.768198 37,000 169 412 0
2022-07-02 08:17:29 GMT 47.299347 0.766228 37,000 169 412 0
2022-07-02 08:17:26 GMT 47.305527 0.764511 37,000 169 412 -64
2022-07-02 08:17:23 GMT 47.310013 0.763344 37,000 169 412 -64
2022-07-02 08:17:19 GMT 47.317383 0.761353 37,000 169 412 0
2022-07-02 08:17:16 GMT 47.324120 0.759536 37,000 169 411 0
2022-07-02 08:17:13 GMT 47.328598 0.758331 37,000 169 411 0
2022-07-02 08:17:09 GMT 47.337250 0.756014 37,000 169 411 0
2022-07-02 08:17:06 GMT 47.342789 0.754486 37,000 169 411 0
2022-07-02 08:17:03 GMT 47.348793 0.752916 37,000 169 411 0
2022-07-02 08:16:59 GMT 47.354473 0.751366 37,000 169 411 0
2022-07-02 08:16:56 GMT 47.361362 0.749535 37,000 169 411 64
2022-07-02 08:16:52 GMT 47.367554 0.747845 37,000 169 411 64
2022-07-02 08:16:49 GMT 47.380447 0.744394 37,000 169 411 0
2022-07-02 08:16:46 GMT 47.380447 0.744394 37,000 169 411 0
2022-07-02 08:16:42 GMT 47.396324 0.740098 37,000 169 411 0
2022-07-02 08:16:38 GMT 47.396324 0.740098 37,000 169 411 0
2022-07-02 08:16:35 GMT 47.399258 0.739324 37,000 169 411 0
2022-07-02 08:16:32 GMT 47.405495 0.737633 37,000 169 410 0
2022-07-02 08:16:29 GMT 47.412048 0.735878 37,000 169 411 0
2022-07-02 08:16:25 GMT 47.419373 0.733887 37,000 169 411 0
2022-07-02 08:16:22 GMT 47.425049 0.732376 37,000 169 410 0
2022-07-02 08:16:18 GMT 47.431049 0.730732 37,000 169 411 0
2022-07-02 08:16:15 GMT 47.436916 0.729112 37,000 169 411 0
2022-07-02 08:16:11 GMT 47.444923 0.726929 37,000 169 410 64
2022-07-02 08:16:08 GMT 47.450508 0.725379 37,000 169 410 64
2022-07-02 08:16:05 GMT 47.457825 0.723381 37,000 169 411 0
2022-07-02 08:16:02 GMT 47.463455 0.721870 37,000 169 411 0
2022-07-02 08:15:59 GMT 47.467667 0.720703 37,000 169 411 0
2022-07-02 08:15:56 GMT 47.473068 0.719193 37,000 169 411 0
2022-07-02 08:15:53 GMT 47.482723 0.716506 37,000 169 411 0
2022-07-02 08:15:51 GMT 47.482723 0.716506 37,000 169 411 0
2022-07-02 08:15:47 GMT 47.490143 0.714455 37,000 169 411 0
2022-07-02 08:15:44 GMT 47.495384 0.713055 37,000 169 411 0
2022-07-02 08:15:41 GMT 47.501114 0.711435 37,000 169 411 0
2022-07-02 08:15:38 GMT 47.505722 0.710168 37,000 169 411 -64
2022-07-02 08:15:35 GMT 47.512619 0.708206 37,000 169 411 0
2022-07-02 08:15:32 GMT 47.518295 0.706627 37,000 169 411 0
2022-07-02 08:15:29 GMT 47.525600 0.704604 37,000 169 411 0
2022-07-02 08:15:26 GMT 47.530067 0.703336 37,000 169 411 0
2022-07-02 08:15:23 GMT 47.534256 0.702209 37,000 169 411 0
2022-07-02 08:15:20 GMT 47.540268 0.700516 37,000 169 411 0
2022-07-02 08:15:17 GMT 47.546127 0.698868 37,000 169 411 0
2022-07-02 08:15:13 GMT 47.556839 0.695847 37,000 169 411 0
2022-07-02 08:15:09 GMT 47.561050 0.694611 37,000 169 411 0
2022-07-02 08:15:06 GMT 47.566193 0.693195 37,000 169 411 0
2022-07-02 08:15:03 GMT 47.571732 0.691575 37,000 169 411 0
2022-07-02 08:15:01 GMT 47.576992 0.690096 37,000 169 411 0
2022-07-02 08:14:58 GMT 47.580734 0.689049 37,000 168 411 0
2022-07-02 08:14:55 GMT 47.585999 0.687538 37,000 168 411 0
2022-07-02 08:14:52 GMT 47.593426 0.685378 37,000 168 411 0
2022-07-02 08:14:47 GMT 47.606552 0.681504 37,000 168 412 0
2022-07-02 08:14:44 GMT 47.606552 0.681504 37,000 168 412 0
2022-07-02 08:14:40 GMT 47.613693 0.679367 37,000 168 412 64
2022-07-02 08:14:38 GMT 47.619507 0.677650 37,000 168 411 0
2022-07-02 08:14:36 GMT 47.622288 0.676786 37,000 168 411 0
2022-07-02 08:14:33 GMT 47.628525 0.674904 37,000 168 411 0
2022-07-02 08:14:31 GMT 47.631454 0.674011 37,000 168 411 0
2022-07-02 08:14:27 GMT 47.641094 0.671082 37,000 168 411 0
2022-07-02 08:14:24 GMT 47.644215 0.670166 37,000 168 411 0
2022-07-02 08:14:21 GMT 47.649754 0.668476 37,000 168 411 0
2022-07-02 08:14:17 GMT 47.663498 0.664330 37,000 168 411 0
2022-07-02 08:14:14 GMT 47.663498 0.664330 37,000 168 411 0
2022-07-02 08:14:11 GMT 47.669769 0.662419 37,000 168 411 0
2022-07-02 08:14:07 GMT 47.676476 0.660306 37,000 168 411 64
2022-07-02 08:14:04 GMT 47.681828 0.658687 37,000 168 411 0
2022-07-02 08:14:01 GMT 47.688625 0.656574 37,000 168 411 0
2022-07-02 08:13:59 GMT 47.691509 0.655658 37,000 168 411 64
2022-07-02 08:13:56 GMT 47.696491 0.654179 37,000 168 411 64
2022-07-02 08:13:52 GMT 47.705151 0.651503 37,000 168 410 0
2022-07-02 08:13:46 GMT 47.714630 0.648537 37,000 168 410 0
2022-07-02 08:13:43 GMT 47.720261 0.646820 37,000 168 410 0
2022-07-02 08:13:40 GMT 47.733948 0.642563 37,000 168 410 0
2022-07-02 08:13:36 GMT 47.733948 0.642563 37,000 168 410 0
2022-07-02 08:13:33 GMT 47.738575 0.641151 37,000 168 410 64
2022-07-02 08:13:29 GMT 47.752167 0.636925 37,000 168 410 0
2022-07-02 08:13:26 GMT 47.752167 0.636925 37,000 168 410 64
2022-07-02 08:13:23 GMT 47.757523 0.635284 37,000 168 410 64
2022-07-02 08:13:20 GMT 47.762642 0.633756 37,000 168 410 64
2022-07-02 08:13:18 GMT 47.767902 0.632066 37,000 168 410 64
2022-07-02 08:13:15 GMT 47.773491 0.630305 37,000 168 410 0
2022-07-02 08:13:12 GMT 47.777538 0.629038 37,000 168 410 0
2022-07-02 08:13:09 GMT 47.785492 0.626564 37,000 168 410 0
2022-07-02 08:13:06 GMT 47.789795 0.625191 37,000 168 410 0
2022-07-02 08:13:03 GMT 47.794949 0.623615 37,000 168 410 0
2022-07-02 08:13:00 GMT 47.800442 0.621854 37,000 168 410 0
2022-07-02 08:12:58 GMT 47.804073 0.620728 37,000 168 410 0
2022-07-02 08:12:56 GMT 47.807785 0.619560 37,000 168 410 0
2022-07-02 08:12:53 GMT 47.813477 0.617840 37,000 168 410 0
2022-07-02 08:12:50 GMT 47.819622 0.615939 37,000 168 410 0
2022-07-02 08:12:48 GMT 47.823112 0.614812 37,000 168 410 0
2022-07-02 08:12:43 GMT 47.842941 0.608643 37,000 168 410 0
2022-07-02 08:12:38 GMT 47.842941 0.608643 37,000 168 410 0
2022-07-02 08:12:33 GMT 47.851276 0.606079 37,000 168 410 0
2022-07-02 08:12:30 GMT 47.866920 0.601149 37,000 168 410 0
2022-07-02 08:12:25 GMT 47.866920 0.601149 37,000 168 410 -64
2022-07-02 08:12:22 GMT 47.871853 0.599600 37,000 168 410 0
2022-07-02 08:12:19 GMT 47.876541 0.598137 37,000 168 410 0
2022-07-02 08:12:15 GMT 47.886154 0.595116 37,000 168 410 64
2022-07-02 08:12:11 GMT 47.893173 0.592910 37,000 168 410 64
2022-07-02 08:12:06 GMT 47.903183 0.589760 37,000 168 410 0
2022-07-02 08:12:03 GMT 47.906021 0.588867 37,000 168 410 0
2022-07-02 08:11:58 GMT 47.916172 0.585656 37,000 168 410 0
2022-07-02 08:11:55 GMT 47.921524 0.583966 37,000 168 410 0
2022-07-02 08:11:51 GMT 47.930328 0.581177 37,000 168 410 0
2022-07-02 08:11:49 GMT 47.932278 0.580585 37,000 168 410 0
2022-07-02 08:11:45 GMT 47.939896 0.578156 37,000 168 410 0
2022-07-02 08:11:42 GMT 47.947723 0.575684 37,000 167 411 0
2022-07-02 08:11:39 GMT 47.951504 0.574529 37,000 167 411 64
2022-07-02 08:11:35 GMT 47.962372 0.571083 37,000 167 411 64
2022-07-02 08:11:33 GMT 47.962372 0.571083 37,000 167 411 64
2022-07-02 08:11:28 GMT 47.971527 0.568130 37,000 167 411 0
2022-07-02 08:11:25 GMT 47.977669 0.566148 37,000 167 411 0
2022-07-02 08:11:22 GMT 47.982285 0.564697 37,000 167 411 0
2022-07-02 08:11:18 GMT 47.995743 0.560371 37,000 167 411 0
2022-07-02 08:11:15 GMT 47.995743 0.560371 37,000 167 411 0
2022-07-02 08:11:13 GMT 48.000477 0.558824 37,000 167 411 0
2022-07-02 08:11:07 GMT 48.011169 0.555428 37,000 167 411 0
2022-07-02 08:11:04 GMT 48.016678 0.553612 37,000 167 411 0
2022-07-02 08:11:01 GMT 48.023300 0.551445 37,000 167 411 0
2022-07-02 08:10:57 GMT 48.028175 0.549880 37,000 167 411 0
2022-07-02 08:10:54 GMT 48.035706 0.547394 37,000 167 411 0
2022-07-02 08:10:51 GMT 48.039505 0.546089 37,000 167 411 0
2022-07-02 08:10:48 GMT 48.045776 0.544029 37,000 167 411 0
2022-07-02 08:10:45 GMT 48.051731 0.542063 37,000 167 411 0
2022-07-02 08:10:42 GMT 48.059181 0.539598 37,000 167 411 -64
2022-07-02 08:10:39 GMT 48.062904 0.538330 37,000 167 411 -64
2022-07-02 08:10:37 GMT 48.067280 0.536922 37,000 167 411 0
2022-07-02 08:10:34 GMT 48.080688 0.532485 37,000 167 411 0
2022-07-02 08:10:30 GMT 48.080688 0.532485 37,000 167 411 0
2022-07-02 08:10:27 GMT 48.083817 0.531464 37,000 167 411 -64
2022-07-02 08:10:24 GMT 48.090511 0.529245 37,000 167 411 -64
2022-07-02 08:10:21 GMT 48.097000 0.527138 37,000 167 411 64
2022-07-02 08:10:19 GMT 48.098877 0.526520 37,000 167 411 0
2022-07-02 08:10:16 GMT 48.104965 0.524529 37,000 167 411 64
2022-07-02 08:10:13 GMT 48.110806 0.522625 37,000 167 411 0
2022-07-02 08:10:09 GMT 48.117920 0.520271 37,000 167 411 0
2022-07-02 08:10:07 GMT 48.127625 0.517113 37,000 167 411 0
2022-07-02 08:10:04 GMT 48.127625 0.517113 37,000 167 411 64
2022-07-02 08:10:01 GMT 48.136642 0.514091 37,000 167 410 0
2022-07-02 08:09:57 GMT 48.140579 0.512787 37,000 167 411 0
2022-07-02 08:09:53 GMT 48.148132 0.510315 37,000 167 410 0
2022-07-02 08:09:50 GMT 48.154037 0.508324 37,000 167 409 0
2022-07-02 08:09:46 GMT 48.161922 0.505732 37,000 167 410 0
2022-07-02 08:09:42 GMT 48.167679 0.503822 37,000 167 409 0
2022-07-02 08:09:39 GMT 48.174118 0.501685 37,000 167 409 0
2022-07-02 08:09:37 GMT 48.178074 0.500384 37,000 167 409 0
2022-07-02 08:09:32 GMT 48.185669 0.497906 37,000 167 409 0
2022-07-02 08:09:29 GMT 48.192833 0.495541 37,000 167 409 0
2022-07-02 08:09:26 GMT 48.197250 0.494103 37,000 167 409 0
2022-07-02 08:09:23 GMT 48.203121 0.492144 37,000 167 409 -64
2022-07-02 08:09:20 GMT 48.217037 0.487591 37,000 167 409 -64
2022-07-02 08:09:15 GMT 48.217037 0.487591 37,000 167 409 -64
2022-07-02 08:09:12 GMT 48.222519 0.485722 37,000 167 408 0
2022-07-02 08:09:09 GMT 48.229431 0.483469 37,000 167 408 64
2022-07-02 08:09:06 GMT 48.235054 0.481591 37,000 167 408 0
2022-07-02 08:09:03 GMT 48.239822 0.480018 37,000 167 408 0
2022-07-02 08:08:59 GMT 48.248463 0.477110 37,000 167 408 0
2022-07-02 08:08:57 GMT 48.253395 0.475448 37,000 167 409 64
2022-07-02 08:08:53 GMT 48.258636 0.473750 37,000 167 409 64
2022-07-02 08:08:50 GMT 48.264862 0.471637 37,000 167 409 64
2022-07-02 08:08:47 GMT 48.277222 0.467482 37,000 167 410 0
2022-07-02 08:08:43 GMT 48.277222 0.467482 37,000 167 410 0
2022-07-02 08:08:40 GMT 48.283516 0.465329 37,000 167 410 0
2022-07-02 08:08:37 GMT 48.287338 0.464032 37,000 167 409 -64
2022-07-02 08:08:33 GMT 48.296219 0.461074 37,000 167 409 0
2022-07-02 08:08:30 GMT 48.302261 0.459102 37,000 167 409 -64
2022-07-02 08:08:28 GMT 48.304977 0.458173 37,000 167 409 -64
2022-07-02 08:08:26 GMT 48.308746 0.456945 37,000 167 409 -64
2022-07-02 08:08:23 GMT 48.315536 0.454665 37,000 167 409 0
2022-07-02 08:08:20 GMT 48.320160 0.453116 37,000 167 409 0
2022-07-02 08:08:18 GMT 48.322945 0.452246 37,000 167 409 0
2022-07-02 08:08:16 GMT 48.328720 0.450299 37,000 167 409 0
2022-07-02 08:08:13 GMT 48.333187 0.448849 37,000 167 410 0
2022-07-02 08:08:10 GMT 48.339798 0.446681 37,000 167 410 0
2022-07-02 08:08:08 GMT 48.341564 0.446030 37,000 167 410 0
2022-07-02 08:08:06 GMT 48.345291 0.444805 37,000 167 410 0
2022-07-02 08:08:03 GMT 48.353348 0.442129 37,000 167 410 0
2022-07-02 08:07:59 GMT 48.358276 0.440537 37,000 167 410 0
2022-07-02 08:07:57 GMT 48.363071 0.438947 37,000 167 410 0
2022-07-02 08:07:54 GMT 48.366531 0.437763 37,000 167 410 0
2022-07-02 08:07:51 GMT 48.373268 0.435550 37,000 167 411 0
2022-07-02 08:07:48 GMT 48.379368 0.433526 37,000 167 411 0
2022-07-02 08:07:45 GMT 48.384163 0.431936 37,000 167 411 0
2022-07-02 08:07:42 GMT 48.398254 0.427199 37,000 167 411 0
2022-07-02 08:07:38 GMT 48.398254 0.427199 37,000 167 411 0
2022-07-02 08:07:35 GMT 48.403435 0.425503 37,000 167 411 0
2022-07-02 08:07:31 GMT 48.410843 0.422974 37,000 167 411 0
2022-07-02 08:07:28 GMT 48.416840 0.421002 37,000 167 411 0
2022-07-02 08:07:26 GMT 48.421326 0.419452 37,000 167 412 0
2022-07-02 08:07:22 GMT 48.428101 0.417199 37,000 167 412 0
2022-07-02 08:07:18 GMT 48.435650 0.414662 37,000 167 412 0
2022-07-02 08:07:14 GMT 48.442307 0.412421 37,000 167 413 0
2022-07-02 08:07:11 GMT 48.447567 0.410686 37,000 167 412 0
2022-07-02 08:07:08 GMT 48.454037 0.408518 37,000 167 412 0
2022-07-02 08:07:06 GMT 48.457855 0.407198 37,000 167 413 0
2022-07-02 08:07:04 GMT 48.459595 0.406635 37,000 167 413 0
2022-07-02 08:07:01 GMT 48.467102 0.404170 37,000 167 413 0
2022-07-02 08:06:59 GMT 48.470284 0.403097 37,000 167 413 0
2022-07-02 08:06:57 GMT 48.479130 0.400134 37,000 167 413 0
2022-07-02 08:06:55 GMT 48.479130 0.400134 37,000 167 413 0
2022-07-02 08:06:51 GMT 48.485458 0.397973 37,000 167 416 0
2022-07-02 08:06:47 GMT 48.493046 0.395436 37,000 167 413 0
2022-07-02 08:06:44 GMT 48.504360 0.391605 37,000 167 415 0
2022-07-02 08:06:40 GMT 48.504360 0.391605 37,000 167 415 0
2022-07-02 08:06:35 GMT 48.514801 0.388113 37,000 167 415 0
2022-07-02 08:06:32 GMT 48.519928 0.386353 37,000 167 415 0
2022-07-02 08:06:29 GMT 48.525261 0.384594 37,000 167 416 0
2022-07-02 08:06:27 GMT 48.529037 0.383324 37,000 167 416 0
2022-07-02 08:06:24 GMT 48.536991 0.380618 37,000 167 416 0
2022-07-02 08:06:21 GMT 48.542904 0.378667 37,000 167 416 0
2022-07-02 08:06:18 GMT 48.546490 0.377438 37,000 167 416 0
2022-07-02 08:06:15 GMT 48.561310 0.372408 37,000 167 416 0
2022-07-02 08:06:11 GMT 48.567345 0.370427 37,000 167 416 0
2022-07-02 08:06:07 GMT 48.567345 0.370427 37,000 167 416 0
2022-07-02 08:06:04 GMT 48.572937 0.368535 37,000 167 417 0
2022-07-02 08:06:00 GMT 48.580334 0.366018 37,000 167 417 0
2022-07-02 08:05:57 GMT 48.585453 0.364284 37,000 167 417 0
2022-07-02 08:05:55 GMT 48.590286 0.362690 37,000 167 417 0
2022-07-02 08:05:50 GMT 48.599232 0.359658 37,000 167 418 0
2022-07-02 08:05:47 GMT 48.605026 0.357689 37,000 167 418 0
2022-07-02 08:05:44 GMT 48.609741 0.356140 37,000 167 418 0
2022-07-02 08:05:40 GMT 48.624344 0.351210 37,000 167 418 0
2022-07-02 08:05:37 GMT 48.624344 0.351210 37,000 167 418 0
2022-07-02 08:05:31 GMT 48.641129 0.345491 37,000 167 418 0
2022-07-02 08:05:26 GMT 48.649979 0.342548 37,000 167 418 0
2022-07-02 08:05:23 GMT 48.649979 0.342548 37,000 167 418 0
2022-07-02 08:05:20 GMT 48.656258 0.340359 37,000 167 419 0
2022-07-02 08:05:17 GMT 48.661972 0.338463 37,000 167 419 0
2022-07-02 08:05:14 GMT 48.667145 0.336703 37,000 167 419 0
2022-07-02 08:05:11 GMT 48.673672 0.334505 37,000 167 419 0
2022-07-02 08:05:08 GMT 48.678406 0.332900 37,000 167 419 0
2022-07-02 08:05:06 GMT 48.684677 0.330857 37,000 167 419 0
2022-07-02 08:05:03 GMT 48.687820 0.329734 37,000 167 419 0
2022-07-02 08:05:00 GMT 48.694431 0.327566 37,000 167 419 0
2022-07-02 08:04:56 GMT 48.701416 0.325181 37,000 167 419 0
2022-07-02 08:04:53 GMT 48.707188 0.323229 37,000 167 419 0
2022-07-02 08:04:50 GMT 48.711983 0.321567 37,000 167 419 0
2022-07-02 08:04:47 GMT 48.716732 0.319977 37,000 167 419 0
2022-07-02 08:04:45 GMT 48.722363 0.318098 37,000 167 419 0
2022-07-02 08:04:42 GMT 48.727982 0.316209 37,000 167 419 0
2022-07-02 08:04:39 GMT 48.731953 0.314845 37,000 167 419 0
2022-07-02 08:04:36 GMT 48.738876 0.312477 37,000 167 419 0
2022-07-02 08:04:33 GMT 48.743313 0.311014 37,000 167 419 0
2022-07-02 08:04:30 GMT 48.755043 0.307039 37,000 167 419 0
2022-07-02 08:04:27 GMT 48.758766 0.305738 37,000 167 419 0
2022-07-02 08:04:25 GMT 48.758766 0.305738 37,000 167 419 0
2022-07-02 08:04:23 GMT 48.762726 0.304448 37,000 167 419 0
2022-07-02 08:04:20 GMT 48.769089 0.302265 37,000 167 419 0
2022-07-02 08:04:17 GMT 48.773663 0.300751 37,000 167 419 0
2022-07-02 08:04:14 GMT 48.782139 0.297860 37,000 167 419 0
2022-07-02 08:04:09 GMT 48.789139 0.295504 37,000 167 419 0
2022-07-02 08:04:07 GMT 48.792938 0.294166 37,000 167 419 0
2022-07-02 08:04:03 GMT 48.801498 0.291279 37,000 167 419 0
2022-07-02 08:03:59 GMT 48.808483 0.288897 37,000 167 419 0
2022-07-02 08:03:56 GMT 48.814270 0.286912 37,000 167 419 0
2022-07-02 08:03:53 GMT 48.819855 0.285011 37,000 167 419 0
2022-07-02 08:03:50 GMT 48.826035 0.282968 37,000 167 419 0
2022-07-02 08:03:46 GMT 48.834274 0.280151 37,000 167 419 0
2022-07-02 08:03:43 GMT 48.839172 0.278461 37,000 167 419 0
2022-07-02 08:03:39 GMT 48.847355 0.275670 37,000 167 419 0
2022-07-02 08:03:35 GMT 48.858204 0.271984 37,000 167 419 0
2022-07-02 08:03:33 GMT 48.858204 0.271984 37,000 167 419 0
2022-07-02 08:03:30 GMT 48.863976 0.270032 37,000 167 419 0
2022-07-02 08:03:27 GMT 48.869003 0.268298 37,000 167 419 0
2022-07-02 08:03:25 GMT 48.873009 0.266924 37,000 167 419 0
2022-07-02 08:03:23 GMT 48.876823 0.265623 37,000 167 419 0
2022-07-02 08:03:19 GMT 48.884445 0.263038 37,000 167 419 0
2022-07-02 08:03:16 GMT 48.889954 0.261142 37,000 167 419 0
2022-07-02 08:03:14 GMT 48.893723 0.259841 37,000 167 419 0
2022-07-02 08:03:12 GMT 48.899448 0.257890 37,000 167 419 0
2022-07-02 08:03:09 GMT 48.903854 0.256418 37,000 167 419 0
2022-07-02 08:03:06 GMT 48.909271 0.254565 37,000 167 419 0
2022-07-02 08:03:01 GMT 48.918732 0.251347 37,000 167 418 0
2022-07-02 08:02:57 GMT 48.924541 0.249361 37,000 167 419 0
2022-07-02 08:02:55 GMT 48.929195 0.247771 37,000 167 419 0
2022-07-02 08:02:52 GMT 48.933712 0.246253 37,000 167 419 0
2022-07-02 08:02:50 GMT 48.939156 0.244374 37,000 167 419 0
2022-07-02 08:02:47 GMT 48.942719 0.243108 37,000 167 419 0
2022-07-02 08:02:45 GMT 48.947536 0.241482 37,000 167 419 0
2022-07-02 08:02:42 GMT 48.953403 0.239531 37,000 167 419 0
2022-07-02 08:02:39 GMT 48.959061 0.237544 37,000 167 419 0
2022-07-02 08:02:37 GMT 48.964096 0.235854 37,000 167 419 0
2022-07-02 08:02:32 GMT 48.972488 0.232954 37,000 167 418 0
2022-07-02 08:02:27 GMT 48.983322 0.229234 37,000 167 418 0
2022-07-02 08:02:25 GMT 48.985886 0.228389 37,000 167 418 0
2022-07-02 08:02:22 GMT 48.991608 0.226417 37,000 167 418 0
2022-07-02 08:02:16 GMT 49.001770 0.222896 37,000 167 419 0
2022-07-02 08:02:14 GMT 49.006424 0.221317 37,000 167 418 0
2022-07-02 08:02:11 GMT 49.015594 0.218209 37,000 167 419 0
2022-07-02 08:02:09 GMT 49.017551 0.217486 37,000 167 419 0
2022-07-02 08:02:05 GMT 49.024487 0.215101 37,000 167 419 0
2022-07-02 08:02:01 GMT 49.031097 0.212860 37,000 167 418 0
2022-07-02 08:01:58 GMT 49.036560 0.210994 37,000 167 418 0
2022-07-02 08:01:55 GMT 49.043060 0.208740 37,000 167 418 0
2022-07-02 08:01:53 GMT 49.045948 0.207801 37,000 167 418 0
2022-07-02 08:01:50 GMT 49.051346 0.205923 37,000 167 418 0
2022-07-02 08:01:46 GMT 49.060146 0.202886 37,000 167 418 0
2022-07-02 08:01:41 GMT 49.068947 0.199850 37,000 167 418 0
2022-07-02 08:01:36 GMT 49.084072 0.194646 37,000 167 418 0
2022-07-02 08:01:34 GMT 49.090256 0.192542 37,000 167 418 0
2022-07-02 08:01:31 GMT 49.090256 0.192542 37,000 167 418 0
2022-07-02 08:01:26 GMT 49.097759 0.189948 37,000 167 418 0
2022-07-02 08:01:24 GMT 49.100555 0.189021 37,000 167 418 0
2022-07-02 08:01:21 GMT 49.106918 0.186838 37,000 167 417 0
2022-07-02 08:01:19 GMT 49.110844 0.185467 37,000 167 417 0
2022-07-02 08:01:16 GMT 49.116623 0.183528 37,000 167 417 0
2022-07-02 08:01:14 GMT 49.120293 0.182214 37,000 167 417 0
2022-07-02 08:01:11 GMT 49.126785 0.180007 37,000 167 417 0
2022-07-02 08:01:08 GMT 49.137131 0.176415 37,000 167 417 0
2022-07-02 08:01:05 GMT 49.137131 0.176415 37,000 167 417 0
2022-07-02 08:01:03 GMT 49.142441 0.174584 37,000 167 417 0
2022-07-02 08:01:00 GMT 49.146687 0.173179 37,000 167 417 0
2022-07-02 08:00:56 GMT 49.154739 0.170360 37,000 167 417 0
2022-07-02 08:00:54 GMT 49.159302 0.168770 37,000 167 416 0
2022-07-02 08:00:51 GMT 49.162048 0.167831 37,000 167 417 0
2022-07-02 08:00:48 GMT 49.170181 0.165006 37,000 167 416 0
2022-07-02 08:00:45 GMT 49.174026 0.163739 37,000 167 416 0
2022-07-02 08:00:42 GMT 49.179276 0.161904 37,000 167 416 0
2022-07-02 08:00:39 GMT 49.188351 0.158796 37,000 167 416 0
2022-07-02 08:00:35 GMT 49.192448 0.157350 37,000 167 416 0
2022-07-02 08:00:33 GMT 49.201996 0.154090 37,000 167 416 0
2022-07-02 08:00:31 GMT 49.201996 0.154090 37,000 167 416 0
2022-07-02 08:00:27 GMT 49.211380 0.150851 37,000 167 416 0
2022-07-02 08:00:25 GMT 49.211380 0.150851 37,000 167 416 0
2022-07-02 08:00:23 GMT 49.214931 0.149616 37,000 167 416 0
2022-07-02 08:00:19 GMT 49.226578 0.145569 37,000 167 416 0
2022-07-02 08:00:17 GMT 49.226578 0.145569 37,000 167 416 0
2022-07-02 08:00:14 GMT 49.232529 0.143527 37,000 167 416 0
2022-07-02 08:00:10 GMT 49.239487 0.141132 37,000 167 415 0
2022-07-02 08:00:06 GMT 49.249100 0.137822 37,000 167 415 0
2022-07-02 08:00:03 GMT 49.252625 0.136625 37,000 167 415 0
2022-07-02 07:59:59 GMT 49.261158 0.133643 37,000 167 415 0
2022-07-02 07:59:56 GMT 49.266678 0.131766 37,000 167 415 0
2022-07-02 07:59:54 GMT 49.269726 0.130679 37,000 167 415 0
2022-07-02 07:59:52 GMT 49.272655 0.129668 37,000 167 415 0
2022-07-02 07:59:49 GMT 49.278664 0.127572 37,000 167 415 0
2022-07-02 07:59:47 GMT 49.282387 0.126270 37,000 167 415 0
2022-07-02 07:59:45 GMT 49.287140 0.124653 37,000 167 415 0
2022-07-02 07:59:43 GMT 49.290894 0.123385 37,000 167 415 0
2022-07-02 07:59:40 GMT 49.295841 0.121645 37,000 167 415 0
2022-07-02 07:59:37 GMT 49.303116 0.119089 37,000 167 415 0
2022-07-02 07:59:33 GMT 49.308792 0.117117 37,000 167 415 0
2022-07-02 07:59:31 GMT 49.314137 0.115284 37,000 167 415 0
2022-07-02 07:59:27 GMT 49.324081 0.111835 37,000 167 415 0
2022-07-02 07:59:25 GMT 49.324081 0.111835 37,000 167 415 0
2022-07-02 07:59:23 GMT 49.326843 0.110875 37,000 167 415 0
2022-07-02 07:59:18 GMT 49.338112 0.106972 37,000 167 415 0
2022-07-02 07:59:15 GMT 49.342209 0.105527 37,000 167 415 0
2022-07-02 07:59:13 GMT 49.346352 0.104081 37,000 167 415 0
2022-07-02 07:59:08 GMT 49.357056 0.100323 37,000 167 414 0
2022-07-02 07:59:05 GMT 49.360794 0.099018 37,000 167 414 0
2022-07-02 07:59:03 GMT 49.365341 0.097431 37,000 167 414 0
2022-07-02 07:59:00 GMT 49.371765 0.095191 37,000 167 414 0
2022-07-02 07:58:57 GMT 49.381821 0.091649 37,000 167 414 0
2022-07-02 07:58:54 GMT 49.381821 0.091649 37,000 167 414 0
2022-07-02 07:58:52 GMT 49.384754 0.090637 37,000 167 414 0
2022-07-02 07:58:49 GMT 49.391228 0.088397 37,000 167 414 0
2022-07-02 07:58:46 GMT 49.399933 0.085355 37,000 167 414 0
2022-07-02 07:58:44 GMT 49.405563 0.083383 37,000 167 414 0
2022-07-02 07:58:41 GMT 49.405563 0.083383 37,000 167 414 0
2022-07-02 07:58:38 GMT 49.412594 0.080952 37,000 167 414 0
2022-07-02 07:58:35 GMT 49.418274 0.078928 37,000 167 414 0
2022-07-02 07:58:31 GMT 49.424057 0.076904 37,000 167 414 0
2022-07-02 07:58:28 GMT 49.429958 0.074900 37,000 167 414 0
2022-07-02 07:58:26 GMT 49.434082 0.073435 37,000 167 414 64
2022-07-02 07:58:24 GMT 49.437405 0.072302 37,000 167 414 0
2022-07-02 07:58:22 GMT 49.442093 0.070688 37,000 167 414 0
2022-07-02 07:58:19 GMT 49.446671 0.069026 37,000 167 414 0
2022-07-02 07:58:16 GMT 49.452396 0.067106 37,000 167 414 0
2022-07-02 07:58:14 GMT 49.456493 0.065621 37,000 167 414 0
2022-07-02 07:58:11 GMT 49.463474 0.063246 37,000 167 414 0
2022-07-02 07:58:08 GMT 49.468082 0.061613 37,000 167 414 0
2022-07-02 07:58:05 GMT 49.478668 0.057967 37,000 167 414 0
2022-07-02 07:58:02 GMT 49.478668 0.057967 37,000 167 414 0
2022-07-02 07:57:59 GMT 49.484528 0.055944 37,000 167 414 0
2022-07-02 07:57:56 GMT 49.490341 0.053920 37,000 167 414 0
2022-07-02 07:57:51 GMT 49.499180 0.050849 37,000 167 414 0
2022-07-02 07:57:48 GMT 49.507050 0.048102 37,000 167 415 0
2022-07-02 07:57:45 GMT 49.510773 0.046840 37,000 167 415 0
2022-07-02 07:57:43 GMT 49.514587 0.045504 37,000 167 415 0
2022-07-02 07:57:40 GMT 49.521103 0.043223 37,000 167 415 0
2022-07-02 07:57:37 GMT 49.531162 0.039640 37,000 167 415 0
2022-07-02 07:57:34 GMT 49.531162 0.039640 37,000 167 415 0
2022-07-02 07:57:32 GMT 49.536980 0.037636 37,000 167 415 0
2022-07-02 07:57:29 GMT 49.540474 0.036374 37,000 167 415 0
2022-07-02 07:57:26 GMT 49.545361 0.034666 37,000 167 415 0
2022-07-02 07:57:23 GMT 49.552460 0.032236 37,000 167 415 0
2022-07-02 07:57:19 GMT 49.558628 0.029990 37,000 167 415 0
2022-07-02 07:57:15 GMT 49.570267 0.025907 37,000 166 416 0
2022-07-02 07:57:13 GMT 49.570267 0.025907 37,000 166 417 0
2022-07-02 07:57:11 GMT 49.575943 0.023924 37,000 167 415 0
2022-07-02 07:57:08 GMT 49.579971 0.022479 37,000 167 415 0
2022-07-02 07:57:05 GMT 49.585602 0.020527 37,000 166 415 0
2022-07-02 07:57:01 GMT 49.597824 0.016183 37,000 166 416 0
2022-07-02 07:56:58 GMT 49.597824 0.016183 37,000 166 416 0
2022-07-02 07:56:54 GMT 49.605087 0.013584 37,000 166 416 0
2022-07-02 07:56:52 GMT 49.609837 0.011877 37,000 166 417 0
2022-07-02 07:56:49 GMT 49.616501 0.009541 37,000 166 416 0
2022-07-02 07:56:45 GMT 49.622822 0.007275 37,000 166 417 0
2022-07-02 07:56:43 GMT 49.626640 0.005939 37,000 166 417 0
2022-07-02 07:56:40 GMT 49.631855 0.004083 37,000 167 417 0
2022-07-02 07:56:37 GMT 49.636883 0.002301 37,000 166 417 0
2022-07-02 07:56:34 GMT 49.643959 -0.000223 37,000 167 417 0
2022-07-02 07:56:32 GMT 49.653625 -0.003614 37,000 167 417 0
2022-07-02 07:56:29 GMT 49.653625 -0.003614 37,000 167 418 -64
2022-07-02 07:56:25 GMT 49.666397 -0.008091 37,000 167 417 0
2022-07-02 07:56:22 GMT 49.666397 -0.008091 37,000 167 418 0
2022-07-02 07:56:20 GMT 49.671471 -0.009873 37,000 167 418 -64
2022-07-02 07:56:16 GMT 49.678528 -0.012360 37,000 167 418 -64
2022-07-02 07:56:14 GMT 49.681458 -0.013372 37,000 167 418 -64
2022-07-02 07:56:12 GMT 49.685440 -0.014745 37,000 167 418 -64
2022-07-02 07:56:10 GMT 49.688274 -0.015811 37,000 167 418 -64
2022-07-02 07:56:07 GMT 49.694046 -0.017781 37,000 167 418 0
2022-07-02 07:56:04 GMT 49.699860 -0.019877 37,000 167 418 0
2022-07-02 07:56:02 GMT 49.703590 -0.021156 37,000 167 418 0
2022-07-02 07:55:59 GMT 49.710945 -0.023754 37,000 167 418 0
2022-07-02 07:55:53 GMT 49.720596 -0.027104 37,000 167 418 0
2022-07-02 07:55:51 GMT 49.724075 -0.028357 37,000 167 418 0
2022-07-02 07:55:49 GMT 49.728378 -0.029851 37,000 167 418 0
2022-07-02 07:55:46 GMT 49.733231 -0.031586 37,000 167 419 64
2022-07-02 07:55:44 GMT 49.741673 -0.034518 37,000 167 419 0
2022-07-02 07:55:39 GMT 49.748474 -0.036862 37,000 166 420 0
2022-07-02 07:55:36 GMT 49.754196 -0.038886 37,000 167 419 0
2022-07-02 07:55:33 GMT 49.757870 -0.040159 37,000 167 419 0
2022-07-02 07:55:30 GMT 49.764542 -0.042500 37,000 167 419 0
2022-07-02 07:55:27 GMT 49.769276 -0.044168 37,000 167 420 0
2022-07-02 07:55:23 GMT 49.776165 -0.046618 37,000 167 420 0
2022-07-02 07:55:21 GMT 49.781010 -0.048325 37,000 167 420 0
2022-07-02 07:55:18 GMT 49.792973 -0.052482 37,000 167 420 0
2022-07-02 07:55:15 GMT 49.796463 -0.053744 37,000 167 420 0
2022-07-02 07:55:11 GMT 49.800236 -0.055080 37,000 167 420 0
2022-07-02 07:55:08 GMT 49.806519 -0.057245 37,000 167 420 0
2022-07-02 07:55:04 GMT 49.812988 -0.059534 37,000 166 420 0
2022-07-02 07:55:02 GMT 49.817783 -0.061241 37,000 166 420 0
2022-07-02 07:54:58 GMT 49.828445 -0.065101 37,000 166 420 0
2022-07-02 07:54:55 GMT 49.831192 -0.066066 37,000 166 420 0
2022-07-02 07:54:53 GMT 49.833160 -0.066785 37,000 166 420 0
2022-07-02 07:54:51 GMT 49.838314 -0.068590 37,000 166 421 64
2022-07-02 07:54:49 GMT 49.841946 -0.069926 37,000 166 421 0
2022-07-02 07:54:46 GMT 49.848267 -0.072134 37,000 166 421 0
2022-07-02 07:54:43 GMT 49.852982 -0.073796 37,000 166 421 0
2022-07-02 07:54:40 GMT 49.864883 -0.078061 37,000 166 421 0
2022-07-02 07:54:37 GMT 49.864883 -0.078061 37,000 167 421 0
2022-07-02 07:54:33 GMT 49.872578 -0.080839 37,000 166 421 0
2022-07-02 07:54:31 GMT 49.876282 -0.082108 37,000 167 422 0
2022-07-02 07:54:29 GMT 49.878304 -0.082843 37,000 167 422 0
2022-07-02 07:54:27 GMT 49.883888 -0.084847 37,000 167 422 0
2022-07-02 07:54:23 GMT 49.891521 -0.087519 37,000 167 422 0
2022-07-02 07:54:20 GMT 49.897202 -0.089553 37,000 167 422 0
2022-07-02 07:54:16 GMT 49.907913 -0.093384 37,000 166 423 0
2022-07-02 07:54:14 GMT 49.910980 -0.094497 37,000 166 423 0
2022-07-02 07:54:12 GMT 49.910980 -0.094497 37,000 166 423 0
2022-07-02 07:54:10 GMT 49.915833 -0.096275 37,000 166 423 0
2022-07-02 07:54:07 GMT 49.922482 -0.098654 37,000 166 423 0
2022-07-02 07:54:03 GMT 49.929138 -0.101104 37,000 166 423 0
2022-07-02 07:54:00 GMT 49.940960 -0.105335 37,000 166 423 0
2022-07-02 07:53:57 GMT 49.940960 -0.105335 37,000 167 422 0
2022-07-02 07:53:54 GMT 49.946228 -0.107189 37,000 167 422 0
2022-07-02 07:53:52 GMT 49.949707 -0.108490 37,000 167 422 0
2022-07-02 07:53:50 GMT 49.955063 -0.110369 37,000 167 422 0
2022-07-02 07:53:48 GMT 49.960049 -0.112164 37,000 167 422 0
2022-07-02 07:53:45 GMT 49.963215 -0.113278 37,000 167 422 0
2022-07-02 07:53:42 GMT 49.972664 -0.116693 37,000 167 422 0
2022-07-02 07:53:37 GMT 49.978111 -0.118623 37,000 167 423 0
2022-07-02 07:53:32 GMT 49.989746 -0.122780 37,000 167 423 0
2022-07-02 07:53:29 GMT 49.994339 -0.124464 37,000 167 423 0
2022-07-02 07:53:26 GMT 50.005436 -0.128421 37,000 167 423 0
2022-07-02 07:53:23 GMT 50.005436 -0.128421 37,000 167 423 0
2022-07-02 07:53:20 GMT 50.010590 -0.130246 37,000 167 423 64
2022-07-02 07:53:18 GMT 50.014618 -0.131691 37,000 167 423 0
2022-07-02 07:53:15 GMT 50.020939 -0.133914 37,000 167 423 0
2022-07-02 07:53:13 GMT 50.023685 -0.134879 37,000 167 423 0
2022-07-02 07:53:11 GMT 50.032379 -0.137980 37,000 167 423 0
2022-07-02 07:53:09 GMT 50.032379 -0.137980 37,000 167 423 0
2022-07-02 07:53:06 GMT 50.038071 -0.139927 37,000 167 423 0
2022-07-02 07:53:03 GMT 50.047520 -0.143268 37,000 167 423 0
2022-07-02 07:53:01 GMT 50.047520 -0.143268 37,000 167 423 0
2022-07-02 07:52:59 GMT 50.057667 -0.146831 37,000 167 423 0
2022-07-02 07:52:56 GMT 50.057667 -0.146831 37,000 167 423 -64
2022-07-02 07:52:53 GMT 50.063160 -0.148761 37,000 167 423 0
2022-07-02 07:52:51 GMT 50.065674 -0.149652 37,000 167 423 0
2022-07-02 07:52:49 GMT 50.070190 -0.151207 37,000 167 423 0
2022-07-02 07:52:44 GMT 50.083832 -0.156036 37,000 167 423 0
2022-07-02 07:52:42 GMT 50.083832 -0.156036 37,000 167 423 0
2022-07-02 07:52:39 GMT 50.089371 -0.157966 37,000 167 423 0
2022-07-02 07:52:36 GMT 50.094131 -0.159663 37,000 167 423 0
2022-07-02 07:52:33 GMT 50.101776 -0.162337 37,000 167 423 0
2022-07-02 07:52:31 GMT 50.104660 -0.163349 37,000 167 423 64
2022-07-02 07:52:29 GMT 50.107544 -0.164361 37,000 167 423 0
2022-07-02 07:52:26 GMT 50.113438 -0.166502 37,000 167 423 0
2022-07-02 07:52:23 GMT 50.119858 -0.168770 37,000 167 423 0
2022-07-02 07:52:21 GMT 50.127548 -0.171445 37,000 167 423 0
2022-07-02 07:52:19 GMT 50.127548 -0.171445 37,000 167 423 0
2022-07-02 07:52:15 GMT 50.135010 -0.174119 37,000 167 423 0
2022-07-02 07:52:13 GMT 50.138668 -0.175410 37,000 167 423 0
2022-07-02 07:52:11 GMT 50.142288 -0.176721 37,000 167 423 0
2022-07-02 07:52:08 GMT 50.149658 -0.179323 37,000 167 423 -64
2022-07-02 07:52:05 GMT 50.152725 -0.180407 37,000 167 423 -64
2022-07-02 07:52:03 GMT 50.157303 -0.181997 37,000 166 423 0
2022-07-02 07:52:01 GMT 50.161972 -0.183732 37,000 165 424 0
2022-07-02 07:51:59 GMT 50.165810 -0.185209 37,000 164 425 0
2022-07-02 07:51:56 GMT 50.170990 -0.187418 37,000 164 427 0
2022-07-02 07:51:52 GMT 50.178955 -0.191032 37,000 162 428 0
2022-07-02 07:51:50 GMT 50.182800 -0.192911 37,000 159 432 0
2022-07-02 07:51:48 GMT 50.185684 -0.194429 37,000 159 432 0
2022-07-02 07:51:46 GMT 50.190491 -0.197031 37,000 159 432 0
2022-07-02 07:51:44 GMT 50.194290 -0.199272 37,000 159 432 0
2022-07-02 07:51:42 GMT 50.197788 -0.201317 37,000 159 432 64
2022-07-02 07:51:40 GMT 50.201523 -0.203536 37,000 159 432 64
2022-07-02 07:51:36 GMT 50.210495 -0.208813 37,000 159 432 0
2022-07-02 07:51:32 GMT 50.216446 -0.212282 37,000 159 433 -64
2022-07-02 07:51:29 GMT 50.222416 -0.215867 37,000 159 433 -64
2022-07-02 07:51:27 GMT 50.225830 -0.217847 37,000 159 433 0
2022-07-02 07:51:25 GMT 50.229355 -0.219949 37,000 159 433 -64
2022-07-02 07:51:22 GMT 50.235031 -0.223290 37,000 159 433 0
2022-07-02 07:51:20 GMT 50.237778 -0.224931 37,000 159 433 0
2022-07-02 07:51:17 GMT 50.246250 -0.229971 37,000 159 432 0
2022-07-02 07:51:14 GMT 50.250046 -0.232231 37,000 159 432 0
2022-07-02 07:51:12 GMT 50.253113 -0.234038 37,000 159 432 0
2022-07-02 07:51:10 GMT 50.257690 -0.236712 37,000 159 432 64
2022-07-02 07:51:06 GMT 50.264648 -0.240904 37,000 159 432 0
2022-07-02 07:51:03 GMT 50.275112 -0.247118 37,000 159 432 0
2022-07-02 07:51:00 GMT 50.282364 -0.251457 37,000 159 432 0
2022-07-02 07:50:57 GMT 50.282364 -0.251457 37,000 159 432 0
2022-07-02 07:50:54 GMT 50.289127 -0.255506 37,000 159 431 0
2022-07-02 07:50:51 GMT 50.295090 -0.259046 37,000 159 431 0
2022-07-02 07:50:49 GMT 50.295090 -0.259046 37,000 159 431 0
2022-07-02 07:50:47 GMT 50.299805 -0.261865 37,000 159 431 0
2022-07-02 07:50:44 GMT 50.307678 -0.266491 37,000 159 431 0
2022-07-02 07:50:41 GMT 50.311981 -0.269091 37,000 159 431 0
2022-07-02 07:50:39 GMT 50.315475 -0.271169 37,000 159 431 0
2022-07-02 07:50:35 GMT 50.322784 -0.275475 37,000 159 431 0
2022-07-02 07:50:32 GMT 50.327393 -0.278221 37,000 159 430 0
2022-07-02 07:50:30 GMT 50.336002 -0.283343 37,000 159 430 0
2022-07-02 07:50:27 GMT 50.336002 -0.283343 37,000 159 430 0
2022-07-02 07:50:25 GMT 50.340519 -0.286016 37,000 159 430 64
2022-07-02 07:50:22 GMT 50.346573 -0.289653 37,000 159 430 0
2022-07-02 07:50:19 GMT 50.356113 -0.295369 37,000 159 430 -64
2022-07-02 07:50:17 GMT 50.356113 -0.295369 37,000 159 430 0
2022-07-02 07:50:15 GMT 50.359818 -0.297570 37,000 159 430 0
2022-07-02 07:50:12 GMT 50.365311 -0.300895 37,000 159 430 0
2022-07-02 07:50:10 GMT 50.369614 -0.303386 37,000 159 429 0
2022-07-02 07:50:08 GMT 50.373688 -0.305883 37,000 159 429 0
2022-07-02 07:50:05 GMT 50.378632 -0.308846 37,000 159 429 0
2022-07-02 07:50:02 GMT 50.389435 -0.315206 37,000 159 429 0
2022-07-02 07:49:59 GMT 50.389435 -0.315206 37,000 159 428 0
2022-07-02 07:49:56 GMT 50.393726 -0.317787 37,000 159 428 0
2022-07-02 07:49:54 GMT 50.398571 -0.320682 37,000 159 428 0
2022-07-02 07:49:51 GMT 50.404449 -0.324169 37,000 159 428 0
2022-07-02 07:49:49 GMT 50.409027 -0.326916 37,000 159 427 0
2022-07-02 07:49:46 GMT 50.419613 -0.333153 37,000 159 427 0
2022-07-02 07:49:43 GMT 50.419613 -0.333153 37,000 159 427 0
2022-07-02 07:49:40 GMT 50.424595 -0.336122 37,000 159 427 0
2022-07-02 07:49:38 GMT 50.428024 -0.338191 37,000 159 427 0
2022-07-02 07:49:36 GMT 50.431622 -0.340353 37,000 159 426 0
2022-07-02 07:49:33 GMT 50.435532 -0.342655 37,000 159 426 64
2022-07-02 07:49:31 GMT 50.440613 -0.345708 37,000 159 426 0
2022-07-02 07:49:29 GMT 50.443497 -0.347443 37,000 159 426 0
2022-07-02 07:49:27 GMT 50.447170 -0.349632 37,000 159 426 0
2022-07-02 07:49:25 GMT 50.452194 -0.352574 37,000 159 426 0
2022-07-02 07:49:23 GMT 50.457039 -0.355497 37,000 159 426 0
2022-07-02 07:49:20 GMT 50.460903 -0.357798 37,000 159 426 0
2022-07-02 07:49:18 GMT 50.464462 -0.359947 37,000 159 426 0
2022-07-02 07:49:16 GMT 50.468304 -0.362252 37,000 159 426 0
2022-07-02 07:49:14 GMT 50.472015 -0.364428 37,000 159 426 0
2022-07-02 07:49:11 GMT 50.477325 -0.367608 37,000 159 426 0
2022-07-02 07:49:09 GMT 50.481155 -0.369898 37,000 159 426 0
2022-07-02 07:49:07 GMT 50.485107 -0.372234 37,000 159 426 0
2022-07-02 07:49:04 GMT 50.490646 -0.375559 37,000 159 426 0
2022-07-02 07:49:02 GMT 50.497959 -0.379993 37,000 159 426 0
2022-07-02 07:49:00 GMT 50.504757 -0.384076 37,000 159 426 0
2022-07-02 07:48:57 GMT 50.504757 -0.384076 37,000 159 426 0
2022-07-02 07:48:54 GMT 50.510529 -0.387491 37,000 159 426 0
2022-07-02 07:48:51 GMT 50.514252 -0.389718 37,000 159 426 0
2022-07-02 07:48:48 GMT 50.522259 -0.394543 37,000 159 425 0
2022-07-02 07:48:45 GMT 50.524960 -0.396176 37,000 159 425 0
2022-07-02 07:48:43 GMT 50.532578 -0.400784 37,000 159 425 0
2022-07-02 07:48:41 GMT 50.532578 -0.400784 37,000 159 425 0
2022-07-02 07:48:39 GMT 50.542557 -0.406791 37,000 159 425 0
2022-07-02 07:48:36 GMT 50.542557 -0.406791 37,000 159 425 0
2022-07-02 07:48:34 GMT 50.547272 -0.409602 37,000 159 425 0
2022-07-02 07:48:31 GMT 50.551025 -0.411843 37,000 159 425 0
2022-07-02 07:48:28 GMT 50.555923 -0.414806 37,000 159 425 -64
2022-07-02 07:48:26 GMT 50.561737 -0.418276 37,000 159 425 -64
2022-07-02 07:48:23 GMT 50.564438 -0.419866 37,000 159 425 -64
2022-07-02 07:48:21 GMT 50.569656 -0.422974 37,000 159 425 0
2022-07-02 07:48:19 GMT 50.572449 -0.424708 37,000 159 425 0
2022-07-02 07:48:17 GMT 50.577621 -0.427816 37,000 159 425 0
2022-07-02 07:48:15 GMT 50.579563 -0.428986 37,000 159 425 0
2022-07-02 07:48:13 GMT 50.583569 -0.431362 37,000 159 424 0
2022-07-02 07:48:11 GMT 50.587757 -0.433886 37,000 159 424 0
2022-07-02 07:48:09 GMT 50.591263 -0.435984 37,000 159 423 0
2022-07-02 07:48:07 GMT 50.593903 -0.437597 37,000 159 423 0
2022-07-02 07:48:04 GMT 50.606735 -0.445235 37,000 159 423 0
2022-07-02 07:48:01 GMT 50.606735 -0.445235 37,000 159 423 0
2022-07-02 07:47:59 GMT 50.608795 -0.446464 37,000 159 423 0
2022-07-02 07:47:57 GMT 50.614571 -0.449994 37,000 159 424 0
2022-07-02 07:47:54 GMT 50.619370 -0.452825 37,000 159 424 0
2022-07-02 07:47:51 GMT 50.624535 -0.455933 37,000 159 425 0
2022-07-02 07:47:49 GMT 50.627930 -0.458029 37,000 159 425 0
2022-07-02 07:47:47 GMT 50.633194 -0.461203 37,000 159 424 0
2022-07-02 07:47:44 GMT 50.639328 -0.464823 37,000 159 424 0
2022-07-02 07:47:41 GMT 50.643082 -0.467136 37,000 159 425 64
2022-07-02 07:47:39 GMT 50.646927 -0.469449 37,000 159 425 0
2022-07-02 07:47:37 GMT 50.649811 -0.471150 37,000 159 424 0
2022-07-02 07:47:07 GMT 50.713497 -0.509415 37,000 159 424 64
2022-07-02 07:47:04 GMT 50.709957 -0.507278 37,000 159 424 0
2022-07-02 07:47:02 GMT 50.714310 -0.509899 37,000 158 424 -64
2022-07-02 07:46:59 GMT 50.718521 -0.512423 37,000 158 424 0
2022-07-02 07:46:57 GMT 50.722321 -0.514799 37,000 158 424 -64
2022-07-02 07:46:55 GMT 50.726944 -0.517619 37,000 158 424 0
2022-07-02 07:46:53 GMT 50.729511 -0.519104 37,000 158 424 -64
2022-07-02 07:46:51 GMT 50.737289 -0.523855 37,000 158 424 0
2022-07-02 07:46:49 GMT 50.737289 -0.523855 37,000 159 424 0
2022-07-02 07:46:47 GMT 50.741844 -0.526581 37,000 159 424 0
2022-07-02 07:46:44 GMT 50.748131 -0.530472 37,000 159 424 0
2022-07-02 07:46:41 GMT 50.752075 -0.532837 37,000 158 424 0
2022-07-02 07:46:39 GMT 50.755627 -0.534973 37,000 158 424 0
2022-07-02 07:46:37 GMT 50.759209 -0.537109 37,000 158 424 0
2022-07-02 07:46:34 GMT 50.765774 -0.541153 37,000 158 424 0
2022-07-02 07:46:31 GMT 50.770615 -0.544052 37,000 158 425 0
2022-07-02 07:46:29 GMT 50.780437 -0.550079 37,000 158 424 -64
2022-07-02 07:46:26 GMT 50.780437 -0.550079 37,000 158 424 0
2022-07-02 07:46:24 GMT 50.783184 -0.551758 37,000 158 425 -64
2022-07-02 07:46:22 GMT 50.787048 -0.554047 37,000 158 425 -64
2022-07-02 07:46:20 GMT 50.791214 -0.556591 37,000 158 425 0
2022-07-02 07:46:18 GMT 50.794373 -0.558521 37,000 158 425 0
2022-07-02 07:46:16 GMT 50.798035 -0.560760 37,000 158 425 0
2022-07-02 07:46:14 GMT 50.802689 -0.563583 37,000 158 425 0
2022-07-02 07:46:12 GMT 50.806786 -0.566025 37,000 158 425 0
2022-07-02 07:46:10 GMT 50.809486 -0.567703 37,000 158 425 0
2022-07-02 07:46:08 GMT 50.812729 -0.569730 37,000 158 425 0
2022-07-02 07:46:06 GMT 50.816620 -0.572031 37,000 158 425 0
2022-07-02 07:46:04 GMT 50.820648 -0.574481 37,000 158 425 0
2022-07-02 07:46:02 GMT 50.824429 -0.576782 37,000 158 425 0
2022-07-02 07:45:59 GMT 50.829208 -0.579677 37,000 158 425 0
2022-07-02 07:45:57 GMT 50.834064 -0.582657 37,000 158 426 -64
2022-07-02 07:45:54 GMT 50.839508 -0.585987 37,000 158 426 0
2022-07-02 07:45:52 GMT 50.846821 -0.590439 37,000 158 426 0
2022-07-02 07:45:50 GMT 50.846821 -0.590439 37,000 158 426 -64
2022-07-02 07:45:48 GMT 50.854969 -0.595474 37,000 158 426 -64
2022-07-02 07:45:46 GMT 50.854969 -0.595474 37,000 158 426 0
2022-07-02 07:45:43 GMT 50.860695 -0.598984 37,000 158 426 0
2022-07-02 07:45:40 GMT 50.871773 -0.605698 37,000 158 426 0
2022-07-02 07:45:37 GMT 50.871773 -0.605698 37,000 158 426 0
2022-07-02 07:45:34 GMT 50.875637 -0.608063 37,000 158 427 0
2022-07-02 07:45:31 GMT 50.882900 -0.612488 37,000 158 427 64
2022-07-02 07:45:28 GMT 50.887741 -0.615463 37,000 158 427 64
2022-07-02 07:45:25 GMT 50.899658 -0.622732 37,000 158 427 64
2022-07-02 07:45:22 GMT 50.899658 -0.622732 37,000 158 427 64
2022-07-02 07:45:19 GMT 50.906593 -0.626984 37,000 158 428 0
2022-07-02 07:45:17 GMT 50.906593 -0.626984 37,000 158 428 0
2022-07-02 07:45:15 GMT 50.910271 -0.629272 37,000 158 428 0
2022-07-02 07:45:13 GMT 50.914215 -0.631714 37,000 158 428 0
2022-07-02 07:45:11 GMT 50.917301 -0.633545 37,000 158 428 0
2022-07-02 07:45:09 GMT 50.921539 -0.636215 37,000 158 428 -64
2022-07-02 07:45:07 GMT 50.925308 -0.638504 37,000 158 428 -64
2022-07-02 07:45:05 GMT 50.929413 -0.641067 37,000 158 428 -64
2022-07-02 07:45:03 GMT 50.932060 -0.642624 37,000 158 428 0
2022-07-02 07:45:01 GMT 50.937744 -0.646189 37,000 158 428 -64
2022-07-02 07:44:58 GMT 50.947792 -0.652313 37,000 158 428 0
2022-07-02 07:44:55 GMT 50.947792 -0.652313 37,000 158 428 0
2022-07-02 07:44:52 GMT 50.952484 -0.655245 37,000 158 428 0
2022-07-02 07:44:50 GMT 50.957150 -0.658112 37,000 158 428 0
2022-07-02 07:44:47 GMT 50.960873 -0.660400 37,000 158 428 0
2022-07-02 07:44:45 GMT 50.964478 -0.662594 37,000 158 429 0
2022-07-02 07:44:43 GMT 50.970062 -0.666009 37,000 158 428 0
2022-07-02 07:44:41 GMT 50.973492 -0.668182 37,000 158 428 0
2022-07-02 07:44:39 GMT 50.977352 -0.670547 37,000 158 428 -64
2022-07-02 07:44:37 GMT 50.981140 -0.672913 37,000 158 428 0
2022-07-02 07:44:35 GMT 50.983017 -0.674100 37,000 158 428 0
2022-07-02 07:44:33 GMT 50.987823 -0.677070 37,000 158 428 0
2022-07-02 07:44:31 GMT 50.991806 -0.679519 37,000 158 428 64
2022-07-02 07:44:29 GMT 50.995377 -0.681746 37,000 158 428 64
2022-07-02 07:44:27 GMT 50.998024 -0.683441 37,000 158 428 64
2022-07-02 07:44:25 GMT 51.006077 -0.688400 37,000 158 428 0
2022-07-02 07:44:23 GMT 51.006077 -0.688400 37,000 158 429 0
2022-07-02 07:44:21 GMT 51.010685 -0.691299 37,000 158 429 0
2022-07-02 07:44:19 GMT 51.013275 -0.692881 37,000 158 429 0
2022-07-02 07:44:17 GMT 51.016739 -0.695038 37,000 158 429 0
2022-07-02 07:44:15 GMT 51.021332 -0.697929 37,000 158 429 0
2022-07-02 07:44:13 GMT 51.025024 -0.700226 37,000 158 429 64
2022-07-02 07:44:10 GMT 51.030716 -0.703719 37,000 158 429 0
2022-07-02 07:44:07 GMT 51.035824 -0.706863 37,000 158 429 0
2022-07-02 07:44:04 GMT 51.042435 -0.710919 37,000 158 429 0
2022-07-02 07:44:01 GMT 51.046249 -0.713272 37,000 158 430 -64
2022-07-02 07:43:59 GMT 51.050720 -0.716019 37,000 158 430 0
2022-07-02 07:43:57 GMT 51.053421 -0.717697 37,000 158 430 0
2022-07-02 07:43:55 GMT 51.057983 -0.720444 37,000 158 430 -64
2022-07-02 07:43:53 GMT 51.062263 -0.723114 37,000 158 430 0
2022-07-02 07:43:51 GMT 51.065060 -0.724869 37,000 158 430 0
2022-07-02 07:43:49 GMT 51.069901 -0.727844 37,000 158 430 0
2022-07-02 07:43:47 GMT 51.073765 -0.730209 37,000 158 430 0
2022-07-02 07:43:44 GMT 51.082260 -0.735490 37,000 158 430 0
2022-07-02 07:43:42 GMT 51.082260 -0.735490 37,000 158 430 0
2022-07-02 07:43:39 GMT 51.087685 -0.738831 37,000 158 430 0
2022-07-02 07:43:37 GMT 51.095505 -0.743637 37,000 158 429 0
2022-07-02 07:43:35 GMT 51.095505 -0.743637 37,000 158 429 0
2022-07-02 07:43:33 GMT 51.102127 -0.747664 37,000 158 429 0
2022-07-02 07:43:31 GMT 51.106384 -0.750337 37,000 158 429 0
2022-07-02 07:43:29 GMT 51.106384 -0.750337 37,000 158 429 0
2022-07-02 07:43:27 GMT 51.110001 -0.752489 37,000 158 429 0
2022-07-02 07:43:25 GMT 51.114777 -0.755463 37,000 159 430 0
2022-07-02 07:43:22 GMT 51.117569 -0.757141 37,000 159 430 0
2022-07-02 07:43:20 GMT 51.123505 -0.760729 37,000 159 430 0
2022-07-02 07:43:18 GMT 51.126343 -0.762511 37,000 159 430 0
2022-07-02 07:43:16 GMT 51.130417 -0.764960 37,000 159 430 0
2022-07-02 07:43:14 GMT 51.132931 -0.766525 37,000 159 430 0
2022-07-02 07:43:12 GMT 51.136963 -0.768969 37,000 159 430 0
2022-07-02 07:43:10 GMT 51.141590 -0.771790 37,000 159 430 0
2022-07-02 07:43:08 GMT 51.144478 -0.773544 37,000 159 430 -64
2022-07-02 07:43:06 GMT 51.148315 -0.775872 37,000 159 430 -64
2022-07-02 07:43:04 GMT 51.152710 -0.778545 37,000 159 430 0
2022-07-02 07:43:01 GMT 51.157425 -0.781440 37,000 159 430 0
2022-07-02 07:42:59 GMT 51.162415 -0.784409 37,000 159 430 0
2022-07-02 07:42:57 GMT 51.166168 -0.786743 37,000 159 430 0
2022-07-02 07:42:54 GMT 51.174545 -0.791832 37,000 159 430 0
2022-07-02 07:42:52 GMT 51.174545 -0.791832 37,000 159 430 0
2022-07-02 07:42:49 GMT 51.179298 -0.794754 37,000 159 430 0
2022-07-02 07:42:47 GMT 51.184067 -0.797622 37,000 159 430 0
2022-07-02 07:42:44 GMT 51.189056 -0.800666 37,000 159 430 0
2022-07-02 07:42:42 GMT 51.192947 -0.803041 37,000 159 430 -64
2022-07-02 07:42:40 GMT 51.197544 -0.805817 37,000 159 430 -64
2022-07-02 07:42:38 GMT 51.205086 -0.810394 37,000 159 430 -64
2022-07-02 07:42:36 GMT 51.205086 -0.810394 37,000 159 429 0
2022-07-02 07:42:34 GMT 51.208374 -0.812394 37,000 159 429 0
2022-07-02 07:42:31 GMT 51.213142 -0.815277 37,000 159 429 0
2022-07-02 07:42:28 GMT 51.219452 -0.819150 37,000 158 429 0
2022-07-02 07:42:26 GMT 51.223114 -0.821376 37,000 158 429 0
2022-07-02 07:42:24 GMT 51.227058 -0.823822 37,000 158 429 0
2022-07-02 07:42:21 GMT 51.233276 -0.827612 37,000 159 429 0
2022-07-02 07:42:18 GMT 51.237671 -0.830284 37,000 159 429 0
2022-07-02 07:42:16 GMT 51.246826 -0.835852 37,000 158 429 0
2022-07-02 07:42:14 GMT 51.246826 -0.835852 37,000 158 429 0
2022-07-02 07:42:11 GMT 51.250351 -0.838004 37,000 158 429 64
2022-07-02 07:42:09 GMT 51.253780 -0.840149 37,000 158 429 64
2022-07-02 07:42:07 GMT 51.258717 -0.843124 37,000 158 429 64
2022-07-02 07:42:04 GMT 51.265091 -0.847061 37,000 158 429 64
2022-07-02 07:42:01 GMT 51.269142 -0.849609 37,000 158 429 64
2022-07-02 07:41:59 GMT 51.273605 -0.852405 37,000 158 430 0
2022-07-02 07:41:56 GMT 51.282349 -0.857899 37,000 158 430 0
2022-07-02 07:41:54 GMT 51.282349 -0.857899 37,000 158 430 0
2022-07-02 07:41:52 GMT 51.292740 -0.864579 37,000 157 430 0
2022-07-02 07:41:49 GMT 51.292740 -0.864579 37,000 157 431 0
2022-07-02 07:41:46 GMT 51.297180 -0.867475 37,000 157 431 0
2022-07-02 07:41:43 GMT 51.303825 -0.871887 37,000 157 431 0
2022-07-02 07:41:40 GMT 51.308945 -0.875269 37,000 157 430 0
2022-07-02 07:41:37 GMT 51.312332 -0.877570 37,000 157 430 0
2022-07-02 07:41:35 GMT 51.316906 -0.880508 37,000 157 431 0
2022-07-02 07:41:33 GMT 51.321701 -0.883713 37,000 157 431 0
2022-07-02 07:41:30 GMT 51.325424 -0.886230 37,000 157 431 0
2022-07-02 07:41:28 GMT 51.328766 -0.888408 37,000 157 431 0
2022-07-02 07:41:26 GMT 51.333199 -0.891342 37,000 157 431 -64
2022-07-02 07:41:24 GMT 51.336868 -0.893827 37,000 157 431 -64
2022-07-02 07:41:22 GMT 51.341400 -0.896796 37,000 157 431 0
2022-07-02 07:41:19 GMT 51.346939 -0.900508 37,000 157 431 0
2022-07-02 07:41:17 GMT 51.353638 -0.904999 37,000 157 431 0
2022-07-02 07:41:15 GMT 51.353638 -0.904999 37,000 157 431 0
2022-07-02 07:41:13 GMT 51.357872 -0.907745 37,000 157 431 0
2022-07-02 07:41:11 GMT 51.360352 -0.909416 37,000 157 431 0
2022-07-02 07:41:09 GMT 51.367695 -0.914307 37,000 157 432 0
2022-07-02 07:41:07 GMT 51.367695 -0.914307 37,000 157 430 0
2022-07-02 07:41:05 GMT 51.371658 -0.916913 37,000 157 431 0
2022-07-02 07:41:03 GMT 51.376354 -0.920029 37,000 157 431 -64
2022-07-02 07:41:00 GMT 51.380356 -0.922703 37,000 157 431 -64
2022-07-02 07:40:58 GMT 51.384201 -0.925301 37,000 157 431 0
2022-07-02 07:40:56 GMT 51.388550 -0.928192 37,000 157 432 0
2022-07-02 07:40:54 GMT 51.392693 -0.930939 37,000 157 432 0
2022-07-02 07:40:51 GMT 51.399628 -0.935545 37,000 157 432 0
2022-07-02 07:40:48 GMT 51.403446 -0.938034 37,000 157 432 0
2022-07-02 07:40:46 GMT 51.411221 -0.943222 37,000 157 432 0
2022-07-02 07:40:44 GMT 51.411221 -0.943222 37,000 157 433 0
2022-07-02 07:40:42 GMT 51.414154 -0.945206 37,000 157 433 0
2022-07-02 07:40:40 GMT 51.418251 -0.947952 37,000 157 433 0
2022-07-02 07:40:38 GMT 51.422253 -0.950623 37,000 157 433 0
2022-07-02 07:40:36 GMT 51.425171 -0.952544 37,000 157 433 0
2022-07-02 07:40:34 GMT 51.429794 -0.955662 37,000 157 433 0
2022-07-02 07:40:32 GMT 51.432632 -0.957592 37,000 157 434 0
2022-07-02 07:40:30 GMT 51.438263 -0.961304 37,000 157 434 0
2022-07-02 07:40:27 GMT 51.442738 -0.964279 37,000 157 434 0
2022-07-02 07:40:25 GMT 51.444763 -0.965683 37,000 157 434 0
2022-07-02 07:40:23 GMT 51.449707 -0.968950 37,000 157 435 0
2022-07-02 07:40:21 GMT 51.453259 -0.971298 37,000 157 435 0
2022-07-02 07:40:18 GMT 51.466278 -0.980010 37,000 157 436 64
2022-07-02 07:40:15 GMT 51.469940 -0.982460 37,000 157 435 0
2022-07-02 07:40:12 GMT 51.469940 -0.982460 37,000 157 435 0
2022-07-02 07:40:10 GMT 51.473972 -0.985184 37,000 157 436 64
2022-07-02 07:40:07 GMT 51.479420 -0.988770 37,000 157 436 64
2022-07-02 07:40:05 GMT 51.488800 -0.995079 37,000 157 436 0
2022-07-02 07:40:02 GMT 51.488800 -0.995079 37,000 157 436 0
2022-07-02 07:40:00 GMT 51.492409 -0.997467 37,000 157 436 -64
2022-07-02 07:39:58 GMT 51.496033 -0.999904 37,000 157 436 -64
2022-07-02 07:39:56 GMT 51.498974 -1.001816 37,000 157 437 -64
2022-07-02 07:39:54 GMT 51.504463 -1.005554 37,000 157 437 0
2022-07-02 07:39:51 GMT 51.515167 -1.012672 37,000 157 437 0
2022-07-02 07:39:48 GMT 51.515167 -1.012672 37,000 157 437 0
2022-07-02 07:39:45 GMT 51.520714 -1.016388 37,000 157 437 0
2022-07-02 07:39:43 GMT 51.523506 -1.018295 37,000 157 437 0
2022-07-02 07:39:41 GMT 51.528122 -1.021357 37,000 157 437 0
2022-07-02 07:39:38 GMT 51.533096 -1.024704 37,000 157 438 0
2022-07-02 07:39:36 GMT 51.538559 -1.028335 37,000 157 438 0
2022-07-02 07:39:33 GMT 51.542404 -1.030884 37,000 157 438 0
2022-07-02 07:39:31 GMT 51.547073 -1.034051 37,000 157 438 0
2022-07-02 07:39:29 GMT 51.549728 -1.035833 37,000 157 438 0
2022-07-02 07:39:27 GMT 51.553162 -1.038060 37,000 157 438 0
2022-07-02 07:39:25 GMT 51.557877 -1.041252 37,000 157 438 0
2022-07-02 07:39:23 GMT 51.565155 -1.046077 37,000 157 438 0
2022-07-02 07:39:21 GMT 51.565155 -1.046077 37,000 157 438 0
2022-07-02 07:39:19 GMT 51.568130 -1.048081 37,000 157 438 0
2022-07-02 07:39:16 GMT 51.574036 -1.052015 37,000 157 438 0
2022-07-02 07:39:14 GMT 51.578064 -1.054764 37,000 157 438 0
2022-07-02 07:39:12 GMT 51.582367 -1.057583 37,000 157 438 0
2022-07-02 07:39:10 GMT 51.585251 -1.059513 37,000 157 438 0
2022-07-02 07:39:08 GMT 51.590122 -1.062775 37,000 157 438 0
2022-07-02 07:39:05 GMT 51.594917 -1.065979 37,000 157 437 0
2022-07-02 07:39:03 GMT 51.599384 -1.069031 37,000 157 438 64
2022-07-02 07:39:00 GMT 51.604294 -1.072280 37,000 157 437 0
2022-07-02 07:38:57 GMT 51.609673 -1.075897 37,000 157 437 0
2022-07-02 07:38:55 GMT 51.613358 -1.078367 37,000 157 437 0
2022-07-02 07:38:53 GMT 51.617065 -1.080891 37,000 157 437 0
2022-07-02 07:38:51 GMT 51.626907 -1.087498 37,000 157 437 0
2022-07-02 07:38:48 GMT 51.626907 -1.087498 37,000 157 438 0
2022-07-02 07:38:46 GMT 51.629929 -1.089502 37,000 157 437 0
2022-07-02 07:38:44 GMT 51.632812 -1.091432 37,000 157 438 0
2022-07-02 07:38:42 GMT 51.637882 -1.094894 37,000 157 438 -64
2022-07-02 07:38:39 GMT 51.649151 -1.102524 37,000 157 438 0
2022-07-02 07:38:36 GMT 51.652863 -1.105017 37,000 157 437 0
2022-07-02 07:38:34 GMT 51.652863 -1.105017 37,000 157 438 0
2022-07-02 07:38:32 GMT 51.660927 -1.110535 37,000 157 437 0
2022-07-02 07:38:29 GMT 51.660927 -1.110535 37,000 157 437 0
2022-07-02 07:38:27 GMT 51.666000 -1.113999 37,000 157 437 0
2022-07-02 07:38:25 GMT 51.669445 -1.116333 37,000 157 437 0
2022-07-02 07:38:23 GMT 51.672913 -1.118675 37,000 157 437 0
2022-07-02 07:38:21 GMT 51.676208 -1.120902 37,000 157 437 0
2022-07-02 07:38:19 GMT 51.681976 -1.124837 37,000 157 437 0
2022-07-02 07:38:16 GMT 51.686905 -1.128159 37,000 157 437 0
2022-07-02 07:38:13 GMT 51.698402 -1.136093 37,000 156 436 0
2022-07-02 07:38:10 GMT 51.698402 -1.136093 37,000 156 436 0
2022-07-02 07:38:07 GMT 51.702759 -1.139089 37,000 156 436 0
2022-07-02 07:38:04 GMT 51.708298 -1.142875 37,000 156 436 0
2022-07-02 07:38:02 GMT 51.711205 -1.144867 37,000 156 436 0
2022-07-02 07:38:00 GMT 51.717453 -1.149111 37,000 157 436 0
2022-07-02 07:37:57 GMT 51.721909 -1.152191 37,000 157 436 0
2022-07-02 07:37:54 GMT 51.726288 -1.155167 37,000 157 436 0
2022-07-02 07:37:52 GMT 51.732105 -1.159134 37,000 157 436 0
2022-07-02 07:37:49 GMT 51.735718 -1.161582 37,000 157 436 0
2022-07-02 07:37:46 GMT 51.742020 -1.165848 37,000 157 435 0
2022-07-02 07:37:43 GMT 51.747887 -1.169815 37,000 157 436 0
2022-07-02 07:37:40 GMT 51.752357 -1.172867 37,000 157 436 0
2022-07-02 07:37:38 GMT 51.756821 -1.175908 37,000 157 435 0
2022-07-02 07:37:35 GMT 51.763855 -1.180649 37,000 157 435 0
2022-07-02 07:37:32 GMT 51.767345 -1.183014 37,000 157 435 0
2022-07-02 07:37:30 GMT 51.771332 -1.185781 37,000 157 434 0
2022-07-02 07:37:27 GMT 51.777401 -1.189880 37,000 157 435 0
2022-07-02 07:37:25 GMT 51.781311 -1.192551 37,000 157 435 0
2022-07-02 07:37:22 GMT 51.784664 -1.194763 37,000 157 435 0
2022-07-02 07:37:20 GMT 51.790527 -1.198807 37,000 157 434 0
2022-07-02 07:37:18 GMT 51.793926 -1.201096 37,000 157 434 0
2022-07-02 07:37:15 GMT 51.799576 -1.204933 37,000 157 434 0
2022-07-02 07:37:13 GMT 51.804073 -1.208038 37,000 157 434 0
2022-07-02 07:37:10 GMT 51.808777 -1.211243 37,000 157 434 0
2022-07-02 07:37:07 GMT 51.818710 -1.217998 37,000 157 433 0
2022-07-02 07:37:04 GMT 51.818710 -1.217998 37,000 157 433 0
2022-07-02 07:37:02 GMT 51.823334 -1.221116 37,000 157 433 0
2022-07-02 07:37:00 GMT 51.827026 -1.223602 37,000 157 432 0
2022-07-02 07:36:58 GMT 51.829166 -1.225052 37,000 157 432 0
2022-07-02 07:36:56 GMT 51.834915 -1.228984 37,000 157 432 0
2022-07-02 07:36:53 GMT 51.843273 -1.234665 37,000 157 432 0
2022-07-02 07:36:51 GMT 51.843273 -1.234665 37,000 157 432 0
2022-07-02 07:36:49 GMT 51.848236 -1.238040 37,000 157 432 0
2022-07-02 07:36:46 GMT 51.853046 -1.241302 37,000 157 432 0
2022-07-02 07:36:43 GMT 51.857712 -1.244499 37,000 157 432 0
2022-07-02 07:36:41 GMT 51.862152 -1.247468 37,000 157 432 0
2022-07-02 07:36:39 GMT 51.866043 -1.250140 37,000 157 432 0
2022-07-02 07:36:36 GMT 51.872406 -1.254446 37,000 157 432 0
2022-07-02 07:36:33 GMT 51.880508 -1.259939 37,000 157 432 0
2022-07-02 07:36:31 GMT 51.880508 -1.259939 37,000 157 432 0
2022-07-02 07:36:29 GMT 51.882431 -1.261275 37,000 157 432 0
2022-07-02 07:36:27 GMT 51.887054 -1.264393 37,000 157 432 0
2022-07-02 07:36:25 GMT 51.890709 -1.266937 37,000 157 431 0
2022-07-02 07:36:23 GMT 51.894379 -1.269379 37,000 157 431 0
2022-07-02 07:36:20 GMT 51.899963 -1.273193 37,000 157 431 0
2022-07-02 07:36:18 GMT 51.904861 -1.276550 37,000 157 431 64
2022-07-02 07:36:15 GMT 51.909531 -1.279678 37,000 157 431 0
2022-07-02 07:36:13 GMT 51.915161 -1.283493 37,000 157 431 0
2022-07-02 07:36:10 GMT 51.917755 -1.285243 37,000 157 431 0
2022-07-02 07:36:08 GMT 51.928436 -1.292572 37,000 157 432 0
2022-07-02 07:36:05 GMT 51.934795 -1.296858 37,000 157 432 -64
2022-07-02 07:36:02 GMT 51.934795 -1.296858 37,000 157 432 -64
2022-07-02 07:35:59 GMT 51.938564 -1.299447 37,000 157 432 -64
2022-07-02 07:35:57 GMT 51.944153 -1.303292 37,000 157 431 0
2022-07-02 07:35:54 GMT 51.948624 -1.306305 37,000 157 431 0
2022-07-02 07:35:52 GMT 51.952469 -1.308899 37,000 157 431 0
2022-07-02 07:35:50 GMT 51.955372 -1.310904 37,000 157 431 0
2022-07-02 07:35:48 GMT 51.958069 -1.312709 37,000 157 430 0
2022-07-02 07:35:46 GMT 51.962128 -1.315536 37,000 157 430 64
2022-07-02 07:35:44 GMT 51.966797 -1.318665 37,000 157 430 0
2022-07-02 07:35:42 GMT 51.969315 -1.320419 37,000 157 430 0
2022-07-02 07:35:40 GMT 51.978645 -1.326756 37,000 157 430 -64
2022-07-02 07:35:38 GMT 51.978645 -1.326756 37,000 157 430 -64
2022-07-02 07:35:35 GMT 51.983253 -1.329817 37,000 157 430 -64
2022-07-02 07:35:32 GMT 51.988907 -1.333694 37,000 157 430 -64
2022-07-02 07:35:29 GMT 51.994812 -1.337738 37,000 157 430 -64
2022-07-02 07:35:27 GMT 51.998016 -1.339874 37,000 157 430 0
2022-07-02 07:35:24 GMT 52.002525 -1.343000 37,000 157 430 0
2022-07-02 07:35:21 GMT 52.009872 -1.347961 37,000 157 430 0
2022-07-02 07:35:18 GMT 52.014259 -1.350926 37,000 157 430 64
2022-07-02 07:35:16 GMT 52.018066 -1.353531 37,000 157 430 64
2022-07-02 07:35:13 GMT 52.023289 -1.357047 37,000 157 429 64
2022-07-02 07:35:11 GMT 52.027634 -1.360016 37,000 157 429 0
2022-07-02 07:35:08 GMT 52.031616 -1.362686 37,000 157 429 0
2022-07-02 07:35:06 GMT 52.036930 -1.366228 37,000 157 429 0
2022-07-02 07:35:03 GMT 52.041447 -1.369289 37,000 157 429 0
2022-07-02 07:35:01 GMT 52.045166 -1.371841 37,000 157 429 0
2022-07-02 07:34:59 GMT 52.049313 -1.374625 37,000 157 429 0
2022-07-02 07:34:57 GMT 52.052032 -1.376495 37,000 157 429 0
2022-07-02 07:34:55 GMT 52.057693 -1.380275 37,000 157 429 0
2022-07-02 07:34:52 GMT 52.062378 -1.383438 37,000 157 428 0
2022-07-02 07:34:49 GMT 52.067421 -1.386867 37,000 157 428 0
2022-07-02 07:34:47 GMT 52.071350 -1.389542 37,000 157 428 0
2022-07-02 07:34:44 GMT 52.075882 -1.392517 37,000 157 428 0
2022-07-02 07:34:42 GMT 52.080410 -1.395656 37,000 157 428 0
2022-07-02 07:34:39 GMT 52.085770 -1.399231 37,000 157 428 0
2022-07-02 07:34:37 GMT 52.090759 -1.402664 37,000 157 427 0
2022-07-02 07:34:34 GMT 52.094746 -1.405387 37,000 156 428 -64
2022-07-02 07:34:32 GMT 52.099773 -1.408840 37,000 156 428 -64
2022-07-02 07:34:29 GMT 52.103668 -1.411591 37,000 156 428 0
2022-07-02 07:34:27 GMT 52.108063 -1.414642 37,000 156 428 -64
2022-07-02 07:34:24 GMT 52.113091 -1.418178 37,000 156 428 0
2022-07-02 07:34:21 GMT 52.116943 -1.420975 37,000 155 429 0
2022-07-02 07:34:19 GMT 52.122494 -1.425005 37,000 155 429 0
2022-07-02 07:34:17 GMT 52.126099 -1.427689 37,000 155 429 64
2022-07-02 07:34:14 GMT 52.132500 -1.432382 37,000 155 429 64
2022-07-02 07:34:11 GMT 52.135201 -1.434422 37,000 155 429 0
2022-07-02 07:34:09 GMT 52.140415 -1.438267 37,000 155 429 0
2022-07-02 07:34:07 GMT 52.143066 -1.440229 37,000 155 429 0
2022-07-02 07:34:04 GMT 52.149212 -1.444781 37,000 155 429 0
2022-07-02 07:34:02 GMT 52.151779 -1.446686 37,000 155 429 0
2022-07-02 07:34:00 GMT 52.157501 -1.450882 37,000 155 429 0
2022-07-02 07:33:57 GMT 52.163364 -1.455296 37,000 155 429 0
2022-07-02 07:33:54 GMT 52.167206 -1.458130 37,000 155 429 0
2022-07-02 07:33:51 GMT 52.171555 -1.461334 37,000 155 429 0
2022-07-02 07:33:49 GMT 52.175934 -1.464634 37,000 155 429 0
2022-07-02 07:33:47 GMT 52.180573 -1.468048 37,000 155 429 0
2022-07-02 07:33:44 GMT 52.186798 -1.472702 37,000 155 429 0
2022-07-02 07:33:41 GMT 52.189590 -1.474762 37,000 155 429 0
2022-07-02 07:33:39 GMT 52.193390 -1.477585 37,000 155 429 0
2022-07-02 07:33:37 GMT 52.199478 -1.482162 37,000 155 429 0
2022-07-02 07:33:34 GMT 52.204330 -1.485748 37,000 155 429 0
2022-07-02 07:33:31 GMT 52.209000 -1.489182 37,000 155 429 0
2022-07-02 07:33:28 GMT 52.212662 -1.491928 37,000 155 429 0
2022-07-02 07:33:26 GMT 52.218063 -1.495946 37,000 155 429 0
2022-07-02 07:33:23 GMT 52.222626 -1.499398 37,000 155 429 0
2022-07-02 07:33:20 GMT 52.227329 -1.502851 37,000 155 428 0
2022-07-02 07:33:18 GMT 52.234497 -1.508179 37,000 155 428 0
2022-07-02 07:33:16 GMT 52.239758 -1.512111 37,000 155 428 0
2022-07-02 07:33:14 GMT 52.239758 -1.512111 37,000 155 428 0
2022-07-02 07:33:11 GMT 52.245205 -1.516192 37,000 155 428 0
2022-07-02 07:33:08 GMT 52.251755 -1.520996 37,000 155 428 0
2022-07-02 07:33:05 GMT 52.254375 -1.523019 37,000 155 428 0
2022-07-02 07:33:03 GMT 52.258575 -1.526108 37,000 155 429 0
2022-07-02 07:33:01 GMT 52.262848 -1.529297 37,000 155 428 64
2022-07-02 07:32:58 GMT 52.268280 -1.533356 37,000 155 428 64
2022-07-02 07:32:56 GMT 52.272079 -1.536179 37,000 155 429 0
2022-07-02 07:32:53 GMT 52.277790 -1.540440 37,000 155 429 64
2022-07-02 07:32:50 GMT 52.281513 -1.543187 37,000 155 429 64
2022-07-02 07:32:48 GMT 52.285797 -1.546404 37,000 155 429 0
2022-07-02 07:32:45 GMT 52.292221 -1.551208 37,000 155 429 0
2022-07-02 07:32:42 GMT 52.296551 -1.554408 37,000 155 429 0
2022-07-02 07:32:40 GMT 52.301102 -1.557846 37,000 155 429 0
2022-07-02 07:32:37 GMT 52.306328 -1.561707 37,000 155 429 0
2022-07-02 07:32:34 GMT 52.313824 -1.567357 37,000 155 429 0
2022-07-02 07:32:30 GMT 52.317360 -1.569946 37,000 155 429 0
2022-07-02 07:32:27 GMT 52.324108 -1.575047 37,000 155 430 -64
2022-07-02 07:32:24 GMT 52.330070 -1.579442 37,000 155 430 0
2022-07-02 07:32:21 GMT 52.334633 -1.582894 37,000 155 429 0
2022-07-02 07:32:18 GMT 52.346455 -1.591684 37,000 155 429 0
2022-07-02 07:32:15 GMT 52.346455 -1.591684 37,000 155 430 64
2022-07-02 07:32:12 GMT 52.350643 -1.594822 37,000 155 430 0
2022-07-02 07:32:10 GMT 52.354603 -1.597726 37,000 155 430 0
2022-07-02 07:32:07 GMT 52.360188 -1.601807 37,000 155 430 0
2022-07-02 07:32:04 GMT 52.368210 -1.607742 37,000 155 430 0
2022-07-02 07:32:02 GMT 52.368210 -1.607742 37,000 155 430 0
2022-07-02 07:31:59 GMT 52.373363 -1.611616 37,000 155 430 0
2022-07-02 07:31:57 GMT 52.378017 -1.615069 37,000 155 430 0
2022-07-02 07:31:55 GMT 52.380707 -1.617050 37,000 155 431 0
2022-07-02 07:31:52 GMT 52.386475 -1.621399 37,000 155 430 0
2022-07-02 07:31:50 GMT 52.389908 -1.623917 37,000 155 431 -64
2022-07-02 07:31:47 GMT 52.396225 -1.628647 37,000 155 432 0
2022-07-02 07:31:44 GMT 52.400620 -1.632004 37,000 155 432 -64
2022-07-02 07:31:42 GMT 52.405205 -1.635393 37,000 155 432 0
2022-07-02 07:31:39 GMT 52.409821 -1.638870 37,000 155 432 0
2022-07-02 07:31:37 GMT 52.415451 -1.643066 37,000 155 432 0
2022-07-02 07:31:34 GMT 52.420521 -1.646851 37,000 155 432 -64
2022-07-02 07:31:31 GMT 52.427689 -1.652265 37,000 155 432 -64
2022-07-02 07:31:29 GMT 52.427689 -1.652265 37,000 155 433 0
2022-07-02 07:31:27 GMT 52.435043 -1.657758 37,000 155 432 -64
2022-07-02 07:31:25 GMT 52.435043 -1.657758 37,000 155 433 0
2022-07-02 07:31:23 GMT 52.438953 -1.660662 37,000 155 433 0
2022-07-02 07:31:21 GMT 52.443283 -1.663895 37,000 155 433 0
2022-07-02 07:31:19 GMT 52.451477 -1.670000 37,000 155 434 0
2022-07-02 07:31:17 GMT 52.451477 -1.670000 37,000 155 434 64
2022-07-02 07:31:14 GMT 52.455002 -1.672668 37,000 155 433 0
2022-07-02 07:31:12 GMT 52.464935 -1.680069 37,000 155 434 0
2022-07-02 07:31:09 GMT 52.469833 -1.683731 37,000 155 434 64
2022-07-02 07:31:07 GMT 52.469833 -1.683731 37,000 155 434 0
2022-07-02 07:31:04 GMT 52.475266 -1.687814 37,000 155 434 64
2022-07-02 07:31:01 GMT 52.479080 -1.690674 37,000 155 434 64
2022-07-02 07:30:59 GMT 52.482651 -1.693344 37,000 155 434 0
2022-07-02 07:30:57 GMT 52.486576 -1.696289 37,000 155 434 0
2022-07-02 07:30:55 GMT 52.490673 -1.699428 37,000 155 434 0
2022-07-02 07:30:52 GMT 52.497608 -1.704607 37,000 155 434 0
2022-07-02 07:30:49 GMT 52.501102 -1.707275 37,000 155 434 0
2022-07-02 07:30:47 GMT 52.504074 -1.709518 37,000 155 434 0
2022-07-02 07:30:45 GMT 52.508644 -1.712926 37,000 155 434 0
2022-07-02 07:30:42 GMT 52.514042 -1.717006 37,000 155 434 0
2022-07-02 07:30:40 GMT 52.523682 -1.724304 37,000 155 434 0
2022-07-02 07:30:37 GMT 52.523682 -1.724304 37,000 155 434 0
2022-07-02 07:30:35 GMT 52.528706 -1.728071 37,000 155 434 0
2022-07-02 07:30:32 GMT 52.533596 -1.731759 37,000 155 435 0
2022-07-02 07:30:29 GMT 52.539413 -1.736145 37,000 155 435 0
2022-07-02 07:30:26 GMT 52.543839 -1.739450 37,000 155 435 0
2022-07-02 07:30:23 GMT 52.549564 -1.743766 37,000 155 435 64
2022-07-02 07:30:20 GMT 52.554264 -1.747375 37,000 155 435 64
2022-07-02 07:30:18 GMT 52.565002 -1.755447 37,000 155 436 0
2022-07-02 07:30:15 GMT 52.565002 -1.755447 37,000 155 436 64
2022-07-02 07:30:12 GMT 52.569347 -1.758754 37,000 155 436 64
2022-07-02 07:30:09 GMT 52.574753 -1.762848 37,000 155 436 -64
2022-07-02 07:30:06 GMT 52.579868 -1.766759 37,000 155 437 -64
2022-07-02 07:30:03 GMT 52.586060 -1.771467 37,000 155 437 0
2022-07-02 07:30:00 GMT 52.596394 -1.779236 37,000 155 437 0
2022-07-02 07:29:57 GMT 52.596394 -1.779236 37,000 155 437 0
2022-07-02 07:29:55 GMT 52.600864 -1.782610 37,000 155 438 0
2022-07-02 07:29:52 GMT 52.607300 -1.787491 37,000 155 438 0
2022-07-02 07:29:49 GMT 52.610001 -1.789551 37,000 155 438 0
2022-07-02 07:29:47 GMT 52.614624 -1.793060 37,000 155 438 0
2022-07-02 07:29:45 GMT 52.618320 -1.795872 37,000 155 438 0
2022-07-02 07:29:43 GMT 52.621902 -1.798630 37,000 155 438 0
2022-07-02 07:29:41 GMT 52.624977 -1.800895 37,000 155 438 -64
2022-07-02 07:29:39 GMT 52.629822 -1.804581 37,000 155 438 0
2022-07-02 07:29:37 GMT 52.633163 -1.807098 37,000 155 438 0
2022-07-02 07:29:35 GMT 52.636963 -1.809921 37,000 155 439 0
2022-07-02 07:29:32 GMT 52.642776 -1.814270 37,000 155 439 0
2022-07-02 07:29:29 GMT 52.649651 -1.819414 37,000 155 439 0
2022-07-02 07:29:26 GMT 52.652527 -1.821594 37,000 155 439 0
2022-07-02 07:29:24 GMT 52.657471 -1.825256 37,000 155 439 0
2022-07-02 07:29:21 GMT 52.663151 -1.829538 37,000 155 439 0
2022-07-02 07:29:18 GMT 52.668411 -1.833496 37,000 155 440 0
2022-07-02 07:29:15 GMT 52.674694 -1.838248 37,000 155 440 0
2022-07-02 07:29:12 GMT 52.684433 -1.845627 37,000 155 440 0
2022-07-02 07:29:09 GMT 52.684433 -1.845627 37,000 155 441 0
2022-07-02 07:29:06 GMT 52.689972 -1.849823 37,000 155 440 0
2022-07-02 07:29:04 GMT 52.694851 -1.853551 37,000 154 441 0
2022-07-02 07:29:01 GMT 52.698944 -1.856689 37,000 155 441 0
2022-07-02 07:28:59 GMT 52.708214 -1.863831 37,000 154 441 -64
2022-07-02 07:28:56 GMT 52.708214 -1.863831 37,000 154 442 0
2022-07-02 07:28:54 GMT 52.711845 -1.866577 37,000 154 442 0
2022-07-02 07:28:51 GMT 52.718128 -1.871443 37,000 154 442 64
2022-07-02 07:28:49 GMT 52.721924 -1.874390 37,000 154 442 64
2022-07-02 07:28:46 GMT 52.728195 -1.879196 37,000 154 445 0
2022-07-02 07:28:43 GMT 52.731903 -1.882095 37,000 154 444 -64
2022-07-02 07:28:41 GMT 52.735931 -1.885223 37,000 154 444 -64
2022-07-02 07:28:39 GMT 52.739731 -1.888123 37,000 154 444 0
2022-07-02 07:28:37 GMT 52.742382 -1.890198 37,000 154 445 0
2022-07-02 07:28:35 GMT 52.748474 -1.894913 37,000 154 446 0
2022-07-02 07:28:32 GMT 52.753227 -1.898594 37,000 154 447 0
2022-07-02 07:28:29 GMT 52.758209 -1.902440 37,000 154 445 0
2022-07-02 07:28:26 GMT 52.764122 -1.906991 37,000 154 446 0
2022-07-02 07:28:24 GMT 52.769714 -1.911392 37,000 154 446 0
2022-07-02 07:28:21 GMT 52.773010 -1.913910 37,000 154 447 0
2022-07-02 07:28:19 GMT 52.778694 -1.918291 37,000 154 447 64
2022-07-02 07:28:16 GMT 52.783440 -1.921980 37,000 154 447 64
2022-07-02 07:28:14 GMT 52.786285 -1.924210 37,000 154 447 0
2022-07-02 07:28:11 GMT 52.791168 -1.927944 37,000 154 447 0
2022-07-02 07:28:09 GMT 52.796906 -1.932373 37,000 154 448 -64
2022-07-02 07:28:06 GMT 52.801876 -1.936262 37,000 154 448 -64
2022-07-02 07:28:04 GMT 52.805466 -1.939011 37,000 155 448 0
2022-07-02 07:28:01 GMT 52.811874 -1.943970 37,000 155 447 -64
2022-07-02 07:27:58 GMT 52.817982 -1.948661 37,000 155 448 0
2022-07-02 07:27:55 GMT 52.828217 -1.956482 37,000 155 448 64
2022-07-02 07:27:52 GMT 52.828217 -1.956482 37,000 155 448 64
2022-07-02 07:27:49 GMT 52.833439 -1.960432 37,000 155 448 64
2022-07-02 07:27:46 GMT 52.840393 -1.965790 37,000 155 449 0
2022-07-02 07:27:43 GMT 52.845154 -1.969376 37,000 155 449 0
2022-07-02 07:27:40 GMT 52.852432 -1.974945 37,000 155 449 0
2022-07-02 07:27:36 GMT 52.858109 -1.979294 37,000 155 449 64
2022-07-02 07:27:34 GMT 52.863556 -1.983490 37,000 155 450 0
2022-07-02 07:27:31 GMT 52.867470 -1.986485 37,000 155 450 64
2022-07-02 07:27:29 GMT 52.871937 -1.989938 37,000 155 450 0
2022-07-02 07:27:26 GMT 52.876831 -1.993637 37,000 155 450 0
2022-07-02 07:27:24 GMT 52.882317 -1.997864 37,000 155 450 0
2022-07-02 07:27:21 GMT 52.886833 -2.001317 37,000 155 450 0
2022-07-02 07:27:19 GMT 52.890701 -2.004318 37,000 155 450 0
2022-07-02 07:27:16 GMT 52.895306 -2.007830 37,000 155 450 0
2022-07-02 07:27:14 GMT 52.899822 -2.011283 37,000 155 450 0
2022-07-02 07:27:11 GMT 52.904896 -2.015206 37,000 155 450 0
2022-07-02 07:27:08 GMT 52.909607 -2.018814 37,000 155 450 0
2022-07-02 07:27:06 GMT 52.914860 -2.022897 37,000 155 450 0
2022-07-02 07:27:04 GMT 52.918957 -2.026036 37,000 155 450 0
2022-07-02 07:27:01 GMT 52.924438 -2.030258 37,000 155 450 0
2022-07-02 07:26:58 GMT 52.930454 -2.034825 37,000 155 450 0
2022-07-02 07:26:55 GMT 52.934456 -2.037964 37,000 155 450 0
2022-07-02 07:26:53 GMT 52.938492 -2.041092 37,000 155 450 0
2022-07-02 07:26:50 GMT 52.948235 -2.048558 37,000 155 450 0
2022-07-02 07:26:48 GMT 52.948235 -2.048558 37,000 155 450 0
2022-07-02 07:26:45 GMT 52.953960 -2.052952 37,000 155 450 0
2022-07-02 07:26:43 GMT 52.962063 -2.059230 37,000 155 450 64
2022-07-02 07:26:40 GMT 52.962063 -2.059230 37,000 155 450 0
2022-07-02 07:26:38 GMT 52.967789 -2.063625 37,000 155 450 64
2022-07-02 07:26:35 GMT 52.972916 -2.067566 37,000 155 450 64
2022-07-02 07:26:33 GMT 52.977470 -2.071080 37,000 155 450 0
2022-07-02 07:26:30 GMT 52.982079 -2.074611 37,000 155 450 0
2022-07-02 07:26:27 GMT 52.988785 -2.079790 37,000 155 450 0
2022-07-02 07:26:24 GMT 52.993149 -2.083206 37,000 155 450 0
2022-07-02 07:26:21 GMT 53.005508 -2.092743 37,000 155 450 0
2022-07-02 07:26:18 GMT 53.005508 -2.092743 37,000 154 450 0
2022-07-02 07:26:15 GMT 53.010269 -2.096481 37,000 154 450 0
2022-07-02 07:26:13 GMT 53.013969 -2.099330 37,000 154 450 0
2022-07-02 07:26:10 GMT 53.018921 -2.103119 37,000 155 450 0
2022-07-02 07:26:08 GMT 53.024094 -2.107162 37,000 155 450 -64
2022-07-02 07:26:05 GMT 53.034256 -2.115021 37,000 155 450 0
2022-07-02 07:26:03 GMT 53.034256 -2.115021 37,000 155 450 0
2022-07-02 07:26:00 GMT 53.037941 -2.117850 37,000 155 450 0
2022-07-02 07:25:58 GMT 53.048927 -2.126325 37,000 155 450 0
2022-07-02 07:25:55 GMT 53.048927 -2.126325 37,000 155 450 0
2022-07-02 07:25:52 GMT 53.054653 -2.130720 37,000 155 450 0
2022-07-02 07:25:49 GMT 53.060612 -2.135350 37,000 155 450 0
2022-07-02 07:25:46 GMT 53.065842 -2.139359 37,000 155 450 0
2022-07-02 07:25:43 GMT 53.072342 -2.144394 37,000 154 450 64
2022-07-02 07:25:40 GMT 53.076256 -2.147435 37,000 154 450 64
2022-07-02 07:25:37 GMT 53.081795 -2.151751 37,000 154 450 64
2022-07-02 07:25:35 GMT 53.085709 -2.154770 37,000 154 450 64
2022-07-02 07:25:33 GMT 53.091198 -2.159049 37,000 154 450 0
2022-07-02 07:25:30 GMT 53.100677 -2.166425 37,000 154 449 -64
2022-07-02 07:25:28 GMT 53.100677 -2.166425 37,000 154 450 -64
2022-07-02 07:25:25 GMT 53.104385 -2.169329 37,000 154 450 -64
2022-07-02 07:25:23 GMT 53.107910 -2.172062 37,000 154 450 0
2022-07-02 07:25:21 GMT 53.111633 -2.174970 37,000 154 449 -64
2022-07-02 07:25:18 GMT 53.118073 -2.180001 37,000 154 449 0
2022-07-02 07:25:15 GMT 53.123272 -2.184017 37,000 154 449 0
2022-07-02 07:25:13 GMT 53.128601 -2.188163 37,000 154 449 -64
2022-07-02 07:25:10 GMT 53.132538 -2.191288 37,000 154 449 -64
2022-07-02 07:25:07 GMT 53.137566 -2.195165 37,000 154 449 -64
2022-07-02 07:25:05 GMT 53.146454 -2.202131 37,000 154 449 0
2022-07-02 07:25:03 GMT 53.146454 -2.202131 37,000 154 449 64
2022-07-02 07:25:00 GMT 53.152088 -2.206475 37,000 154 449 0
2022-07-02 07:24:58 GMT 53.155243 -2.208958 37,000 154 449 64
2022-07-02 07:24:55 GMT 53.160919 -2.213353 37,000 154 449 64
2022-07-02 07:24:53 GMT 53.165634 -2.217057 37,000 154 449 64
2022-07-02 07:24:50 GMT 53.171688 -2.221743 37,000 154 449 0
2022-07-02 07:24:47 GMT 53.174377 -2.223868 37,000 154 449 0
2022-07-02 07:24:45 GMT 53.179962 -2.228184 37,000 154 449 0
2022-07-02 07:24:43 GMT 53.184540 -2.231794 37,000 154 449 64
2022-07-02 07:24:40 GMT 53.189281 -2.235475 37,000 154 449 64
2022-07-02 07:24:37 GMT 53.194031 -2.239191 37,000 154 449 0
2022-07-02 07:24:35 GMT 53.202118 -2.245527 37,000 154 449 0
2022-07-02 07:24:33 GMT 53.202118 -2.245527 37,000 154 449 0
2022-07-02 07:24:30 GMT 53.208279 -2.250339 37,000 154 448 0
2022-07-02 07:24:27 GMT 53.214844 -2.255493 37,000 154 448 -64
2022-07-02 07:24:24 GMT 53.222626 -2.261536 37,000 154 448 0
2022-07-02 07:24:22 GMT 53.222626 -2.261536 37,000 154 448 0
2022-07-02 07:24:19 GMT 53.227131 -2.265122 37,000 154 448 0
2022-07-02 07:24:17 GMT 53.230854 -2.267950 37,000 154 448 0
2022-07-02 07:24:15 GMT 53.239281 -2.274655 37,000 154 448 0
2022-07-02 07:24:13 GMT 53.239281 -2.274655 37,000 154 448 0
2022-07-02 07:24:10 GMT 53.245239 -2.279259 37,000 154 448 0
2022-07-02 07:24:07 GMT 53.249908 -2.282959 37,000 154 448 0
2022-07-02 07:24:05 GMT 53.254761 -2.286804 37,000 154 447 0
2022-07-02 07:24:03 GMT 53.260208 -2.291042 37,000 154 447 0
2022-07-02 07:24:00 GMT 53.271263 -2.299778 37,000 154 447 0
2022-07-02 07:23:57 GMT 53.271263 -2.299778 37,000 154 447 0
2022-07-02 07:23:54 GMT 53.276001 -2.303519 37,000 154 447 0
2022-07-02 07:23:52 GMT 53.280762 -2.307207 37,000 154 447 64
2022-07-02 07:23:49 GMT 53.284622 -2.310279 37,000 154 447 0
2022-07-02 07:23:47 GMT 53.288300 -2.313188 37,000 154 447 -64
2022-07-02 07:23:45 GMT 53.293140 -2.316984 37,000 154 448 0
2022-07-02 07:23:42 GMT 53.299484 -2.321882 37,000 154 447 -64
2022-07-02 07:23:39 GMT 53.303196 -2.324820 37,000 154 447 -64
2022-07-02 07:23:36 GMT 53.309052 -2.329415 37,000 154 447 0
2022-07-02 07:23:33 GMT 53.313583 -2.333025 37,000 154 447 0
2022-07-02 07:23:31 GMT 53.318161 -2.336557 37,000 154 447 64
2022-07-02 07:23:29 GMT 53.320908 -2.338754 37,000 154 447 64
2022-07-02 07:23:27 GMT 53.326241 -2.342915 37,000 154 447 0
2022-07-02 07:23:24 GMT 53.330612 -2.346444 37,000 154 447 0
2022-07-02 07:23:22 GMT 53.334667 -2.349620 37,000 154 447 0
2022-07-02 07:23:19 GMT 53.341965 -2.355390 37,000 154 447 0
2022-07-02 07:23:16 GMT 53.346588 -2.359000 37,000 154 447 0
2022-07-02 07:23:13 GMT 53.352032 -2.363353 37,000 154 447 0
2022-07-02 07:23:10 GMT 53.357803 -2.367877 37,000 154 447 0
2022-07-02 07:23:08 GMT 53.360550 -2.370065 37,000 154 447 0
2022-07-02 07:23:06 GMT 53.365669 -2.374097 37,000 154 447 0
2022-07-02 07:23:03 GMT 53.370323 -2.377732 37,000 154 447 0
2022-07-02 07:23:00 GMT 53.376755 -2.382778 37,000 154 447 0
2022-07-02 07:22:58 GMT 53.378613 -2.384276 37,000 154 447 0
2022-07-02 07:22:56 GMT 53.387329 -2.391096 37,000 154 447 -64
2022-07-02 07:22:54 GMT 53.387329 -2.391096 37,000 154 447 -64
2022-07-02 07:22:51 GMT 53.394699 -2.396903 37,000 154 447 -64
2022-07-02 07:22:48 GMT 53.397697 -2.399220 37,000 154 447 -64
2022-07-02 07:22:46 GMT 53.403751 -2.403986 37,000 154 447 -64
2022-07-02 07:22:43 GMT 53.409523 -2.408510 37,000 154 447 0
2022-07-02 07:22:40 GMT 53.414337 -2.412284 37,000 154 447 0
2022-07-02 07:22:38 GMT 53.424652 -2.420385 37,000 154 447 0
2022-07-02 07:22:35 GMT 53.431183 -2.425546 37,000 154 446 0
2022-07-02 07:22:32 GMT 53.431183 -2.425546 37,000 154 446 0
2022-07-02 07:22:29 GMT 53.433777 -2.427575 37,000 154 446 0
2022-07-02 07:22:26 GMT 53.441162 -2.433393 37,000 154 446 0
2022-07-02 07:22:23 GMT 53.444763 -2.436218 37,000 154 446 0
2022-07-02 07:22:21 GMT 53.450455 -2.440770 37,000 154 446 0
2022-07-02 07:22:18 GMT 53.455376 -2.444620 37,000 154 446 0
2022-07-02 07:22:15 GMT 53.459244 -2.447675 37,000 154 446 0
2022-07-02 07:22:13 GMT 53.463455 -2.450971 37,000 154 446 0
2022-07-02 07:22:11 GMT 53.467346 -2.454110 37,000 154 446 0
2022-07-02 07:22:09 GMT 53.469955 -2.456151 37,000 154 446 64
2022-07-02 07:22:07 GMT 53.482452 -2.466038 37,000 154 446 64
2022-07-02 07:22:04 GMT 53.482452 -2.466038 37,000 154 446 0
2022-07-02 07:22:01 GMT 53.487125 -2.469743 37,000 154 446 0
2022-07-02 07:21:58 GMT 53.491547 -2.473297 37,000 154 446 0
2022-07-02 07:21:56 GMT 53.494480 -2.475559 37,000 154 446 0
2022-07-02 07:21:54 GMT 53.499527 -2.479614 37,000 154 446 0
2022-07-02 07:21:52 GMT 53.503510 -2.482829 37,000 154 446 0
2022-07-02 07:21:49 GMT 53.508957 -2.487148 37,000 154 446 0
2022-07-02 07:21:47 GMT 53.512821 -2.490181 37,000 154 446 0
2022-07-02 07:21:44 GMT 53.519756 -2.495754 37,000 154 446 0
2022-07-02 07:21:41 GMT 53.523716 -2.498824 37,000 154 446 0
2022-07-02 07:21:38 GMT 53.529442 -2.503429 37,000 154 446 0
2022-07-02 07:21:35 GMT 53.534328 -2.507306 37,000 154 446 0
2022-07-02 07:21:33 GMT 53.537933 -2.510219 37,000 154 446 0
2022-07-02 07:21:31 GMT 53.542374 -2.513750 37,000 154 446 0
2022-07-02 07:21:28 GMT 53.548061 -2.518293 37,000 154 446 0
2022-07-02 07:21:26 GMT 53.556381 -2.524972 37,000 154 446 0
2022-07-02 07:21:24 GMT 53.556381 -2.524972 37,000 154 446 0
2022-07-02 07:21:21 GMT 53.565937 -2.532591 37,000 154 445 0
2022-07-02 07:21:18 GMT 53.571625 -2.537136 37,000 154 445 0
2022-07-02 07:21:16 GMT 53.571625 -2.537136 37,000 154 445 0
2022-07-02 07:21:13 GMT 53.574596 -2.539538 37,000 154 445 0
2022-07-02 07:21:11 GMT 53.578583 -2.542707 37,000 154 445 0
2022-07-02 07:21:08 GMT 53.585163 -2.547940 37,000 154 445 0
2022-07-02 07:21:06 GMT 53.588654 -2.550711 37,000 154 445 0
2022-07-02 07:21:04 GMT 53.591629 -2.553066 37,000 154 445 0
2022-07-02 07:21:02 GMT 53.594612 -2.555452 37,000 154 445 0
2022-07-02 07:21:00 GMT 53.599457 -2.559330 37,000 154 445 -64
2022-07-02 07:20:58 GMT 53.603180 -2.562319 37,000 154 445 0
2022-07-02 07:20:56 GMT 53.608067 -2.566196 37,000 154 445 -64
2022-07-02 07:20:53 GMT 53.611607 -2.569024 37,000 154 445 -64
2022-07-02 07:20:51 GMT 53.616486 -2.572920 37,000 154 445 -64
2022-07-02 07:20:48 GMT 53.622082 -2.577425 37,000 154 445 -64
2022-07-02 07:20:45 GMT 53.626736 -2.581141 37,000 154 445 0
2022-07-02 07:20:42 GMT 53.632690 -2.585868 37,000 154 445 0
2022-07-02 07:20:39 GMT 53.638512 -2.590512 37,000 154 445 64
2022-07-02 07:20:37 GMT 53.643307 -2.594389 37,000 154 445 64
2022-07-02 07:20:34 GMT 53.647404 -2.597620 37,000 154 445 0
2022-07-02 07:20:32 GMT 53.657879 -2.605941 37,000 154 445 0
2022-07-02 07:20:29 GMT 53.657879 -2.605941 37,000 154 445 0
2022-07-02 07:20:25 GMT 53.663746 -2.610626 37,000 154 445 0
2022-07-02 07:20:22 GMT 53.670547 -2.616080 37,000 154 445 0
2022-07-02 07:20:19 GMT 53.675243 -2.619835 37,000 154 445 0
2022-07-02 07:20:17 GMT 53.678421 -2.622358 37,000 154 445 0
2022-07-02 07:20:15 GMT 53.682922 -2.625975 37,000 154 445 0
2022-07-02 07:20:12 GMT 53.688400 -2.630362 37,000 154 445 0
2022-07-02 07:20:09 GMT 53.694077 -2.634914 37,000 154 445 0
2022-07-02 07:20:07 GMT 53.702225 -2.641349 37,000 154 445 0
2022-07-02 07:20:05 GMT 53.702225 -2.641349 37,000 154 445 -64
2022-07-02 07:20:02 GMT 53.707504 -2.645605 37,000 154 445 0
2022-07-02 07:19:59 GMT 53.713181 -2.650129 37,000 154 445 -64
2022-07-02 07:19:57 GMT 53.720444 -2.656026 37,000 154 445 -64
2022-07-02 07:19:54 GMT 53.720444 -2.656026 37,000 154 445 -64
2022-07-02 07:19:52 GMT 53.725342 -2.659947 37,000 154 445 0
2022-07-02 07:19:49 GMT 53.731293 -2.664655 37,000 154 445 0
2022-07-02 07:19:47 GMT 53.734497 -2.667245 37,000 154 445 0
2022-07-02 07:19:45 GMT 53.739075 -2.670933 37,000 154 445 0
2022-07-02 07:19:42 GMT 53.743561 -2.674543 37,000 154 445 0
2022-07-02 07:19:39 GMT 53.750145 -2.679775 37,000 154 445 0
2022-07-02 07:19:37 GMT 53.752518 -2.681633 37,000 154 445 -64
2022-07-02 07:19:35 GMT 53.758152 -2.686157 37,000 154 445 -64
2022-07-02 07:19:32 GMT 53.763832 -2.690681 37,000 154 445 0
2022-07-02 07:19:29 GMT 53.769279 -2.695043 37,000 154 445 0
2022-07-02 07:19:27 GMT 53.771885 -2.697144 37,000 154 446 -64
2022-07-02 07:19:25 GMT 53.776726 -2.700940 37,000 154 445 0
2022-07-02 07:19:22 GMT 53.782497 -2.705626 37,000 154 445 -64
2022-07-02 07:19:19 GMT 53.787899 -2.709907 37,000 154 445 -64
2022-07-02 07:19:17 GMT 53.789932 -2.711504 37,000 154 446 -64
2022-07-02 07:19:15 GMT 53.795151 -2.715663 37,000 154 446 -64
2022-07-02 07:19:12 GMT 53.799957 -2.719520 37,000 154 446 0
2022-07-02 07:19:10 GMT 53.803665 -2.722491 37,000 154 446 0
2022-07-02 07:19:07 GMT 53.809544 -2.727114 37,000 154 446 0
2022-07-02 07:19:04 GMT 53.813370 -2.730259 37,000 154 446 0
2022-07-02 07:19:02 GMT 53.819000 -2.734732 37,000 154 447 64
2022-07-02 07:19:00 GMT 53.823509 -2.738342 37,000 154 446 64
2022-07-02 07:18:57 GMT 53.828072 -2.742058 37,000 154 446 64
2022-07-02 07:18:54 GMT 53.832867 -2.745855 37,000 154 447 64
2022-07-02 07:18:52 GMT 53.837311 -2.749486 37,000 154 447 64
2022-07-02 07:18:50 GMT 53.840240 -2.751918 37,000 154 447 0
2022-07-02 07:18:47 GMT 53.846088 -2.756680 37,000 154 447 0
2022-07-02 07:18:45 GMT 53.849991 -2.759844 37,000 154 447 0
2022-07-02 07:18:42 GMT 53.856609 -2.765243 37,000 154 448 0
2022-07-02 07:18:40 GMT 53.860332 -2.768312 37,000 154 448 0
2022-07-02 07:18:37 GMT 53.866665 -2.773563 37,000 153 447 128
2022-07-02 07:18:34 GMT 53.872391 -2.778249 37,000 153 447 128
2022-07-02 07:18:31 GMT 53.877838 -2.782772 37,000 153 447 64
2022-07-02 07:18:28 GMT 53.882355 -2.786525 37,000 153 447 64
2022-07-02 07:18:26 GMT 53.884819 -2.788589 37,000 154 447 -64
2022-07-02 07:18:24 GMT 53.890366 -2.793117 37,000 154 446 64
2022-07-02 07:18:21 GMT 53.894176 -2.796263 37,000 154 447 0
2022-07-02 07:18:19 GMT 53.899017 -2.800258 37,000 154 447 64
2022-07-02 07:18:16 GMT 53.903629 -2.804099 37,000 154 446 64
2022-07-02 07:18:13 GMT 53.909771 -2.809107 37,000 154 446 -64
2022-07-02 07:18:10 GMT 53.921085 -2.818478 37,000 154 446 -128
2022-07-02 07:18:07 GMT 53.921085 -2.818478 37,000 154 446 0
2022-07-02 07:18:04 GMT 53.926483 -2.822840 37,000 154 446 0
2022-07-02 07:18:01 GMT 53.931419 -2.826879 37,000 154 446 0
2022-07-02 07:17:58 GMT 53.937149 -2.831648 37,000 154 446 -64
2022-07-02 07:17:56 GMT 53.941040 -2.834787 37,000 154 446 -64
2022-07-02 07:17:54 GMT 53.944778 -2.837865 37,000 154 446 -64
2022-07-02 07:17:52 GMT 53.948364 -2.840829 37,000 154 446 -64
2022-07-02 07:17:50 GMT 53.951996 -2.843763 37,000 154 447 0
2022-07-02 07:17:47 GMT 53.958511 -2.849094 37,000 154 447 64
2022-07-02 07:17:44 GMT 53.963589 -2.853214 37,000 154 447 64
2022-07-02 07:17:41 GMT 53.970802 -2.859111 37,000 154 447 0
2022-07-02 07:17:38 GMT 53.980114 -2.866705 37,000 154 447 -64
2022-07-02 07:17:36 GMT 53.980114 -2.866705 37,000 154 447 -64
2022-07-02 07:17:33 GMT 53.983932 -2.869864 37,000 154 447 0
2022-07-02 07:17:30 GMT 53.993454 -2.877555 37,000 154 448 0
2022-07-02 07:17:28 GMT 53.993454 -2.877555 37,000 154 448 0
2022-07-02 07:17:26 GMT 54.004787 -2.886819 37,000 154 447 64
2022-07-02 07:17:23 GMT 54.004787 -2.886819 37,000 154 447 64
2022-07-02 07:17:20 GMT 54.008652 -2.889954 37,000 154 448 64
2022-07-02 07:17:17 GMT 54.014515 -2.894736 37,000 154 448 64
2022-07-02 07:17:14 GMT 54.020370 -2.899449 37,000 154 448 0
2022-07-02 07:17:11 GMT 54.025082 -2.903299 37,000 154 448 0
2022-07-02 07:17:09 GMT 54.029663 -2.907061 37,000 154 449 0
2022-07-02 07:17:06 GMT 54.034161 -2.910731 37,000 154 449 0
2022-07-02 07:17:03 GMT 54.040165 -2.915578 37,000 154 448 0
2022-07-02 07:17:00 GMT 54.044632 -2.919224 37,000 154 448 0
2022-07-02 07:16:58 GMT 54.049072 -2.922834 37,000 154 448 0
2022-07-02 07:16:56 GMT 54.051991 -2.925191 37,000 154 448 0
2022-07-02 07:16:54 GMT 54.057953 -2.930054 37,000 154 449 0
2022-07-02 07:16:50 GMT 54.063812 -2.934723 37,000 154 449 -64
2022-07-02 07:16:47 GMT 54.069443 -2.939314 37,000 154 449 -64
2022-07-02 07:16:45 GMT 54.074055 -2.943043 37,000 154 449 0
2022-07-02 07:16:43 GMT 54.077408 -2.945748 37,000 154 449 0
2022-07-02 07:16:40 GMT 54.088486 -2.954694 37,000 154 449 0
2022-07-02 07:16:37 GMT 54.088486 -2.954694 37,000 154 449 0
2022-07-02 07:16:34 GMT 54.094345 -2.959324 37,000 154 449 0
2022-07-02 07:16:31 GMT 54.104965 -2.967924 37,000 154 449 0
2022-07-02 07:16:29 GMT 54.104965 -2.967924 37,000 154 449 0
2022-07-02 07:16:26 GMT 54.108875 -2.971075 37,000 154 449 0
2022-07-02 07:16:23 GMT 54.117050 -2.977609 37,000 154 449 0
2022-07-02 07:16:20 GMT 54.120712 -2.980591 37,000 154 449 0
2022-07-02 07:16:18 GMT 54.124565 -2.983757 37,000 154 449 0
2022-07-02 07:16:16 GMT 54.126663 -2.985378 37,000 154 449 0
2022-07-02 07:16:14 GMT 54.135727 -2.992833 37,000 154 450 64
2022-07-02 07:16:12 GMT 54.141769 -2.997698 37,000 154 450 64
2022-07-02 07:16:09 GMT 54.146484 -3.001622 37,000 154 450 64
2022-07-02 07:16:06 GMT 54.152161 -3.006252 37,000 154 450 64
2022-07-02 07:16:03 GMT 54.152161 -3.006252 37,000 154 450 64
2022-07-02 07:16:00 GMT 54.158707 -3.011666 37,000 154 450 -64
2022-07-02 07:15:58 GMT 54.165951 -3.017605 37,000 154 450 64
2022-07-02 07:15:56 GMT 54.165951 -3.017605 37,000 154 450 -64
2022-07-02 07:15:53 GMT 54.175354 -3.025279 37,000 154 450 -64
2022-07-02 07:15:51 GMT 54.175354 -3.025279 37,000 154 450 -64
2022-07-02 07:15:49 GMT 54.178940 -3.028303 37,000 154 450 -64
2022-07-02 07:15:46 GMT 54.185875 -3.034004 37,000 154 451 0
2022-07-02 07:15:43 GMT 54.189651 -3.037092 37,000 154 450 64
2022-07-02 07:15:40 GMT 54.197021 -3.043134 37,000 154 451 0
2022-07-02 07:15:37 GMT 54.201782 -3.047058 37,000 154 451 0
2022-07-02 07:15:34 GMT 54.206451 -3.050968 37,000 154 451 0
2022-07-02 07:15:31 GMT 54.212723 -3.056161 37,000 154 451 0
2022-07-02 07:15:29 GMT 54.222649 -3.064378 37,000 154 451 0
2022-07-02 07:15:26 GMT 54.222649 -3.064378 37,000 154 451 -64
2022-07-02 07:15:23 GMT 54.231628 -3.071777 37,000 154 451 -64
2022-07-02 07:15:21 GMT 54.231628 -3.071777 37,000 154 451 -64
2022-07-02 07:15:19 GMT 54.234467 -3.074132 37,000 154 451 0
2022-07-02 07:15:16 GMT 54.241745 -3.080096 37,000 154 451 0
2022-07-02 07:15:13 GMT 54.244576 -3.082473 37,000 154 451 64
2022-07-02 07:15:11 GMT 54.250305 -3.087237 37,000 154 451 0
2022-07-02 07:15:09 GMT 54.254631 -3.090793 37,000 154 450 0
2022-07-02 07:15:06 GMT 54.260033 -3.095236 37,000 154 450 0
2022-07-02 07:15:03 GMT 54.263763 -3.098380 37,000 154 450 0
2022-07-02 07:15:01 GMT 54.269165 -3.102774 37,000 154 450 0
2022-07-02 07:14:59 GMT 54.273285 -3.106227 37,000 154 451 -64
2022-07-02 07:14:56 GMT 54.277164 -3.109454 37,000 154 451 -64
2022-07-02 07:14:54 GMT 54.283035 -3.114301 37,000 154 451 0
2022-07-02 07:14:51 GMT 54.287079 -3.117620 37,000 154 451 -64
2022-07-02 07:14:48 GMT 54.299973 -3.128357 37,000 154 451 -64
2022-07-02 07:14:45 GMT 54.299973 -3.128357 37,025 154 451 -128
2022-07-02 07:14:42 GMT 54.303818 -3.131507 37,025 154 451 -192
2022-07-02 07:14:39 GMT 54.309906 -3.136516 37,025 154 451 -128
2022-07-02 07:14:36 GMT 54.315334 -3.141091 37,025 154 450 -64
2022-07-02 07:14:33 GMT 54.320782 -3.145585 37,000 154 449 448
2022-07-02 07:14:30 GMT 54.328217 -3.151703 36,950 154 450 768
2022-07-02 07:14:27 GMT 54.333912 -3.156489 36,900 154 450 896
2022-07-02 07:14:24 GMT 54.337143 -3.159135 36,875 154 450 832
2022-07-02 07:14:20 GMT 54.345840 -3.166405 36,825 154 451 896
2022-07-02 07:14:17 GMT 54.351105 -3.170767 36,775 154 451 896
2022-07-02 07:14:14 GMT 54.356487 -3.175215 36,750 154 451 896
2022-07-02 07:14:12 GMT 54.366356 -3.183455 36,675 154 451 832
2022-07-02 07:14:09 GMT 54.366356 -3.183455 36,675 154 451 832
2022-07-02 07:14:06 GMT 54.371109 -3.187408 36,625 154 451 768
2022-07-02 07:14:04 GMT 54.374680 -3.190397 36,625 154 451 768
2022-07-02 07:14:02 GMT 54.384293 -3.198395 36,525 154 451 768
2022-07-02 07:13:59 GMT 54.384293 -3.198395 36,500 154 451 704
2022-07-02 07:13:56 GMT 54.391342 -3.204292 36,475 154 451 704
2022-07-02 07:13:53 GMT 54.395870 -3.208091 36,450 154 451 640
2022-07-02 07:13:51 GMT 54.399399 -3.210997 36,450 153 450 640
2022-07-02 07:13:49 GMT 54.402992 -3.214000 36,425 153 450 640
2022-07-02 07:13:46 GMT 54.410767 -3.220492 36,400 153 450 640
2022-07-02 07:13:43 GMT 54.414677 -3.223821 36,375 153 450 640
2022-07-02 07:13:40 GMT 54.419567 -3.227900 36,325 153 450 640
2022-07-02 07:13:38 GMT 54.424438 -3.232000 36,300 153 450 704
2022-07-02 07:13:35 GMT 54.430801 -3.237332 36,250 153 449 640
2022-07-02 07:13:32 GMT 54.438560 -3.243880 36,250 153 449 640
2022-07-02 07:13:30 GMT 54.438560 -3.243880 36,225 153 449 640
2022-07-02 07:13:27 GMT 54.443527 -3.248076 36,200 153 449 640
2022-07-02 07:13:25 GMT 54.448055 -3.251870 36,150 153 449 640
2022-07-02 07:13:22 GMT 54.452850 -3.255865 36,150 153 449 576
2022-07-02 07:13:19 GMT 54.458019 -3.260276 36,125 153 449 576
2022-07-02 07:13:17 GMT 54.462524 -3.264070 36,075 153 449 576
2022-07-02 07:13:14 GMT 54.468399 -3.269015 36,075 153 449 576
2022-07-02 07:13:11 GMT 54.475067 -3.274653 36,025 153 448 576
2022-07-02 07:13:08 GMT 54.481247 -3.279823 36,000 153 448 576
2022-07-02 07:13:05 GMT 54.485458 -3.283377 35,975 153 448 512
2022-07-02 07:13:02 GMT 54.489990 -3.287255 35,950 153 447 384
2022-07-02 07:13:00 GMT 54.494568 -3.291132 35,950 153 447 384
2022-07-02 07:12:57 GMT 54.499237 -3.295091 35,925 153 446 448
2022-07-02 07:12:55 GMT 54.503963 -3.299061 35,925 153 446 576
2022-07-02 07:12:52 GMT 54.507706 -3.302280 35,875 153 446 832
2022-07-02 07:12:49 GMT 54.514847 -3.308339 35,825 153 446 896
2022-07-02 07:12:46 GMT 54.522026 -3.314459 35,725 153 447 1024
2022-07-02 07:12:43 GMT 54.532036 -3.323031 35,700 153 446 896
2022-07-02 07:12:40 GMT 54.532036 -3.323031 35,650 153 446 896
2022-07-02 07:12:37 GMT 54.536785 -3.327110 35,650 153 446 896
2022-07-02 07:12:35 GMT 54.540939 -3.330635 35,475 153 446 960
2022-07-02 07:12:32 GMT 54.545334 -3.334351 35,575 153 446 960
2022-07-02 07:12:30 GMT 54.550377 -3.338595 35,525 153 446 960
2022-07-02 07:12:27 GMT 54.555588 -3.343075 35,500 153 446 960
2022-07-02 07:12:25 GMT 54.559387 -3.346306 35,475 153 446 1024
2022-07-02 07:12:22 GMT 54.564156 -3.350331 35,425 153 447 1088
2022-07-02 07:12:19 GMT 54.575935 -3.360402 35,300 153 447 1088
2022-07-02 07:12:16 GMT 54.577744 -3.361897 35,275 153 447 1024
2022-07-02 07:12:12 GMT 54.582550 -3.366017 35,250 153 447 1024
2022-07-02 07:12:10 GMT 54.587063 -3.369806 35,200 153 447 960
2022-07-02 07:12:07 GMT 54.594543 -3.376196 35,125 153 447 896
2022-07-02 07:12:03 GMT 54.599678 -3.380543 35,075 153 448 896
2022-07-02 07:12:00 GMT 54.605309 -3.385370 35,050 153 447 896
2022-07-02 07:11:57 GMT 54.612061 -3.391030 34,975 154 447 832
2022-07-02 07:11:54 GMT 54.614899 -3.393444 34,975 154 447 832
2022-07-02 07:11:52 GMT 54.620087 -3.397845 34,925 154 447 768
2022-07-02 07:11:50 GMT 54.623016 -3.400269 34,900 154 447 768
2022-07-02 07:11:47 GMT 54.629242 -3.405519 34,550 158 443 960
2022-07-02 07:11:44 GMT 54.633614 -3.409174 34,825 160 441 1088
2022-07-02 07:11:42 GMT 54.639130 -3.413840 34,475 158 443 960
2022-07-02 07:11:39 GMT 54.643154 -3.417164 34,725 154 446 1216
2022-07-02 07:11:37 GMT 54.647736 -3.421029 34,700 154 446 1152
2022-07-02 07:11:35 GMT 54.653027 -3.425404 34,625 155 446 960
2022-07-02 07:11:32 GMT 54.658287 -3.429565 34,600 156 445 960
2022-07-02 07:11:29 GMT 54.662521 -3.432811 34,525 157 444 960
2022-07-02 07:11:26 GMT 54.668243 -3.436863 34,500 158 443 960
2022-07-02 07:11:24 GMT 54.671951 -3.439367 34,475 159 442 960
2022-07-02 07:11:21 GMT 54.680538 -3.444796 34,425 160 443 1472
2022-07-02 07:11:19 GMT 54.680538 -3.444796 34,400 160 441 896
2022-07-02 07:11:17 GMT 54.685425 -3.447710 34,325 160 441 896
2022-07-02 07:11:14 GMT 54.690811 -3.451000 34,325 160 441 896
2022-07-02 07:11:12 GMT 54.694565 -3.453342 34,275 160 441 1216
2022-07-02 07:11:09 GMT 54.700882 -3.457139 34,250 160 441 1280
2022-07-02 07:11:06 GMT 54.705780 -3.460128 34,200 160 441 1344
2022-07-02 07:11:04 GMT 54.711540 -3.463690 33,875 160 441 1152
2022-07-02 07:11:01 GMT 54.714798 -3.465702 34,050 160 441 1152
2022-07-02 07:10:59 GMT 54.723953 -3.471357 34,025 160 441 1216
2022-07-02 07:10:57 GMT 54.723953 -3.471357 33,850 160 441 1472
2022-07-02 07:10:54 GMT 54.729836 -3.475009 33,900 160 441 1536
2022-07-02 07:10:52 GMT 54.738403 -3.480252 33,825 160 442 1536
2022-07-02 07:10:49 GMT 54.738403 -3.480252 33,775 160 442 1344
2022-07-02 07:10:47 GMT 54.746338 -3.485170 33,725 160 442 1280
2022-07-02 07:10:45 GMT 54.746338 -3.485170 33,675 160 443 1280
2022-07-02 07:10:43 GMT 54.749863 -3.487271 33,650 160 443 1280
2022-07-02 07:10:41 GMT 54.754074 -3.489856 33,625 160 443 1344
2022-07-02 07:10:39 GMT 54.758327 -3.492487 33,575 160 443 1472
2022-07-02 07:10:37 GMT 54.762085 -3.494864 33,475 160 443 1472
2022-07-02 07:10:35 GMT 54.765404 -3.496815 33,475 160 444 1472
2022-07-02 07:10:33 GMT 54.771057 -3.500276 33,400 160 444 1472
2022-07-02 07:10:30 GMT 54.775772 -3.503104 33,375 160 443 1536
2022-07-02 07:10:27 GMT 54.782318 -3.507062 33,225 160 444 1536
2022-07-02 07:10:25 GMT 54.790558 -3.512071 33,150 160 444 1536
2022-07-02 07:10:22 GMT 54.790558 -3.512071 33,125 160 445 1536
2022-07-02 07:10:19 GMT 54.799526 -3.517456 33,050 160 445 1344
2022-07-02 07:10:16 GMT 54.802643 -3.519287 33,000 160 445 1280
2022-07-02 07:10:14 GMT 54.806625 -3.521684 32,925 160 445 1536
2022-07-02 07:10:11 GMT 54.812374 -3.525113 32,900 160 445 1472
2022-07-02 07:10:09 GMT 54.817169 -3.528026 32,825 161 446 1600
2022-07-02 07:10:05 GMT 54.826492 -3.533559 32,700 161 446 1536
2022-07-02 07:10:02 GMT 54.829559 -3.535417 32,625 161 446 1344
2022-07-02 07:09:59 GMT 54.835464 -3.538929 32,600 161 446 1344
2022-07-02 07:09:56 GMT 54.842697 -3.543252 32,225 160 449 1280
2022-07-02 07:09:53 GMT 54.847523 -3.546087 32,450 161 446 1152
2022-07-02 07:09:51 GMT 54.852222 -3.548917 32,425 161 445 1024
2022-07-02 07:09:49 GMT 54.855293 -3.550748 32,400 161 445 1024
2022-07-02 07:09:46 GMT 54.861191 -3.554239 32,300 161 445 1344
2022-07-02 07:09:43 GMT 54.866982 -3.557573 32,250 161 445 1600
2022-07-02 07:09:41 GMT 54.871868 -3.560403 32,200 161 445 1728
2022-07-02 07:09:39 GMT 54.874786 -3.562155 32,150 161 445 1792
2022-07-02 07:09:37 GMT 54.878906 -3.564498 32,100 161 445 1728
2022-07-02 07:09:35 GMT 54.882248 -3.566478 32,025 161 445 1600
2022-07-02 07:09:33 GMT 54.886112 -3.568726 31,725 160 446 1344
2022-07-02 07:09:30 GMT 54.891747 -3.572055 31,900 161 446 1408
2022-07-02 07:09:28 GMT 54.895844 -3.574468 31,850 161 446 1408
2022-07-02 07:09:25 GMT 54.902683 -3.578547 31,800 160 446 1344
2022-07-02 07:09:23 GMT 54.907700 -3.581543 31,725 160 446 1344
2022-07-02 07:09:20 GMT 54.911343 -3.583707 31,700 160 446 1408
2022-07-02 07:09:18 GMT 54.916977 -3.587119 31,650 160 446 1408
2022-07-02 07:09:15 GMT 54.920654 -3.589298 31,575 160 446 1408
2022-07-02 07:09:13 GMT 54.925964 -3.592529 31,475 160 446 1536
2022-07-02 07:09:10 GMT 54.930725 -3.595518 31,450 160 446 1600
2022-07-02 07:09:08 GMT 54.935318 -3.598355 31,375 160 447 1664
2022-07-02 07:09:05 GMT 54.941437 -3.602142 31,125 160 447 1472
2022-07-02 07:09:03 GMT 54.944595 -3.604081 31,250 160 447 1472
2022-07-02 07:09:00 GMT 54.950180 -3.607635 31,200 160 447 1472
2022-07-02 07:08:58 GMT 54.955948 -3.611190 31,150 160 447 1536
2022-07-02 07:08:55 GMT 54.960434 -3.614017 31,050 160 447 1536
2022-07-02 07:08:53 GMT 54.964508 -3.616602 30,950 160 448 1536
2022-07-02 07:08:50 GMT 54.970093 -3.620078 30,925 160 448 1536
2022-07-02 07:08:48 GMT 54.974888 -3.622991 30,875 160 447 1536
2022-07-02 07:08:45 GMT 54.980659 -3.626570 30,775 160 447 1600
2022-07-02 07:08:42 GMT 54.991425 -3.633163 30,675 160 448 1600
2022-07-02 07:08:39 GMT 54.991425 -3.633163 30,675 160 448 1600
2022-07-02 07:08:36 GMT 54.997559 -3.636974 30,250 160 448 960
2022-07-02 07:08:33 GMT 55.004169 -3.640969 30,425 160 448 1664
2022-07-02 07:08:30 GMT 55.008919 -3.643882 30,400 160 448 1536
2022-07-02 07:08:28 GMT 55.013672 -3.646815 30,325 160 449 1280
2022-07-02 07:08:25 GMT 55.023300 -3.652871 30,250 160 447 896
2022-07-02 07:08:23 GMT 55.023300 -3.652871 30,250 160 447 960
2022-07-02 07:08:20 GMT 55.028229 -3.655943 30,200 159 447 1280
2022-07-02 07:08:18 GMT 55.031296 -3.657963 30,125 158 448 1600
2022-07-02 07:08:15 GMT 55.036987 -3.661776 30,100 158 448 1536
2022-07-02 07:08:12 GMT 55.042557 -3.665637 30,000 156 449 1024
2022-07-02 07:08:10 GMT 55.047821 -3.669595 29,975 155 449 832
2022-07-02 07:08:08 GMT 55.050430 -3.671695 29,975 155 449 704
2022-07-02 07:08:06 GMT 55.058853 -3.678724 29,950 153 448 512
2022-07-02 07:08:02 GMT 55.061893 -3.681335 29,825 153 446 832
2022-07-02 07:08:00 GMT 55.066547 -3.685414 29,875 153 446 1088
2022-07-02 07:07:58 GMT 55.069565 -3.688013 29,850 153 445 1152
2022-07-02 07:07:56 GMT 55.074738 -3.692456 29,800 153 445 1216
2022-07-02 07:07:54 GMT 55.077305 -3.694735 29,750 153 444 1216
2022-07-02 07:07:52 GMT 55.081192 -3.698111 29,675 153 444 1088
2022-07-02 07:07:49 GMT 55.086502 -3.702796 29,675 153 443 960
2022-07-02 07:07:46 GMT 55.092133 -3.707643 29,625 153 442 768
2022-07-02 07:07:44 GMT 55.099411 -3.713944 29,550 153 440 832
2022-07-02 07:07:42 GMT 55.099411 -3.713944 29,550 153 440 768
2022-07-02 07:07:39 GMT 55.105179 -3.719034 29,525 153 440 960
2022-07-02 07:07:37 GMT 55.107189 -3.720786 29,500 153 439 1152
2022-07-02 07:07:35 GMT 55.112137 -3.725092 29,400 153 439 1152
2022-07-02 07:07:32 GMT 55.116898 -3.729293 29,250 153 438 832
2022-07-02 07:07:30 GMT 55.121384 -3.733170 29,375 153 437 768
2022-07-02 07:07:28 GMT 55.124275 -3.735684 29,325 153 436 896
2022-07-02 07:07:25 GMT 55.130371 -3.741011 29,275 153 436 1408
2022-07-02 07:07:22 GMT 55.135345 -3.745369 29,200 153 435 1536
2022-07-02 07:07:19 GMT 55.142010 -3.751165 29,125 153 435 1408
2022-07-02 07:07:17 GMT 55.145313 -3.754078 29,075 153 433 1152
2022-07-02 07:07:14 GMT 55.149506 -3.757740 29,025 153 433 1088
2022-07-02 07:07:12 GMT 55.153198 -3.760959 28,975 153 431 896
2022-07-02 07:07:09 GMT 55.159378 -3.766372 28,950 153 431 896
2022-07-02 07:07:05 GMT 55.166775 -3.772805 28,875 153 429 1152
2022-07-02 07:07:03 GMT 55.170734 -3.776301 28,800 153 429 1152
2022-07-02 07:07:00 GMT 55.175388 -3.780379 28,800 153 428 1152
2022-07-02 07:06:58 GMT 55.180092 -3.784540 28,725 153 425 1216
2022-07-02 07:06:55 GMT 55.184464 -3.788344 28,675 153 427 1152
2022-07-02 07:06:53 GMT 55.188446 -3.791818 28,625 153 427 1216
2022-07-02 07:06:50 GMT 55.192844 -3.795693 28,600 153 426 1152
2022-07-02 07:06:48 GMT 55.196869 -3.799169 28,550 153 426 1152
2022-07-02 07:06:45 GMT 55.201271 -3.803101 28,525 153 425 1216
2022-07-02 07:06:43 GMT 55.204857 -3.806263 28,425 153 423 1280
2022-07-02 07:06:40 GMT 55.210396 -3.811091 28,375 153 423 1280
2022-07-02 07:06:38 GMT 55.213943 -3.814195 28,350 153 423 1344
2022-07-02 07:06:36 GMT 55.217560 -3.817345 28,300 153 422 1344
2022-07-02 07:06:34 GMT 55.220078 -3.819526 28,250 153 421 1344
2022-07-02 07:06:32 GMT 55.223522 -3.822576 28,200 153 421 1408
2022-07-02 07:06:30 GMT 55.227715 -3.826238 28,150 153 421 1472
2022-07-02 07:06:28 GMT 55.231750 -3.829786 28,100 153 420 1472
2022-07-02 07:06:26 GMT 55.234360 -3.832047 28,075 153 420 1472
2022-07-02 07:06:24 GMT 55.238560 -3.835810 28,000 153 420 1536
2022-07-02 07:06:22 GMT 55.241455 -3.838348 27,975 153 419 1536
2022-07-02 07:06:20 GMT 55.245071 -3.841499 27,900 153 419 1536
2022-07-02 07:06:18 GMT 55.249172 -3.845132 27,850 153 419 1600
2022-07-02 07:06:16 GMT 55.254993 -3.850209 27,775 153 418 1792
2022-07-02 07:06:14 GMT 55.254993 -3.850209 27,750 153 418 1856
2022-07-02 07:06:12 GMT 55.258995 -3.853704 27,600 153 418 1920
2022-07-02 07:06:09 GMT 55.264397 -3.858448 27,575 153 418 1664
2022-07-02 07:06:05 GMT 55.271053 -3.864358 27,450 153 417 1472
2022-07-02 07:06:02 GMT 55.275467 -3.868157 27,375 153 416 1536
2022-07-02 07:05:59 GMT 55.281555 -3.873569 27,325 153 416 1600
2022-07-02 07:05:56 GMT 55.286591 -3.878012 27,250 153 416 1728
2022-07-02 07:05:54 GMT 55.290001 -3.881004 27,175 153 416 1856
2022-07-02 07:05:52 GMT 55.293446 -3.884000 27,125 153 416 1984
2022-07-02 07:05:50 GMT 55.297073 -3.887221 27,050 153 416 1984
2022-07-02 07:05:47 GMT 55.300598 -3.890372 26,975 153 416 1984
2022-07-02 07:05:45 GMT 55.305504 -3.894653 26,900 153 416 1920
2022-07-02 07:05:43 GMT 55.309158 -3.897885 26,800 153 415 1920
2022-07-02 07:05:40 GMT 55.314533 -3.902643 26,725 153 415 1920
2022-07-02 07:05:38 GMT 55.321793 -3.909032 26,650 153 415 1920
2022-07-02 07:05:35 GMT 55.321793 -3.909032 26,575 153 415 1920
2022-07-02 07:05:33 GMT 55.325592 -3.912345 26,525 153 415 1920
2022-07-02 07:05:30 GMT 55.331726 -3.917757 26,400 153 415 1920
2022-07-02 07:05:28 GMT 55.333557 -3.919373 26,375 153 415 1856
2022-07-02 07:05:26 GMT 55.338554 -3.923784 26,275 153 415 1984
2022-07-02 07:05:24 GMT 55.345413 -3.929874 26,175 153 414 2112
2022-07-02 07:05:22 GMT 55.345413 -3.929874 26,125 153 414 2240
2022-07-02 07:05:19 GMT 55.349945 -3.933833 26,000 153 415 1984
2022-07-02 07:05:16 GMT 55.355667 -3.938922 25,925 153 414 1984
2022-07-02 07:05:13 GMT 55.359283 -3.942072 25,850 153 414 1984
2022-07-02 07:05:11 GMT 55.362762 -3.945174 25,800 153 414 1920
2022-07-02 07:05:08 GMT 55.367558 -3.949419 25,700 153 413 2112
2022-07-02 07:05:06 GMT 55.372650 -3.953947 25,575 153 413 2240
2022-07-02 07:05:04 GMT 55.375843 -3.956743 25,525 153 413 2240
2022-07-02 07:05:02 GMT 55.379379 -3.959844 25,425 153 413 2112
2022-07-02 07:04:59 GMT 55.384781 -3.964691 25,325 153 413 1920
2022-07-02 07:04:56 GMT 55.389450 -3.968811 25,250 153 412 1920
2022-07-02 07:04:53 GMT 55.393753 -3.972608 25,175 153 410 2048
2022-07-02 07:04:51 GMT 55.402748 -3.980546 25,000 153 410 1920
2022-07-02 07:04:48 GMT 55.402748 -3.980546 24,875 153 410 1920
2022-07-02 07:04:45 GMT 55.410896 -3.987787 24,875 153 410 1920
2022-07-02 07:04:43 GMT 55.410896 -3.987787 24,825 153 409 1920
2022-07-02 07:04:41 GMT 55.414574 -3.990950 24,775 153 409 1920
2022-07-02 07:04:38 GMT 55.423004 -3.998458 24,625 153 408 2048
2022-07-02 07:04:36 GMT 55.423004 -3.998458 24,600 153 408 2048
2022-07-02 07:04:33 GMT 55.428493 -4.003268 24,475 153 408 1984
2022-07-02 07:04:30 GMT 55.432022 -4.006455 24,425 153 408 1984
2022-07-02 07:04:27 GMT 55.438038 -4.011758 24,300 153 407 2048
2022-07-02 07:04:25 GMT 55.440536 -4.013968 24,250 153 407 2112
2022-07-02 07:04:23 GMT 55.444695 -4.017649 24,150 153 407 2176
2022-07-02 07:04:21 GMT 55.448044 -4.020580 24,075 153 406 2240
2022-07-02 07:04:18 GMT 55.452072 -4.024159 24,000 153 406 2176
2022-07-02 07:04:16 GMT 55.457821 -4.029236 23,850 153 406 2112
2022-07-02 07:04:13 GMT 55.462009 -4.033012 23,775 153 405 2112
2022-07-02 07:04:11 GMT 55.464706 -4.035312 23,700 153 405 2112
2022-07-02 07:04:09 GMT 55.467178 -4.037561 23,675 153 405 2112
2022-07-02 07:04:07 GMT 55.471321 -4.041166 23,450 153 394 2304
2022-07-02 07:04:05 GMT 55.474857 -4.044342 23,450 153 403 2112
2022-07-02 07:04:02 GMT 55.483749 -4.052238 23,350 153 402 1984
2022-07-02 07:03:59 GMT 55.483749 -4.052238 23,325 153 402 1984
2022-07-02 07:03:57 GMT 55.487892 -4.055843 23,250 153 402 1984
2022-07-02 07:03:54 GMT 55.494736 -4.061945 22,850 153 401 2048
2022-07-02 07:03:51 GMT 55.498135 -4.064941 23,025 153 400 2112
2022-07-02 07:03:49 GMT 55.500790 -4.067259 22,975 153 400 2112
2022-07-02 07:03:47 GMT 55.505081 -4.071100 22,875 153 399 2112
2022-07-02 07:03:44 GMT 55.509399 -4.074898 22,800 153 399 2048
2022-07-02 07:03:41 GMT 55.514847 -4.079704 22,625 153 397 1984
2022-07-02 07:03:39 GMT 55.517578 -4.082087 22,625 153 398 1984
2022-07-02 07:03:37 GMT 55.521458 -4.085541 22,550 153 397 1984
2022-07-02 07:03:34 GMT 55.531448 -4.094405 22,400 153 396 2176
2022-07-02 07:03:31 GMT 55.531448 -4.094405 22,350 153 396 2176
2022-07-02 07:03:29 GMT 55.533794 -4.096441 22,300 153 395 2176
2022-07-02 07:03:27 GMT 55.537537 -4.099815 22,175 153 394 2240
2022-07-02 07:03:25 GMT 55.540146 -4.102145 22,150 153 394 2304
2022-07-02 07:03:23 GMT 55.547836 -4.108970 21,925 153 393 2304
2022-07-02 07:03:21 GMT 55.547836 -4.108970 21,925 153 393 2304
2022-07-02 07:03:19 GMT 55.550171 -4.110967 21,900 153 393 2304
2022-07-02 07:03:17 GMT 55.554565 -4.114879 21,775 153 393 2240
2022-07-02 07:03:14 GMT 55.558746 -4.118671 21,700 153 392 2176
2022-07-02 07:03:12 GMT 55.562050 -4.121590 21,575 153 391 2240
2022-07-02 07:03:09 GMT 55.566193 -4.125283 21,550 153 391 2240
2022-07-02 07:03:07 GMT 55.570038 -4.128695 21,450 153 390 2304
2022-07-02 07:03:05 GMT 55.572617 -4.131031 21,400 153 390 2304
2022-07-02 07:03:03 GMT 55.576721 -4.134771 21,300 152 389 2304
2022-07-02 07:02:59 GMT 55.586723 -4.143820 21,125 152 389 2368
2022-07-02 07:02:57 GMT 55.586723 -4.143820 21,050 152 389 2432
2022-07-02 07:02:55 GMT 55.589310 -4.146174 20,925 152 388 2432
2022-07-02 07:02:52 GMT 55.594482 -4.150918 20,850 152 387 2368
2022-07-02 07:02:50 GMT 55.596920 -4.153090 20,725 152 387 2368
2022-07-02 07:02:47 GMT 55.602539 -4.158325 20,650 152 387 2304
2022-07-02 07:02:44 GMT 55.606659 -4.162154 20,550 152 386 2048
2022-07-02 07:02:42 GMT 55.609070 -4.164333 20,525 152 386 2048
2022-07-02 07:02:39 GMT 55.614609 -4.169569 20,375 151 384 2048
2022-07-02 07:02:36 GMT 55.617966 -4.172807 20,300 151 383 2304
2022-07-02 07:02:34 GMT 55.622314 -4.177052 20,200 151 382 2496
2022-07-02 07:02:32 GMT 55.625427 -4.179965 19,950 153 381 2496
2022-07-02 07:02:29 GMT 55.629822 -4.183877 20,000 155 381 2432
2022-07-02 07:02:26 GMT 55.634354 -4.187539 19,875 158 380 2432
2022-07-02 07:02:23 GMT 55.639664 -4.191118 19,675 162 378 2624
2022-07-02 07:02:20 GMT 55.644562 -4.193781 19,625 166 377 2560
2022-07-02 07:02:18 GMT 55.649048 -4.195695 19,500 168 376 2496
2022-07-02 07:02:15 GMT 55.652782 -4.196949 19,425 172 375 2432
2022-07-02 07:02:13 GMT 55.656181 -4.197807 19,325 173 374 2432
2022-07-02 07:02:11 GMT 55.659763 -4.198408 19,250 177 373 2304
2022-07-02 07:02:09 GMT 55.663330 -4.198692 19,175 179 372 2304
2022-07-02 07:02:07 GMT 55.666931 -4.198837 19,050 184 370 2368
2022-07-02 07:02:04 GMT 55.672939 -4.198151 18,950 187 370 2432
2022-07-02 07:02:01 GMT 55.677155 -4.197277 18,800 192 367 2432
2022-07-02 07:01:58 GMT 55.684158 -4.194803 18,675 194 367 2432
2022-07-02 07:01:55 GMT 55.686768 -4.193531 18,625 198 365 2432
2022-07-02 07:01:53 GMT 55.690071 -4.191713 18,325 207 363 2624
2022-07-02 07:01:50 GMT 55.695007 -4.188288 18,400 206 364 2560
2022-07-02 07:01:48 GMT 55.698074 -4.185791 18,300 209 363 2624
2022-07-02 07:01:45 GMT 55.702591 -4.181328 18,175 215 362 2560
2022-07-02 07:01:42 GMT 55.706734 -4.176350 18,050 217 363 2496
2022-07-02 07:01:39 GMT 55.710365 -4.171114 17,950 222 361 2368
2022-07-02 07:01:35 GMT 55.715115 -4.162788 17,750 230 361 2176
2022-07-02 07:01:32 GMT 55.719131 -4.154164 17,650 234 359 2304
2022-07-02 07:01:29 GMT 55.721512 -4.148504 17,550 236 358 2432
2022-07-02 07:01:27 GMT 55.723263 -4.143991 17,350 236 356 2624
2022-07-02 07:01:24 GMT 55.725906 -4.137102 17,350 236 356 2624
2022-07-02 07:01:22 GMT 55.727730 -4.132404 17,275 236 356 2688
2022-07-02 07:01:19 GMT 55.731361 -4.122963 17,100 236 356 2752
2022-07-02 07:01:15 GMT 55.734467 -4.114962 16,925 236 355 2752
2022-07-02 07:01:13 GMT 55.736343 -4.110052 16,800 236 354 2688
2022-07-02 07:01:10 GMT 55.739090 -4.102964 16,700 236 353 2688
2022-07-02 07:01:08 GMT 55.740578 -4.099102 16,675 236 353 2688
2022-07-02 07:01:05 GMT 55.744068 -4.090176 16,450 236 352 2688
2022-07-02 07:01:03 GMT 55.745453 -4.086498 16,400 236 352 2816
2022-07-02 07:01:01 GMT 55.747238 -4.082004 16,325 236 351 2944
2022-07-02 07:00:58 GMT 55.749710 -4.075678 16,100 236 350 3072
2022-07-02 07:00:55 GMT 55.753510 -4.065857 15,975 236 350 3072
2022-07-02 07:00:52 GMT 55.755432 -4.060780 15,850 236 350 3008
2022-07-02 07:00:50 GMT 55.757805 -4.054728 15,750 236 350 2816
2022-07-02 07:00:48 GMT 55.759060 -4.051380 15,625 236 350 2624
2022-07-02 07:00:45 GMT 55.763855 -4.038974 15,400 236 347 2432
2022-07-02 07:00:43 GMT 55.767021 -4.030781 15,400 236 347 2432
2022-07-02 07:00:40 GMT 55.767021 -4.030781 15,300 236 346 2496
2022-07-02 07:00:38 GMT 55.768570 -4.026822 15,275 236 346 2560
2022-07-02 07:00:35 GMT 55.773651 -4.013589 15,025 236 344 2816
2022-07-02 07:00:32 GMT 55.773651 -4.013589 15,025 236 344 2816
2022-07-02 07:00:29 GMT 55.776718 -4.005599 14,825 236 342 2880
2022-07-02 07:00:25 GMT 55.780380 -3.996019 14,625 237 342 2816
2022-07-02 07:00:22 GMT 55.783127 -3.988638 14,475 237 340 2816
2022-07-02 07:00:19 GMT 55.785461 -3.982544 14,350 237 340 2752
2022-07-02 07:00:16 GMT 55.788109 -3.975420 14,200 237 339 2816
2022-07-02 07:00:13 GMT 55.790810 -3.968382 14,050 237 338 3136
2022-07-02 07:00:09 GMT 55.794300 -3.959112 13,825 236 337 3328
2022-07-02 07:00:07 GMT 55.797234 -3.951387 13,675 236 337 3136
2022-07-02 07:00:04 GMT 55.798073 -3.949156 13,550 236 336 2816
2022-07-02 07:00:02 GMT 55.799793 -3.944607 13,450 237 336 2688
2022-07-02 06:59:59 GMT 55.802914 -3.936453 13,350 236 334 2816
2022-07-02 06:59:57 GMT 55.803890 -3.933878 13,125 236 333 3328
2022-07-02 06:59:54 GMT 55.806591 -3.926754 13,125 236 333 3520
2022-07-02 06:59:52 GMT 55.808872 -3.920832 12,900 236 333 3648
2022-07-02 06:59:49 GMT 55.811188 -3.914795 12,800 236 333 3584
2022-07-02 06:59:47 GMT 55.813202 -3.909502 12,575 236 333 3456
2022-07-02 06:59:44 GMT 55.815170 -3.904308 12,425 236 332 3392
2022-07-02 06:59:42 GMT 55.817688 -3.897733 12,275 236 332 3456
2022-07-02 06:59:39 GMT 55.819996 -3.891735 12,225 236 332 3584
2022-07-02 06:59:37 GMT 55.822556 -3.885126 12,050 236 332 3776
2022-07-02 06:59:34 GMT 55.824139 -3.881006 11,875 236 333 3776
2022-07-02 06:59:32 GMT 55.825954 -3.876114 11,700 237 333 3392
2022-07-02 06:59:29 GMT 55.828766 -3.868769 11,600 237 333 3072
2022-07-02 06:59:27 GMT 55.830368 -3.864441 11,175 237 332 2688
2022-07-02 06:59:24 GMT 55.832474 -3.858865 11,375 237 331 2560
2022-07-02 06:59:22 GMT 55.834660 -3.853025 11,250 237 328 2432
2022-07-02 06:59:19 GMT 55.837189 -3.846214 11,150 237 327 2368
2022-07-02 06:59:17 GMT 55.839615 -3.839638 11,050 237 324 1920
2022-07-02 06:59:14 GMT 55.840759 -3.836559 11,000 237 322 1536
2022-07-02 06:59:12 GMT 55.842808 -3.831139 10,925 237 318 1152
2022-07-02 06:59:09 GMT 55.846939 -3.819996 10,900 237 314 960
2022-07-02 06:59:07 GMT 55.846939 -3.819996 10,850 237 311 1024
2022-07-02 06:59:04 GMT 55.848999 -3.814316 10,825 237 309 960
2022-07-02 06:59:02 GMT 55.850952 -3.809080 10,775 237 303 896
2022-07-02 06:58:59 GMT 55.853256 -3.802768 10,750 237 300 832
2022-07-02 06:58:57 GMT 55.854866 -3.798351 10,700 238 296 832
2022-07-02 06:58:54 GMT 55.856735 -3.793196 10,675 238 292 960
2022-07-02 06:58:51 GMT 55.859287 -3.786249 10,600 238 286 1536
2022-07-02 06:58:48 GMT 55.861084 -3.781294 10,550 238 284 1792
2022-07-02 06:58:46 GMT 55.862499 -3.777409 10,400 238 280 2752
2022-07-02 06:58:43 GMT 55.864407 -3.772001 10,225 238 278 3264
2022-07-02 06:58:40 GMT 55.866806 -3.765398 10,150 238 278 3264
2022-07-02 06:58:37 GMT 55.869965 -3.756742 9,925 238 277 3136
2022-07-02 06:58:34 GMT 55.870926 -3.753912 9,850 238 277 2944
2022-07-02 06:58:31 GMT 55.872742 -3.748999 9,650 238 275 2624
2022-07-02 06:58:28 GMT 55.875046 -3.742509 9,575 238 273 2688
2022-07-02 06:58:26 GMT 55.876606 -3.738098 9,475 239 272 2752
2022-07-02 06:58:23 GMT 55.878326 -3.733292 9,350 239 272 2880
2022-07-02 06:58:21 GMT 55.880447 -3.726945 9,150 243 270 3328
2022-07-02 06:58:17 GMT 55.882236 -3.720760 8,900 249 270 3712
2022-07-02 06:58:14 GMT 55.883587 -3.715096 8,825 249 270 3840
2022-07-02 06:58:11 GMT 55.884796 -3.708718 8,575 257 272 3584
2022-07-02 06:58:08 GMT 55.885757 -3.702143 8,325 259 272 3328
2022-07-02 06:58:05 GMT 55.886673 -3.694236 8,250 259 271 3200
2022-07-02 06:58:01 GMT 55.887592 -3.686085 7,950 259 269 3200
2022-07-02 06:57:58 GMT 55.888195 -3.680592 7,875 259 268 3200
2022-07-02 06:57:56 GMT 55.888706 -3.675957 7,800 259 267 3072
2022-07-02 06:57:53 GMT 55.889328 -3.670349 7,650 259 266 3008
2022-07-02 06:57:51 GMT 55.889965 -3.664627 7,500 259 264 3264
2022-07-02 06:57:48 GMT 55.890617 -3.658962 7,225 260 262 3072
2022-07-02 06:57:46 GMT 55.891220 -3.653469 7,250 259 262 3200
2022-07-02 06:57:43 GMT 55.891846 -3.647877 7,050 260 260 2688
2022-07-02 06:57:40 GMT 55.892479 -3.642054 6,975 260 259 2560
2022-07-02 06:57:37 GMT 55.893082 -3.636391 6,900 260 257 2432
2022-07-02 06:57:34 GMT 55.893860 -3.629234 6,725 260 255 2432
2022-07-02 06:57:31 GMT 55.894455 -3.623075 6,575 260 254 2304
2022-07-02 06:57:28 GMT 55.895096 -3.616832 6,425 262 255 1472
2022-07-02 06:57:26 GMT 55.895508 -3.612671 6,425 261 252 2176
2022-07-02 06:57:23 GMT 55.896576 -3.601456 6,225 261 255 1472
2022-07-02 06:57:21 GMT 55.896576 -3.601456 6,225 261 253 1856
2022-07-02 06:57:18 GMT 55.897041 -3.596563 6,150 261 254 1728
2022-07-02 06:57:16 GMT 55.897614 -3.590365 6,075 261 255 1536
2022-07-02 06:57:13 GMT 55.898026 -3.586287 6,025 261 255 1408
2022-07-02 06:57:11 GMT 55.898483 -3.581114 5,950 262 255 1472
2022-07-02 06:57:08 GMT 55.898941 -3.575634 5,900 262 254 1600
2022-07-02 06:57:05 GMT 55.899464 -3.569613 5,700 262 251 2624
2022-07-02 06:57:02 GMT 55.900040 -3.562234 5,700 262 251 2688
2022-07-02 06:56:58 GMT 55.900623 -3.555279 5,525 262 249 3136
2022-07-02 06:56:55 GMT 55.901093 -3.549786 5,275 262 247 2880
2022-07-02 06:56:52 GMT 55.901642 -3.543257 5,225 262 247 2496
2022-07-02 06:56:50 GMT 55.901962 -3.539179 5,150 262 245 1920
2022-07-02 06:56:47 GMT 55.902393 -3.534422 5,100 261 241 1664
2022-07-02 06:56:44 GMT 55.903107 -3.526445 4,975 261 235 1792
2022-07-02 06:56:40 GMT 55.903744 -3.519659 4,875 258 229 1792
2022-07-02 06:56:37 GMT 55.905121 -3.509549 4,775 255 223 1792
2022-07-02 06:56:35 GMT 55.905121 -3.509549 4,700 250 218 1856
2022-07-02 06:56:32 GMT 55.905792 -3.505840 4,625 250 218 1856
2022-07-02 06:56:28 GMT 55.907501 -3.498313 4,475 245 211 2304
2022-07-02 06:56:23 GMT 55.909836 -3.490157 4,275 241 207 2944
2022-07-02 06:56:18 GMT 55.912079 -3.483267 3,975 240 204 3264
2022-07-02 06:56:13 GMT 55.914734 -3.475259 3,650 239 202 3584
2022-07-02 06:56:10 GMT 55.915661 -3.472452 3,475 239 202 3648
2022-07-02 06:56:07 GMT 55.917206 -3.468018 3,350 239 203 3712
2022-07-02 06:56:04 GMT 55.919014 -3.462753 2,925 239 203 3520
2022-07-02 06:56:01 GMT 55.920319 -3.459029 2,975 239 203 3072
2022-07-02 06:55:57 GMT 55.922150 -3.453702 2,850 239 201 2368
2022-07-02 06:55:55 GMT 55.922974 -3.451372 2,750 239 198 1984
2022-07-02 06:55:52 GMT 55.924850 -3.445962 2,650 239 187 1408
2022-07-02 06:55:48 GMT 55.926498 -3.441134 2,575 239 185 1536
2022-07-02 06:55:46 GMT 55.927395 -3.438549 2,550 239 184 1664
2022-07-02 06:55:43 GMT 55.930420 -3.429794 2,200 239 173 1536
2022-07-02 06:55:39 GMT 55.930420 -3.429794 2,275 239 169 1472
2022-07-02 06:55:36 GMT 55.931717 -3.426070 2,000 239 166 1536
2022-07-02 06:55:32 GMT 55.933121 -3.421812 2,125 239 163 1920
2022-07-02 06:55:29 GMT 55.934418 -3.418080 1,975 239 159 2176
2022-07-02 06:55:26 GMT 55.935493 -3.414946 1,900 239 158 2112
2022-07-02 06:55:23 GMT 55.936565 -3.411856 1,775 239 152 2176
2022-07-02 06:55:21 GMT 55.937347 -3.409590 1,750 239 152 2176
2022-07-02 06:55:20 GMT 55.937634 -3.408680 1,700 239 150 2432
2022-07-02 06:55:19 GMT 55.938007 -3.407650 1,675 239 150 2688
2022-07-02 06:55:17 GMT 55.938705 -3.405590 1,575 239 149 3136
2022-07-02 06:55:16 GMT 55.939079 -3.404474 1,525 239 149 3200
2022-07-02 06:55:14 GMT 55.939819 -3.402349 1,400 239 150 3456
2022-07-02 06:55:13 GMT 55.940243 -3.401127 1,325 239 150 3520
2022-07-02 06:55:12 GMT 55.940613 -3.400011 1,275 239 150 3520
2022-07-02 06:55:06 GMT 55.942848 -3.393488 850 239 154 3264
2022-07-02 06:55:03 GMT 55.944077 -3.390031 725 239 155 3072
2022-07-02 06:54:55 GMT 55.946712 -3.382158 350 239 157 2752
2022-07-02 06:54:44 GMT 55.950760 -3.370306 225 239 133 0
2022-07-02 06:54:04 GMT 55.955601 -3.355928 0 239 0
2022-07-02 06:53:35 GMT 55.955627 -3.355916 0 239 0
2022-07-02 06:53:31 GMT 55.955635 -3.355907 0 239 0
2022-07-02 06:53:21 GMT 55.955639 -3.355894 0 239 1
2022-07-02 06:53:02 GMT 55.955753 -3.355551 0 258 5
2022-07-02 06:51:40 GMT 55.952984 -3.358018 0 59 16
2022-07-02 06:51:30 GMT 55.952625 -3.359049 0 59 13
2022-07-02 06:51:22 GMT 55.952404 -3.359671 0 36 11
2022-07-02 06:51:10 GMT 55.951904 -3.359692 0 329 12
2022-07-02 06:51:03 GMT 55.951530 -3.359284 0 312 15
2022-07-02 06:50:49 GMT 55.950878 -3.357782 0 306 19
2022-07-02 06:49:45 GMT 55.948402 -3.349852 0 303 11
2022-07-02 06:49:38 GMT 55.948151 -3.349394 0 351 11
2022-07-02 06:49:30 GMT 55.947807 -3.349500 0 28 10
2022-07-02 06:49:22 GMT 55.947468 -3.349822 0 28 10
2022-07-02 06:49:17 GMT 55.947269 -3.350015 0 28 10
2022-07-02 06:49:12 GMT 55.947075 -3.350185 0 28 9
2022-07-02 06:49:09 GMT 55.947006 -3.350268 0 28 9
2022-07-02 06:49:00 GMT 55.946690 -3.350573 0 36 9
2022-07-02 06:48:50 GMT 55.946423 -3.351121 0 59 10
2022-07-02 06:48:40 GMT 55.946213 -3.351710 0 53 9
2022-07-02 06:48:29 GMT 55.946003 -3.352160 0 25 5
2022-07-02 06:45:45 GMT 55.945850 -3.352287 0 351 0
2022-07-02 06:45:38 GMT 55.945839 -3.352289 0 351 0
2022-07-02 06:45:27 GMT 55.945873 -3.352287 0 348 1
2022-07-02 06:45:18 GMT 55.945908 -3.352332 0 343 2
2022-07-02 06:45:04 GMT 55.945969 -3.352482 0 312 2
2022-07-02 06:44:58 GMT 55.945980 -3.352568 0 300 2

Making use of Plane Finder data

You are free to use the raw flight data, aircraft information and images provided in this report for your own purposes provided the data is correctly attributed to Plane Finder. We ask that you please credit Plane Finder and link to planefinder.net in close proximity to the content.

Optionally one of the following logos (no smaller then 150x24px) can be used and must link to planefinder.net

Embedding the Plane Finder map

You are welcome to embed the Plane Finder playback map on your website to offer visitors a more interactive experience. We suggest using the following HTML code:

<iframe src="//planefinder.net/data/report/FR5580-EI-DHG-7700-squawk-2022-07-02/map" width="800" height="600" seamless="seamless"></iframe>

Where our data comes from

Plane Finder has a global network of data feeds and antenna radars that receive data broadcast directly from aircraft. The primary technologies used are ADS-B and MLAT. We also show feeds from the FAA and a FLARM glider feed.

Click here to find out more about the Plane Finder network.

How we collect our data